<?xml version="1.0" encoding="UTF-8" standalone="no" ?>
<gpx xmlns="http://www.topografix.com/GPX/1/1" xmlns:xsi="http://www.w3.org/2001/XMLSchema-instance" xsi:schemaLocation="http://www.topografix.com/GPX/1/1 http://www.topografix.com/GPX/1/1/gpx.xsd" version="1.1" creator="VisuGPX - https://www.visugpx.com">
  <metadata>
    <name>Tours Lamballe &amp;amp; La Poterie</name>
    <desc><![CDATA[2 boucles sur une journée, avec retour pour le déjeuner aux voitures.
Ce qui permet de les faires aussi séparément.]]></desc>
  </metadata>
  <wpt lat="48.47172" lon="-2.50338">
    <ele>49</ele>
    <name><![CDATA[DEPART]]></name>
    <type><![CDATA[pk]]></type>
  </wpt>
  <wpt lat="48.47155" lon="-2.5034">
    <ele>48.8</ele>
    <name><![CDATA[PICNIC]]></name>
    <type><![CDATA[picnic]]></type>
  </wpt>
  <wpt lat="48.48157" lon="-2.46461">
    <ele>87.9</ele>
    <name><![CDATA[LANDE DES POTIERS]]></name>
    <type><![CDATA[patrimoine_geo]]></type>
  </wpt>
  <wpt lat="48.4717" lon="-2.50355">
    <ele>48.8</ele>
    <name><![CDATA[TOUR APRES-MIDI]]></name>
    <desc><![CDATA[Visite Lamballe]]></desc>
  </wpt>
  <wpt lat="48.47135" lon="-2.50364">
    <ele>48.4</ele>
    <name><![CDATA[TOUR MATIN]]></name>
  </wpt>
  <trk>
    <name><![CDATA[Tours Lamballe &amp; La Poterie_2]]></name>
    <extensions>
      <line xmlns="http://www.topografix.com/GPX/gpx_style/0/2">
        <color>00FF00</color>
        <width>4</width>
      </line>
    </extensions>
    <trkseg>
      <trkpt lat="48.47146" lon="-2.50364">
        <ele>48.5</ele>
        <time>2021-05-10T10:09:16Z</time>
      </trkpt>
      <trkpt lat="48.4714" lon="-2.5037">
        <ele>48.4</ele>
      </trkpt>
      <trkpt lat="48.47134" lon="-2.50376">
        <ele>48.3</ele>
        <time>2021-05-10T10:09:17Z</time>
      </trkpt>
      <trkpt lat="48.47123" lon="-2.50391">
        <ele>48.1</ele>
      </trkpt>
      <trkpt lat="48.47113" lon="-2.50403">
        <ele>48.1</ele>
      </trkpt>
      <trkpt lat="48.47101" lon="-2.5041">
        <ele>48</ele>
      </trkpt>
      <trkpt lat="48.47094" lon="-2.5038">
        <ele>48.1</ele>
      </trkpt>
      <trkpt lat="48.47084" lon="-2.5036">
        <ele>48</ele>
      </trkpt>
      <trkpt lat="48.4708" lon="-2.50345">
        <ele>48.1</ele>
        <time>2021-05-10T10:35:26Z</time>
      </trkpt>
      <trkpt lat="48.47078" lon="-2.50333">
        <ele>42.7412109375</ele>
        <time>2021-05-10T10:35:32Z</time>
      </trkpt>
      <trkpt lat="48.47074" lon="-2.5032">
        <ele>48.6</ele>
        <time>2021-05-10T10:35:39Z</time>
      </trkpt>
      <trkpt lat="48.47074" lon="-2.50309">
        <ele>51.031616210938</ele>
        <time>2021-05-10T10:36:12Z</time>
      </trkpt>
      <trkpt lat="48.47072" lon="-2.50298">
        <ele>50.790100097656</ele>
        <time>2021-05-10T10:36:18Z</time>
      </trkpt>
      <trkpt lat="48.47069" lon="-2.50287">
        <ele>51.919677734375</ele>
        <time>2021-05-10T10:36:25Z</time>
      </trkpt>
      <trkpt lat="48.47067" lon="-2.50276">
        <ele>53.578491210938</ele>
        <time>2021-05-10T10:36:31Z</time>
      </trkpt>
      <trkpt lat="48.47063" lon="-2.50264">
        <ele>52.341247558594</ele>
        <time>2021-05-10T10:36:37Z</time>
      </trkpt>
      <trkpt lat="48.47059" lon="-2.50253">
        <ele>49.803466796875</ele>
        <time>2021-05-10T10:36:43Z</time>
      </trkpt>
      <trkpt lat="48.47057" lon="-2.50242">
        <ele>51.114379882812</ele>
        <time>2021-05-10T10:36:49Z</time>
      </trkpt>
      <trkpt lat="48.47053" lon="-2.50232">
        <ele>49.8</ele>
        <time>2021-05-10T10:36:56Z</time>
      </trkpt>
      <trkpt lat="48.47049" lon="-2.50221">
        <ele>49.551452636719</ele>
        <time>2021-05-10T10:37:02Z</time>
      </trkpt>
      <trkpt lat="48.47043" lon="-2.50212">
        <ele>49.768676757812</ele>
        <time>2021-05-10T10:37:08Z</time>
      </trkpt>
      <trkpt lat="48.47036" lon="-2.50206">
        <ele>48.257751464844</ele>
        <time>2021-05-10T10:37:16Z</time>
      </trkpt>
      <trkpt lat="48.47031" lon="-2.50197">
        <ele>48.814208984375</ele>
        <time>2021-05-10T10:37:23Z</time>
      </trkpt>
      <trkpt lat="48.47024" lon="-2.50187">
        <ele>48.916320800781</ele>
        <time>2021-05-10T10:37:28Z</time>
      </trkpt>
      <trkpt lat="48.47019" lon="-2.50179">
        <ele>49.052124023438</ele>
        <time>2021-05-10T10:37:34Z</time>
      </trkpt>
      <trkpt lat="48.47014" lon="-2.50173">
        <ele>46.948303222656</ele>
        <time>2021-05-10T10:37:40Z</time>
      </trkpt>
      <trkpt lat="48.4701" lon="-2.50162">
        <ele>48.561889648438</ele>
        <time>2021-05-10T10:37:46Z</time>
      </trkpt>
      <trkpt lat="48.47006" lon="-2.50151">
        <ele>50.638916015625</ele>
        <time>2021-05-10T10:37:52Z</time>
      </trkpt>
      <trkpt lat="48.47004" lon="-2.50141">
        <ele>48.954284667969</ele>
        <time>2021-05-10T10:37:58Z</time>
      </trkpt>
      <trkpt lat="48.47001" lon="-2.50128">
        <ele>50.877502441406</ele>
        <time>2021-05-10T10:38:05Z</time>
      </trkpt>
      <trkpt lat="48.46999" lon="-2.50116">
        <ele>49.570007324219</ele>
        <time>2021-05-10T10:38:12Z</time>
      </trkpt>
      <trkpt lat="48.46996" lon="-2.50104">
        <ele>48.157653808594</ele>
        <time>2021-05-10T10:38:19Z</time>
      </trkpt>
      <trkpt lat="48.46991" lon="-2.50095">
        <ele>46.31396484375</ele>
        <time>2021-05-10T10:38:27Z</time>
      </trkpt>
      <trkpt lat="48.46983" lon="-2.50087">
        <ele>46.957641601562</ele>
        <time>2021-05-10T10:38:34Z</time>
      </trkpt>
      <trkpt lat="48.46976" lon="-2.5008">
        <ele>45.518005371094</ele>
        <time>2021-05-10T10:38:42Z</time>
      </trkpt>
      <trkpt lat="48.46969" lon="-2.50075">
        <ele>47.31103515625</ele>
        <time>2021-05-10T10:38:48Z</time>
      </trkpt>
      <trkpt lat="48.46962" lon="-2.50071">
        <ele>46.509033203125</ele>
        <time>2021-05-10T10:38:55Z</time>
      </trkpt>
      <trkpt lat="48.46955" lon="-2.50063">
        <ele>46.659423828125</ele>
        <time>2021-05-10T10:39:01Z</time>
      </trkpt>
      <trkpt lat="48.46948" lon="-2.50055">
        <ele>47.526062011719</ele>
        <time>2021-05-10T10:39:06Z</time>
      </trkpt>
      <trkpt lat="48.46943" lon="-2.50046">
        <ele>49.412475585938</ele>
        <time>2021-05-10T10:39:12Z</time>
      </trkpt>
      <trkpt lat="48.46939" lon="-2.50035">
        <ele>50.152954101562</ele>
        <time>2021-05-10T10:39:20Z</time>
      </trkpt>
      <trkpt lat="48.46933" lon="-2.50025">
        <ele>51.578308105469</ele>
        <time>2021-05-10T10:39:27Z</time>
      </trkpt>
      <trkpt lat="48.46928" lon="-2.50015">
        <ele>49.560729980469</ele>
        <time>2021-05-10T10:39:33Z</time>
      </trkpt>
      <trkpt lat="48.46926" lon="-2.50002">
        <ele>50.170715332031</ele>
        <time>2021-05-10T10:39:39Z</time>
      </trkpt>
      <trkpt lat="48.46924" lon="-2.49991">
        <ele>51.643112320487</ele>
        <time>2021-05-10T10:39:46Z</time>
      </trkpt>
      <trkpt lat="48.46923" lon="-2.49978">
        <ele>51.314622238774</ele>
        <time>2021-05-10T10:39:51Z</time>
      </trkpt>
      <trkpt lat="48.46921" lon="-2.49965">
        <ele>51.978564386972</ele>
        <time>2021-05-10T10:39:59Z</time>
      </trkpt>
      <trkpt lat="48.4692" lon="-2.49953">
        <ele>50.129628782726</ele>
        <time>2021-05-10T10:40:06Z</time>
      </trkpt>
      <trkpt lat="48.46918" lon="-2.49941">
        <ele>51.087816404858</ele>
        <time>2021-05-10T10:40:13Z</time>
      </trkpt>
      <trkpt lat="48.46917" lon="-2.49927">
        <ele>51.288200214054</ele>
        <time>2021-05-10T10:40:19Z</time>
      </trkpt>
      <trkpt lat="48.46913" lon="-2.49916">
        <ele>48.058155916847</ele>
        <time>2021-05-10T10:40:27Z</time>
      </trkpt>
      <trkpt lat="48.46913" lon="-2.49904">
        <ele>49.375472902951</ele>
        <time>2021-05-10T10:40:33Z</time>
      </trkpt>
      <trkpt lat="48.46911" lon="-2.49892">
        <ele>50.183275491836</ele>
        <time>2021-05-10T10:40:40Z</time>
      </trkpt>
      <trkpt lat="48.4691" lon="-2.4988">
        <ele>50.840925103955</ele>
        <time>2021-05-10T10:40:45Z</time>
      </trkpt>
      <trkpt lat="48.46909" lon="-2.49868">
        <ele>50.179727994224</ele>
        <time>2021-05-10T10:40:52Z</time>
      </trkpt>
      <trkpt lat="48.46907" lon="-2.49855">
        <ele>48.169722573939</ele>
        <time>2021-05-10T10:41:00Z</time>
      </trkpt>
      <trkpt lat="48.46907" lon="-2.49842">
        <ele>49.287278950535</ele>
        <time>2021-05-10T10:41:08Z</time>
      </trkpt>
      <trkpt lat="48.46906" lon="-2.49831">
        <ele>49.583051611002</ele>
        <time>2021-05-10T10:41:13Z</time>
      </trkpt>
      <trkpt lat="48.46905" lon="-2.49818">
        <ele>49.505112333718</ele>
        <time>2021-05-10T10:41:20Z</time>
      </trkpt>
      <trkpt lat="48.46901" lon="-2.49806">
        <ele>49.603257305662</ele>
        <time>2021-05-10T10:41:27Z</time>
      </trkpt>
      <trkpt lat="48.46896" lon="-2.49795">
        <ele>49.646526555252</ele>
        <time>2021-05-10T10:41:34Z</time>
      </trkpt>
      <trkpt lat="48.46889" lon="-2.49788">
        <ele>48.592973305244</ele>
        <time>2021-05-10T10:41:40Z</time>
      </trkpt>
      <trkpt lat="48.46882" lon="-2.49781">
        <ele>49.128655941935</ele>
        <time>2021-05-10T10:41:46Z</time>
      </trkpt>
      <trkpt lat="48.46874" lon="-2.49774">
        <ele>46.761627011928</ele>
        <time>2021-05-10T10:41:53Z</time>
      </trkpt>
      <trkpt lat="48.46868" lon="-2.49765">
        <ele>44.735249022327</ele>
        <time>2021-05-10T10:42:02Z</time>
      </trkpt>
      <trkpt lat="48.46868" lon="-2.49752">
        <ele>49.332908689687</ele>
        <time>2021-05-10T10:42:13Z</time>
      </trkpt>
      <trkpt lat="48.46865" lon="-2.49741">
        <ele>46.868914122952</ele>
        <time>2021-05-10T10:42:20Z</time>
      </trkpt>
      <trkpt lat="48.46863" lon="-2.4973">
        <ele>48.557936284679</ele>
        <time>2021-05-10T10:42:26Z</time>
      </trkpt>
      <trkpt lat="48.46861" lon="-2.49719">
        <ele>50.868355336226</ele>
        <time>2021-05-10T10:42:32Z</time>
      </trkpt>
      <trkpt lat="48.46859" lon="-2.49708">
        <ele>50.943302916642</ele>
        <time>2021-05-10T10:42:37Z</time>
      </trkpt>
      <trkpt lat="48.46856" lon="-2.49696">
        <ele>50.225775208737</ele>
        <time>2021-05-10T10:42:45Z</time>
      </trkpt>
      <trkpt lat="48.46856" lon="-2.49682">
        <ele>50.565502594507</ele>
        <time>2021-05-10T10:43:02Z</time>
      </trkpt>
      <trkpt lat="48.46854" lon="-2.49669">
        <ele>50.439591606878</ele>
        <time>2021-05-10T10:43:09Z</time>
      </trkpt>
      <trkpt lat="48.46852" lon="-2.49657">
        <ele>51.952348233787</ele>
        <time>2021-05-10T10:43:15Z</time>
      </trkpt>
      <trkpt lat="48.4685" lon="-2.49646">
        <ele>49.674454774197</ele>
        <time>2021-05-10T10:43:22Z</time>
      </trkpt>
      <trkpt lat="48.46849" lon="-2.49633">
        <ele>50.509359523582</ele>
        <time>2021-05-10T10:43:29Z</time>
      </trkpt>
      <trkpt lat="48.46846" lon="-2.4962">
        <ele>52.905541634556</ele>
        <time>2021-05-10T10:43:35Z</time>
      </trkpt>
      <trkpt lat="48.46847" lon="-2.49609">
        <ele>51.719929586321</ele>
        <time>2021-05-10T10:43:42Z</time>
      </trkpt>
      <trkpt lat="48.46844" lon="-2.49596">
        <ele>51.169275531563</ele>
        <time>2021-05-10T10:43:47Z</time>
      </trkpt>
      <trkpt lat="48.46843" lon="-2.49584">
        <ele>48.96889964532</ele>
        <time>2021-05-10T10:43:53Z</time>
      </trkpt>
      <trkpt lat="48.46842" lon="-2.49571">
        <ele>47.854343526111</ele>
        <time>2021-05-10T10:44:00Z</time>
      </trkpt>
      <trkpt lat="48.46845" lon="-2.49558">
        <ele>47.642427852902</ele>
        <time>2021-05-10T10:44:07Z</time>
      </trkpt>
      <trkpt lat="48.46848" lon="-2.49547">
        <ele>51.669213354237</ele>
        <time>2021-05-10T10:44:14Z</time>
      </trkpt>
      <trkpt lat="48.46856" lon="-2.49541">
        <ele>53.010975077109</ele>
        <time>2021-05-10T10:44:21Z</time>
      </trkpt>
      <trkpt lat="48.46864" lon="-2.49542">
        <ele>53.368264172845</ele>
        <time>2021-05-10T10:44:28Z</time>
      </trkpt>
      <trkpt lat="48.46873" lon="-2.49544">
        <ele>55.546715400573</ele>
        <time>2021-05-10T10:44:34Z</time>
      </trkpt>
      <trkpt lat="48.46882" lon="-2.49546">
        <ele>55.971989904482</ele>
        <time>2021-05-10T10:44:41Z</time>
      </trkpt>
      <trkpt lat="48.46888" lon="-2.49554">
        <ele>56.734339806654</ele>
        <time>2021-05-10T10:44:46Z</time>
      </trkpt>
      <trkpt lat="48.46896" lon="-2.49556">
        <ele>54.069041078543</ele>
        <time>2021-05-10T10:44:54Z</time>
      </trkpt>
      <trkpt lat="48.46903" lon="-2.49552">
        <ele>55.532310603036</ele>
        <time>2021-05-10T10:45:00Z</time>
      </trkpt>
      <trkpt lat="48.4691" lon="-2.49546">
        <ele>50.854846957635</ele>
        <time>2021-05-10T10:45:08Z</time>
      </trkpt>
      <trkpt lat="48.46917" lon="-2.4954">
        <ele>57.088206662776</ele>
        <time>2021-05-10T10:45:14Z</time>
      </trkpt>
      <trkpt lat="48.46925" lon="-2.49534">
        <ele>53.872287860611</ele>
        <time>2021-05-10T10:45:22Z</time>
      </trkpt>
      <trkpt lat="48.4692" lon="-2.49524">
        <ele>52.658780389353</ele>
        <time>2021-05-10T10:45:43Z</time>
      </trkpt>
      <trkpt lat="48.46915" lon="-2.49514">
        <ele>48.701069460168</ele>
        <time>2021-05-10T10:45:49Z</time>
      </trkpt>
      <trkpt lat="48.46911" lon="-2.49502">
        <ele>47.409689238137</ele>
        <time>2021-05-10T10:45:56Z</time>
      </trkpt>
      <trkpt lat="48.46906" lon="-2.49491">
        <ele>49.429155682234</ele>
        <time>2021-05-10T10:46:02Z</time>
      </trkpt>
      <trkpt lat="48.46904" lon="-2.49478">
        <ele>51.930135744994</ele>
        <time>2021-05-10T10:46:09Z</time>
      </trkpt>
      <trkpt lat="48.469" lon="-2.49467">
        <ele>51.832967017177</ele>
        <time>2021-05-10T10:46:16Z</time>
      </trkpt>
      <trkpt lat="48.46897" lon="-2.49456">
        <ele>51.92750778541</ele>
        <time>2021-05-10T10:46:23Z</time>
      </trkpt>
      <trkpt lat="48.46891" lon="-2.49447">
        <ele>52.726201487255</ele>
        <time>2021-05-10T10:46:35Z</time>
      </trkpt>
      <trkpt lat="48.46885" lon="-2.49437">
        <ele>53.846252239992</ele>
        <time>2021-05-10T10:46:42Z</time>
      </trkpt>
      <trkpt lat="48.46878" lon="-2.49429">
        <ele>55.185715024252</ele>
        <time>2021-05-10T10:46:49Z</time>
      </trkpt>
      <trkpt lat="48.46873" lon="-2.49421">
        <ele>57.318998691029</ele>
        <time>2021-05-10T10:46:58Z</time>
      </trkpt>
      <trkpt lat="48.46869" lon="-2.49411">
        <ele>57.419577405864</ele>
        <time>2021-05-10T10:47:03Z</time>
      </trkpt>
      <trkpt lat="48.46864" lon="-2.494">
        <ele>54.054217543718</ele>
        <time>2021-05-10T10:47:09Z</time>
      </trkpt>
      <trkpt lat="48.46857" lon="-2.49393">
        <ele>53.131776517683</ele>
        <time>2021-05-10T10:47:16Z</time>
      </trkpt>
      <trkpt lat="48.46849" lon="-2.49386">
        <ele>52.048565707268</ele>
        <time>2021-05-10T10:47:24Z</time>
      </trkpt>
      <trkpt lat="48.46841" lon="-2.49384">
        <ele>49.536620243634</ele>
        <time>2021-05-10T10:47:31Z</time>
      </trkpt>
      <trkpt lat="48.46833" lon="-2.49379">
        <ele>49.957185993591</ele>
        <time>2021-05-10T10:47:38Z</time>
      </trkpt>
      <trkpt lat="48.46824" lon="-2.49379">
        <ele>49.847274055345</ele>
        <time>2021-05-10T10:47:46Z</time>
      </trkpt>
      <trkpt lat="48.46816" lon="-2.49374">
        <ele>49.371231714213</ele>
        <time>2021-05-10T10:47:51Z</time>
      </trkpt>
      <trkpt lat="48.46808" lon="-2.49374">
        <ele>52.989829179077</ele>
        <time>2021-05-10T10:47:58Z</time>
      </trkpt>
      <trkpt lat="48.468" lon="-2.49377">
        <ele>50.105057838653</ele>
        <time>2021-05-10T10:48:04Z</time>
      </trkpt>
      <trkpt lat="48.46792" lon="-2.49374">
        <ele>51.703347130205</ele>
        <time>2021-05-10T10:48:12Z</time>
      </trkpt>
      <trkpt lat="48.46784" lon="-2.49375">
        <ele>51.846721328262</ele>
        <time>2021-05-10T10:48:19Z</time>
      </trkpt>
      <trkpt lat="48.46777" lon="-2.49372">
        <ele>50.739260896813</ele>
        <time>2021-05-10T10:48:23Z</time>
      </trkpt>
      <trkpt lat="48.46768" lon="-2.49377">
        <ele>52.178879117516</ele>
        <time>2021-05-10T10:48:31Z</time>
      </trkpt>
      <trkpt lat="48.4676" lon="-2.49376">
        <ele>50.832334716033</ele>
        <time>2021-05-10T10:48:41Z</time>
      </trkpt>
      <trkpt lat="48.46752" lon="-2.49377">
        <ele>49.283514071673</ele>
        <time>2021-05-10T10:48:46Z</time>
      </trkpt>
      <trkpt lat="48.46743" lon="-2.4938">
        <ele>50.683164340538</ele>
        <time>2021-05-10T10:48:55Z</time>
      </trkpt>
      <trkpt lat="48.46736" lon="-2.49378">
        <ele>53.690018004954</ele>
        <time>2021-05-10T10:49:06Z</time>
      </trkpt>
      <trkpt lat="48.46725" lon="-2.49376">
        <ele>58.124793370339</ele>
        <time>2021-05-10T10:49:11Z</time>
      </trkpt>
      <trkpt lat="48.46716" lon="-2.49374">
        <ele>62.148310875152</ele>
        <time>2021-05-10T10:49:15Z</time>
      </trkpt>
      <trkpt lat="48.46709" lon="-2.49373">
        <ele>50</ele>
        <time>2021-05-10T10:49:21Z</time>
      </trkpt>
      <trkpt lat="48.467" lon="-2.49373">
        <ele>50</ele>
        <time>2021-05-10T10:49:26Z</time>
      </trkpt>
      <trkpt lat="48.46692" lon="-2.49374">
        <ele>50</ele>
        <time>2021-05-10T10:49:33Z</time>
      </trkpt>
      <trkpt lat="48.46686" lon="-2.49377">
        <ele>58.612680759669</ele>
        <time>2021-05-10T10:49:40Z</time>
      </trkpt>
      <trkpt lat="48.46679" lon="-2.49383">
        <ele>49.8</ele>
        <time>2021-05-10T10:49:47Z</time>
      </trkpt>
      <trkpt lat="48.4667" lon="-2.49389">
        <ele>49.7</ele>
        <time>2021-05-10T10:49:54Z</time>
      </trkpt>
      <trkpt lat="48.46663" lon="-2.49386">
        <ele>51.480331605131</ele>
        <time>2021-05-10T10:50:01Z</time>
      </trkpt>
      <trkpt lat="48.46655" lon="-2.49379">
        <ele>49.8</ele>
        <time>2021-05-10T10:50:11Z</time>
      </trkpt>
      <trkpt lat="48.46647" lon="-2.49376">
        <ele>49.9</ele>
        <time>2021-05-10T10:50:40Z</time>
      </trkpt>
      <trkpt lat="48.46642" lon="-2.49368">
        <ele>52.534707399354</ele>
        <time>2021-05-10T10:50:48Z</time>
      </trkpt>
      <trkpt lat="48.46633" lon="-2.49368">
        <ele>49.018665931941</ele>
        <time>2021-05-10T10:50:55Z</time>
      </trkpt>
      <trkpt lat="48.46625" lon="-2.49376">
        <ele>49.7</ele>
        <time>2021-05-10T10:51:07Z</time>
      </trkpt>
      <trkpt lat="48.46617" lon="-2.49381">
        <ele>49.6</ele>
        <time>2021-05-10T10:51:18Z</time>
      </trkpt>
      <trkpt lat="48.46608" lon="-2.49381">
        <ele>49.6</ele>
        <time>2021-05-10T10:51:31Z</time>
      </trkpt>
      <trkpt lat="48.466" lon="-2.49381">
        <ele>49.5</ele>
        <time>2021-05-10T10:51:37Z</time>
      </trkpt>
      <trkpt lat="48.46594" lon="-2.49379">
        <ele>55.78371737786</ele>
        <time>2021-05-10T10:51:42Z</time>
      </trkpt>
      <trkpt lat="48.46586" lon="-2.49383">
        <ele>54.029187432857</ele>
        <time>2021-05-10T10:51:49Z</time>
      </trkpt>
      <trkpt lat="48.46578" lon="-2.49382">
        <ele>54.909387771659</ele>
        <time>2021-05-10T10:51:57Z</time>
      </trkpt>
      <trkpt lat="48.46572" lon="-2.49376">
        <ele>53.594610787843</ele>
        <time>2021-05-10T10:52:02Z</time>
      </trkpt>
      <trkpt lat="48.46568" lon="-2.49364">
        <ele>47.657057632741</ele>
        <time>2021-05-10T10:52:09Z</time>
      </trkpt>
      <trkpt lat="48.46562" lon="-2.49355">
        <ele>47.035652090061</ele>
        <time>2021-05-10T10:52:15Z</time>
      </trkpt>
      <trkpt lat="48.46556" lon="-2.49346">
        <ele>50.640996325731</ele>
        <time>2021-05-10T10:52:35Z</time>
      </trkpt>
      <trkpt lat="48.46553" lon="-2.49333">
        <ele>48.712172645525</ele>
        <time>2021-05-10T10:52:49Z</time>
      </trkpt>
      <trkpt lat="48.46549" lon="-2.49323">
        <ele>49.100598983711</ele>
        <time>2021-05-10T10:52:56Z</time>
      </trkpt>
      <trkpt lat="48.46545" lon="-2.49314">
        <ele>50.433724820665</ele>
        <time>2021-05-10T10:53:01Z</time>
      </trkpt>
      <trkpt lat="48.46542" lon="-2.49302">
        <ele>49.9</ele>
        <time>2021-05-10T10:53:08Z</time>
      </trkpt>
      <trkpt lat="48.46538" lon="-2.49292">
        <ele>50</ele>
        <time>2021-05-10T10:53:13Z</time>
      </trkpt>
      <trkpt lat="48.46531" lon="-2.49279">
        <ele>47.126196394012</ele>
        <time>2021-05-10T10:53:18Z</time>
      </trkpt>
      <trkpt lat="48.46529" lon="-2.49268">
        <ele>48.04630219178</ele>
        <time>2021-05-10T10:53:25Z</time>
      </trkpt>
      <trkpt lat="48.46529" lon="-2.49255">
        <ele>50.3</ele>
        <time>2021-05-10T10:53:29Z</time>
      </trkpt>
      <trkpt lat="48.46528" lon="-2.49241">
        <ele>50.5</ele>
        <time>2021-05-10T10:53:33Z</time>
      </trkpt>
      <trkpt lat="48.46527" lon="-2.49226">
        <ele>50.7</ele>
        <time>2021-05-10T10:53:44Z</time>
      </trkpt>
      <trkpt lat="48.46522" lon="-2.49216">
        <ele>50.8</ele>
        <time>2021-05-10T10:53:52Z</time>
      </trkpt>
      <trkpt lat="48.46518" lon="-2.49204">
        <ele>50.9</ele>
        <time>2021-05-10T10:53:59Z</time>
      </trkpt>
      <trkpt lat="48.46511" lon="-2.49193">
        <ele>50.9</ele>
        <time>2021-05-10T10:54:06Z</time>
      </trkpt>
      <trkpt lat="48.46504" lon="-2.49189">
        <ele>50.8</ele>
        <time>2021-05-10T10:54:13Z</time>
      </trkpt>
      <trkpt lat="48.465" lon="-2.49182">
        <ele>49.876771564398</ele>
        <time>2021-05-10T10:54:19Z</time>
      </trkpt>
      <trkpt lat="48.465" lon="-2.4917">
        <ele>52.108894959096</ele>
        <time>2021-05-10T10:54:24Z</time>
      </trkpt>
      <trkpt lat="48.46502" lon="-2.49158">
        <ele>51.527478252234</ele>
        <time>2021-05-10T10:54:32Z</time>
      </trkpt>
      <trkpt lat="48.46507" lon="-2.49149">
        <ele>50.625239809827</ele>
        <time>2021-05-10T10:54:40Z</time>
      </trkpt>
      <trkpt lat="48.46514" lon="-2.49144">
        <ele>51.398754608135</ele>
        <time>2021-05-10T10:54:46Z</time>
      </trkpt>
      <trkpt lat="48.46518" lon="-2.49132">
        <ele>50.482313465163</ele>
        <time>2021-05-10T10:54:53Z</time>
      </trkpt>
      <trkpt lat="48.46516" lon="-2.49116">
        <ele>52</ele>
        <time>2021-05-10T10:55:01Z</time>
      </trkpt>
      <trkpt lat="48.46509" lon="-2.49103">
        <ele>52</ele>
        <time>2021-05-10T10:55:08Z</time>
      </trkpt>
      <trkpt lat="48.46501" lon="-2.49093">
        <ele>51.9</ele>
        <time>2021-05-10T10:55:14Z</time>
      </trkpt>
      <trkpt lat="48.46495" lon="-2.49089">
        <ele>51.9</ele>
        <time>2021-05-10T10:55:18Z</time>
      </trkpt>
      <trkpt lat="48.46489" lon="-2.49082">
        <ele>51.9</ele>
        <time>2021-05-10T10:55:25Z</time>
      </trkpt>
      <trkpt lat="48.46483" lon="-2.49078">
        <ele>52</ele>
        <time>2021-05-10T10:55:32Z</time>
      </trkpt>
      <trkpt lat="48.46478" lon="-2.49073">
        <ele>52.2</ele>
        <time>2021-05-10T10:55:38Z</time>
      </trkpt>
      <trkpt lat="48.46472" lon="-2.49069">
        <ele>47.685554496289</ele>
        <time>2021-05-10T10:55:48Z</time>
      </trkpt>
      <trkpt lat="48.46465" lon="-2.4906">
        <ele>52.5</ele>
        <time>2021-05-10T10:55:56Z</time>
      </trkpt>
      <trkpt lat="48.46455" lon="-2.4905">
        <ele>52.6</ele>
        <time>2021-05-10T10:56:02Z</time>
      </trkpt>
      <trkpt lat="48.46447" lon="-2.49053">
        <ele>52.4</ele>
        <time>2021-05-10T10:56:09Z</time>
      </trkpt>
      <trkpt lat="48.46439" lon="-2.49054">
        <ele>49.607135330171</ele>
        <time>2021-05-10T10:56:15Z</time>
      </trkpt>
      <trkpt lat="48.46431" lon="-2.4905">
        <ele>50.259087982871</ele>
        <time>2021-05-10T10:56:23Z</time>
      </trkpt>
      <trkpt lat="48.46424" lon="-2.49043">
        <ele>49.23557832358</ele>
        <time>2021-05-10T10:56:29Z</time>
      </trkpt>
      <trkpt lat="48.46415" lon="-2.49039">
        <ele>48.771074649089</ele>
        <time>2021-05-10T10:56:37Z</time>
      </trkpt>
      <trkpt lat="48.46408" lon="-2.49035">
        <ele>49.584467439158</ele>
        <time>2021-05-10T10:56:44Z</time>
      </trkpt>
      <trkpt lat="48.46401" lon="-2.49025">
        <ele>49.402217868482</ele>
        <time>2021-05-10T10:56:51Z</time>
      </trkpt>
      <trkpt lat="48.46395" lon="-2.49019">
        <ele>52</ele>
        <time>2021-05-10T10:57:01Z</time>
      </trkpt>
      <trkpt lat="48.46388" lon="-2.49013">
        <ele>49.005340481133</ele>
        <time>2021-05-10T10:57:08Z</time>
      </trkpt>
      <trkpt lat="48.46383" lon="-2.48999">
        <ele>52.3</ele>
        <time>2021-05-10T10:57:33Z</time>
      </trkpt>
      <trkpt lat="48.46377" lon="-2.48986">
        <ele>52.6</ele>
        <time>2021-05-10T10:57:44Z</time>
      </trkpt>
      <trkpt lat="48.46373" lon="-2.48975">
        <ele>53</ele>
        <time>2021-05-10T10:57:53Z</time>
      </trkpt>
      <trkpt lat="48.46365" lon="-2.4897">
        <ele>52.9</ele>
        <time>2021-05-10T10:58:03Z</time>
      </trkpt>
      <trkpt lat="48.46359" lon="-2.48964">
        <ele>47.162588771054</ele>
        <time>2021-05-10T10:58:12Z</time>
      </trkpt>
      <trkpt lat="48.46353" lon="-2.48957">
        <ele>47.293869281457</ele>
        <time>2021-05-10T10:58:19Z</time>
      </trkpt>
      <trkpt lat="48.46347" lon="-2.48952">
        <ele>47.83028150182</ele>
        <time>2021-05-10T10:58:31Z</time>
      </trkpt>
      <trkpt lat="48.46341" lon="-2.48941">
        <ele>52.8</ele>
        <time>2021-05-10T10:58:36Z</time>
      </trkpt>
      <trkpt lat="48.46334" lon="-2.48934">
        <ele>52.6</ele>
        <time>2021-05-10T10:58:41Z</time>
      </trkpt>
      <trkpt lat="48.4633" lon="-2.48924">
        <ele>52.7</ele>
        <time>2021-05-10T10:58:45Z</time>
      </trkpt>
      <trkpt lat="48.46325" lon="-2.48912">
        <ele>52.8</ele>
        <time>2021-05-10T10:58:52Z</time>
      </trkpt>
      <trkpt lat="48.46325" lon="-2.48907">
        <ele>53</ele>
        <time>2021-05-10T10:58:59Z</time>
      </trkpt>
      <trkpt lat="48.46322" lon="-2.48895">
        <ele>53.4</ele>
        <time>2021-05-10T10:59:08Z</time>
      </trkpt>
      <trkpt lat="48.46318" lon="-2.48886">
        <ele>43.237763653836</ele>
        <time>2021-05-10T10:59:17Z</time>
      </trkpt>
      <trkpt lat="48.46316" lon="-2.48873">
        <ele>46.434804117162</ele>
        <time>2021-05-10T10:59:23Z</time>
      </trkpt>
      <trkpt lat="48.46313" lon="-2.48861">
        <ele>43.81482314888</ele>
        <time>2021-05-10T10:59:30Z</time>
      </trkpt>
      <trkpt lat="48.46309" lon="-2.4885">
        <ele>48.077164593118</ele>
        <time>2021-05-10T10:59:37Z</time>
      </trkpt>
      <trkpt lat="48.46307" lon="-2.48842">
        <ele>54.5</ele>
      </trkpt>
      <trkpt lat="48.46304" lon="-2.48839">
        <ele>45.013946741943</ele>
        <time>2021-05-10T10:59:46Z</time>
      </trkpt>
      <trkpt lat="48.46295" lon="-2.48836">
        <ele>54.1</ele>
        <time>2021-05-10T10:59:52Z</time>
      </trkpt>
      <trkpt lat="48.46287" lon="-2.48832">
        <ele>53.8</ele>
        <time>2021-05-10T11:00:01Z</time>
      </trkpt>
      <trkpt lat="48.4628" lon="-2.48841">
        <ele>53.2</ele>
        <time>2021-05-10T11:00:08Z</time>
      </trkpt>
      <trkpt lat="48.46274" lon="-2.4885">
        <ele>46.641196304073</ele>
        <time>2021-05-10T11:00:17Z</time>
      </trkpt>
      <trkpt lat="48.46266" lon="-2.48855">
        <ele>49.426396192879</ele>
        <time>2021-05-10T11:00:24Z</time>
      </trkpt>
      <trkpt lat="48.46259" lon="-2.48863">
        <ele>52.065886858789</ele>
        <time>2021-05-10T11:01:59Z</time>
      </trkpt>
      <trkpt lat="48.46254" lon="-2.48874">
        <ele>50.128151160776</ele>
        <time>2021-05-10T11:02:07Z</time>
      </trkpt>
      <trkpt lat="48.46248" lon="-2.48883">
        <ele>48.997431084834</ele>
        <time>2021-05-10T11:02:14Z</time>
      </trkpt>
      <trkpt lat="48.4624" lon="-2.48887">
        <ele>50.958781628386</ele>
        <time>2021-05-10T11:02:20Z</time>
      </trkpt>
      <trkpt lat="48.46232" lon="-2.48887">
        <ele>49.683957171734</ele>
        <time>2021-05-10T11:02:27Z</time>
      </trkpt>
      <trkpt lat="48.46223" lon="-2.48887">
        <ele>47.64021125291</ele>
        <time>2021-05-10T11:02:35Z</time>
      </trkpt>
      <trkpt lat="48.46215" lon="-2.48891">
        <ele>47.200138507089</ele>
        <time>2021-05-10T11:02:41Z</time>
      </trkpt>
      <trkpt lat="48.46209" lon="-2.48895">
        <ele>51.040148000556</ele>
        <time>2021-05-10T11:02:46Z</time>
      </trkpt>
      <trkpt lat="48.46201" lon="-2.489">
        <ele>49.444489382234</ele>
        <time>2021-05-10T11:02:53Z</time>
      </trkpt>
      <trkpt lat="48.46196" lon="-2.4891">
        <ele>50.258163013581</ele>
        <time>2021-05-10T11:02:59Z</time>
      </trkpt>
      <trkpt lat="48.46185" lon="-2.48912">
        <ele>49.4</ele>
        <time>2021-05-10T11:03:04Z</time>
      </trkpt>
      <trkpt lat="48.46177" lon="-2.48915">
        <ele>49.2</ele>
        <time>2021-05-10T11:03:11Z</time>
      </trkpt>
      <trkpt lat="48.46167" lon="-2.48908">
        <ele>49.3</ele>
        <time>2021-05-10T11:03:34Z</time>
      </trkpt>
      <trkpt lat="48.4617" lon="-2.48897">
        <ele>49.7</ele>
        <time>2021-05-10T11:03:46Z</time>
      </trkpt>
      <trkpt lat="48.46172" lon="-2.48883">
        <ele>50.2</ele>
        <time>2021-05-10T11:03:53Z</time>
      </trkpt>
      <trkpt lat="48.46174" lon="-2.48876">
        <ele>50.5</ele>
        <time>2021-05-10T11:04:00Z</time>
      </trkpt>
      <trkpt lat="48.46175" lon="-2.48866">
        <ele>51.66001376148</ele>
        <time>2021-05-10T11:04:05Z</time>
      </trkpt>
      <trkpt lat="48.46179" lon="-2.48858">
        <ele>52.57711388278</ele>
        <time>2021-05-10T11:04:10Z</time>
      </trkpt>
      <trkpt lat="48.46183" lon="-2.48846">
        <ele>51.645352875004</ele>
        <time>2021-05-10T11:04:16Z</time>
      </trkpt>
      <trkpt lat="48.46185" lon="-2.48833">
        <ele>51.112835405831</ele>
        <time>2021-05-10T11:04:23Z</time>
      </trkpt>
      <trkpt lat="48.46181" lon="-2.48822">
        <ele>51.055108468438</ele>
        <time>2021-05-10T11:04:32Z</time>
      </trkpt>
      <trkpt lat="48.46174" lon="-2.48815">
        <ele>50.974782264906</ele>
        <time>2021-05-10T11:04:39Z</time>
      </trkpt>
      <trkpt lat="48.46166" lon="-2.48808">
        <ele>53.458909865417</ele>
        <time>2021-05-10T11:04:48Z</time>
      </trkpt>
      <trkpt lat="48.4616" lon="-2.48795">
        <ele>53.9</ele>
        <time>2021-05-10T11:04:54Z</time>
      </trkpt>
      <trkpt lat="48.46158" lon="-2.48788">
        <ele>54.2</ele>
        <time>2021-05-10T11:05:03Z</time>
      </trkpt>
      <trkpt lat="48.46155" lon="-2.48781">
        <ele>54.6</ele>
      </trkpt>
      <trkpt lat="48.46152" lon="-2.48775">
        <ele>54.9</ele>
        <time>2021-05-10T11:05:10Z</time>
      </trkpt>
      <trkpt lat="48.4615" lon="-2.48772">
        <ele>53.640740608809</ele>
        <time>2021-05-10T11:05:17Z</time>
      </trkpt>
      <trkpt lat="48.46151" lon="-2.4876">
        <ele>51.777899782308</ele>
        <time>2021-05-10T11:05:24Z</time>
      </trkpt>
      <trkpt lat="48.46152" lon="-2.48747">
        <ele>56.089623238166</ele>
        <time>2021-05-10T11:05:32Z</time>
      </trkpt>
      <trkpt lat="48.46151" lon="-2.48735">
        <ele>53.086035372163</ele>
        <time>2021-05-10T11:05:36Z</time>
      </trkpt>
      <trkpt lat="48.46157" lon="-2.48726">
        <ele>52.680076400023</ele>
        <time>2021-05-10T11:05:42Z</time>
      </trkpt>
      <trkpt lat="48.46161" lon="-2.48715">
        <ele>53.949664741281</ele>
        <time>2021-05-10T11:05:51Z</time>
      </trkpt>
      <trkpt lat="48.46163" lon="-2.48704">
        <ele>55.526266976216</ele>
        <time>2021-05-10T11:05:57Z</time>
      </trkpt>
      <trkpt lat="48.46163" lon="-2.48691">
        <ele>52.701520331127</ele>
        <time>2021-05-10T11:06:04Z</time>
      </trkpt>
      <trkpt lat="48.46165" lon="-2.48679">
        <ele>54.043930465055</ele>
        <time>2021-05-10T11:06:09Z</time>
      </trkpt>
      <trkpt lat="48.46165" lon="-2.48666">
        <ele>49.329534476133</ele>
        <time>2021-05-10T11:06:18Z</time>
      </trkpt>
      <trkpt lat="48.46163" lon="-2.48653">
        <ele>54.149137474746</ele>
        <time>2021-05-10T11:06:27Z</time>
      </trkpt>
      <trkpt lat="48.46163" lon="-2.48642">
        <ele>53.287755587216</ele>
        <time>2021-05-10T11:06:32Z</time>
      </trkpt>
      <trkpt lat="48.46163" lon="-2.48629">
        <ele>50.249995905859</ele>
        <time>2021-05-10T11:06:38Z</time>
      </trkpt>
      <trkpt lat="48.46166" lon="-2.48617">
        <ele>53.999083379474</ele>
        <time>2021-05-10T11:06:43Z</time>
      </trkpt>
      <trkpt lat="48.46165" lon="-2.48604">
        <ele>58.086077999279</ele>
        <time>2021-05-10T11:06:51Z</time>
      </trkpt>
      <trkpt lat="48.46166" lon="-2.48592">
        <ele>59.223968114933</ele>
        <time>2021-05-10T11:06:57Z</time>
      </trkpt>
      <trkpt lat="48.46168" lon="-2.4858">
        <ele>60.113446398316</ele>
        <time>2021-05-10T11:07:03Z</time>
      </trkpt>
      <trkpt lat="48.46167" lon="-2.48568">
        <ele>58.743953309585</ele>
        <time>2021-05-10T11:07:10Z</time>
      </trkpt>
      <trkpt lat="48.46172" lon="-2.48558">
        <ele>57.700301641361</ele>
        <time>2021-05-10T11:07:43Z</time>
      </trkpt>
      <trkpt lat="48.4618" lon="-2.48552">
        <ele>56.572387976833</ele>
        <time>2021-05-10T11:07:52Z</time>
      </trkpt>
      <trkpt lat="48.46189" lon="-2.48551">
        <ele>57.044846034091</ele>
        <time>2021-05-10T11:07:59Z</time>
      </trkpt>
      <trkpt lat="48.46198" lon="-2.48551">
        <ele>57.479335682193</ele>
        <time>2021-05-10T11:08:05Z</time>
      </trkpt>
      <trkpt lat="48.46206" lon="-2.48549">
        <ele>61.321003020996</ele>
        <time>2021-05-10T11:08:14Z</time>
      </trkpt>
      <trkpt lat="48.46214" lon="-2.48544">
        <ele>62.48464872913</ele>
        <time>2021-05-10T11:08:22Z</time>
      </trkpt>
      <trkpt lat="48.4622" lon="-2.48536">
        <ele>64.423037177064</ele>
        <time>2021-05-10T11:08:32Z</time>
      </trkpt>
      <trkpt lat="48.46227" lon="-2.48529">
        <ele>68.602323672598</ele>
        <time>2021-05-10T11:08:38Z</time>
      </trkpt>
      <trkpt lat="48.46234" lon="-2.48521">
        <ele>69.330140971756</ele>
        <time>2021-05-10T11:08:45Z</time>
      </trkpt>
      <trkpt lat="48.4624" lon="-2.48514">
        <ele>69.919580957393</ele>
        <time>2021-05-10T11:08:51Z</time>
      </trkpt>
      <trkpt lat="48.46247" lon="-2.48508">
        <ele>74.460558922237</ele>
        <time>2021-05-10T11:08:58Z</time>
      </trkpt>
      <trkpt lat="48.46253" lon="-2.48501">
        <ele>71.155107480664</ele>
        <time>2021-05-10T11:09:06Z</time>
      </trkpt>
      <trkpt lat="48.46259" lon="-2.48492">
        <ele>72.200188710779</ele>
        <time>2021-05-10T11:09:14Z</time>
      </trkpt>
      <trkpt lat="48.46265" lon="-2.48484">
        <ele>74.047691735714</ele>
        <time>2021-05-10T11:09:20Z</time>
      </trkpt>
      <trkpt lat="48.46273" lon="-2.48477">
        <ele>72.190966292763</ele>
        <time>2021-05-10T11:09:27Z</time>
      </trkpt>
      <trkpt lat="48.4628" lon="-2.4847">
        <ele>74.172679122466</ele>
        <time>2021-05-10T11:09:36Z</time>
      </trkpt>
      <trkpt lat="48.46286" lon="-2.48462">
        <ele>76.115521721587</ele>
        <time>2021-05-10T11:09:43Z</time>
      </trkpt>
      <trkpt lat="48.46293" lon="-2.48455">
        <ele>76.835825240539</ele>
        <time>2021-05-10T11:09:50Z</time>
      </trkpt>
      <trkpt lat="48.46299" lon="-2.48448">
        <ele>79.3854101087</ele>
        <time>2021-05-10T11:09:57Z</time>
      </trkpt>
      <trkpt lat="48.46306" lon="-2.48439">
        <ele>80.824471015897</ele>
        <time>2021-05-10T11:10:05Z</time>
      </trkpt>
      <trkpt lat="48.46312" lon="-2.48432">
        <ele>79.046117575879</ele>
        <time>2021-05-10T11:10:11Z</time>
      </trkpt>
      <trkpt lat="48.46316" lon="-2.48421">
        <ele>80.913237319593</ele>
        <time>2021-05-10T11:10:19Z</time>
      </trkpt>
      <trkpt lat="48.46323" lon="-2.48413">
        <ele>82.980895806168</ele>
        <time>2021-05-10T11:10:27Z</time>
      </trkpt>
      <trkpt lat="48.46328" lon="-2.48404">
        <ele>85.3006350215</ele>
        <time>2021-05-10T11:10:33Z</time>
      </trkpt>
      <trkpt lat="48.46334" lon="-2.48395">
        <ele>86.385143311063</ele>
        <time>2021-05-10T11:10:41Z</time>
      </trkpt>
      <trkpt lat="48.4634" lon="-2.48387">
        <ele>86.544477928895</ele>
        <time>2021-05-10T11:10:46Z</time>
      </trkpt>
      <trkpt lat="48.46346" lon="-2.48378">
        <ele>86.467431906163</ele>
        <time>2021-05-10T11:10:55Z</time>
      </trkpt>
      <trkpt lat="48.46351" lon="-2.48368">
        <ele>87.49555377481</ele>
        <time>2021-05-10T11:11:03Z</time>
      </trkpt>
      <trkpt lat="48.46357" lon="-2.48358">
        <ele>89.566456122633</ele>
        <time>2021-05-10T11:11:13Z</time>
      </trkpt>
      <trkpt lat="48.46364" lon="-2.48351">
        <ele>89.514047036738</ele>
        <time>2021-05-10T11:11:20Z</time>
      </trkpt>
      <trkpt lat="48.46372" lon="-2.48348">
        <ele>92.393198228392</ele>
        <time>2021-05-10T11:11:28Z</time>
      </trkpt>
      <trkpt lat="48.46379" lon="-2.48344">
        <ele>91.971325473548</ele>
        <time>2021-05-10T11:11:33Z</time>
      </trkpt>
      <trkpt lat="48.46386" lon="-2.4834">
        <ele>94.235183732192</ele>
        <time>2021-05-10T11:11:37Z</time>
      </trkpt>
      <trkpt lat="48.46392" lon="-2.48337">
        <ele>94.265275854796</ele>
        <time>2021-05-10T11:11:43Z</time>
      </trkpt>
      <trkpt lat="48.464" lon="-2.48333">
        <ele>87.831744019379</ele>
        <time>2021-05-10T11:11:49Z</time>
      </trkpt>
      <trkpt lat="48.46408" lon="-2.48327">
        <ele>89.642793535691</ele>
        <time>2021-05-10T11:11:55Z</time>
      </trkpt>
      <trkpt lat="48.46417" lon="-2.48323">
        <ele>88.81601052256</ele>
        <time>2021-05-10T11:12:02Z</time>
      </trkpt>
      <trkpt lat="48.46424" lon="-2.48315">
        <ele>88.864009624005</ele>
        <time>2021-05-10T11:12:09Z</time>
      </trkpt>
      <trkpt lat="48.46431" lon="-2.48308">
        <ele>90.462422338898</ele>
        <time>2021-05-10T11:12:16Z</time>
      </trkpt>
      <trkpt lat="48.46437" lon="-2.48299">
        <ele>90.28582213284</ele>
        <time>2021-05-10T11:12:25Z</time>
      </trkpt>
      <trkpt lat="48.46442" lon="-2.48289">
        <ele>91.63913468415</ele>
        <time>2021-05-10T11:12:33Z</time>
      </trkpt>
      <trkpt lat="48.46448" lon="-2.4828">
        <ele>90.370492180076</ele>
        <time>2021-05-10T11:12:38Z</time>
      </trkpt>
      <trkpt lat="48.46456" lon="-2.48274">
        <ele>92.146016850853</ele>
        <time>2021-05-10T11:12:43Z</time>
      </trkpt>
      <trkpt lat="48.46462" lon="-2.48267">
        <ele>93.194381927776</ele>
        <time>2021-05-10T11:12:50Z</time>
      </trkpt>
      <trkpt lat="48.46469" lon="-2.48259">
        <ele>92.448615782395</ele>
        <time>2021-05-10T11:12:57Z</time>
      </trkpt>
      <trkpt lat="48.46474" lon="-2.48248">
        <ele>88.006832530945</ele>
        <time>2021-05-10T11:13:05Z</time>
      </trkpt>
      <trkpt lat="48.46478" lon="-2.48238">
        <ele>91.461281224323</ele>
        <time>2021-05-10T11:13:12Z</time>
      </trkpt>
      <trkpt lat="48.46483" lon="-2.48227">
        <ele>93.926540155229</ele>
        <time>2021-05-10T11:13:18Z</time>
      </trkpt>
      <trkpt lat="48.46486" lon="-2.48215">
        <ele>93.510155837798</ele>
        <time>2021-05-10T11:13:25Z</time>
      </trkpt>
      <trkpt lat="48.46491" lon="-2.48204">
        <ele>91.804580958815</ele>
        <time>2021-05-10T11:13:33Z</time>
      </trkpt>
      <trkpt lat="48.46496" lon="-2.48193">
        <ele>92.74493146471</ele>
        <time>2021-05-10T11:13:40Z</time>
      </trkpt>
      <trkpt lat="48.46501" lon="-2.48184">
        <ele>92.872351783366</ele>
        <time>2021-05-10T11:13:47Z</time>
      </trkpt>
      <trkpt lat="48.46507" lon="-2.48175">
        <ele>91.91724050776</ele>
        <time>2021-05-10T11:13:54Z</time>
      </trkpt>
      <trkpt lat="48.46513" lon="-2.48166">
        <ele>93.718971506311</ele>
        <time>2021-05-10T11:14:00Z</time>
      </trkpt>
      <trkpt lat="48.46519" lon="-2.48158">
        <ele>92.259281836765</ele>
        <time>2021-05-10T11:14:06Z</time>
      </trkpt>
      <trkpt lat="48.46524" lon="-2.48149">
        <ele>93.206339263202</ele>
        <time>2021-05-10T11:14:12Z</time>
      </trkpt>
      <trkpt lat="48.4653" lon="-2.48139">
        <ele>92.34041162334</ele>
        <time>2021-05-10T11:14:18Z</time>
      </trkpt>
      <trkpt lat="48.46536" lon="-2.48129">
        <ele>92.787776139857</ele>
        <time>2021-05-10T11:14:25Z</time>
      </trkpt>
      <trkpt lat="48.46541" lon="-2.48119">
        <ele>91.922401018846</ele>
        <time>2021-05-10T11:14:33Z</time>
      </trkpt>
      <trkpt lat="48.46547" lon="-2.4811">
        <ele>93.268375904837</ele>
        <time>2021-05-10T11:14:40Z</time>
      </trkpt>
      <trkpt lat="48.46554" lon="-2.48102">
        <ele>94.143950524567</ele>
        <time>2021-05-10T11:15:11Z</time>
      </trkpt>
      <trkpt lat="48.46559" lon="-2.48093">
        <ele>93.918032869709</ele>
        <time>2021-05-10T11:15:22Z</time>
      </trkpt>
      <trkpt lat="48.46567" lon="-2.48088">
        <ele>92.54297057492</ele>
        <time>2021-05-10T11:15:27Z</time>
      </trkpt>
      <trkpt lat="48.46575" lon="-2.48085">
        <ele>93.595210146634</ele>
        <time>2021-05-10T11:15:32Z</time>
      </trkpt>
      <trkpt lat="48.46582" lon="-2.48078">
        <ele>93.345835800189</ele>
        <time>2021-05-10T11:15:38Z</time>
      </trkpt>
      <trkpt lat="48.46588" lon="-2.48073">
        <ele>94.806175178303</ele>
        <time>2021-05-10T11:15:44Z</time>
      </trkpt>
      <trkpt lat="48.46595" lon="-2.48066">
        <ele>97.061620211693</ele>
        <time>2021-05-10T11:15:50Z</time>
      </trkpt>
      <trkpt lat="48.46602" lon="-2.48058">
        <ele>94.729675442884</ele>
        <time>2021-05-10T11:15:58Z</time>
      </trkpt>
      <trkpt lat="48.46608" lon="-2.4805">
        <ele>95.652063757934</ele>
        <time>2021-05-10T11:16:06Z</time>
      </trkpt>
      <trkpt lat="48.46611" lon="-2.48039">
        <ele>95.166396444136</ele>
        <time>2021-05-10T11:16:12Z</time>
      </trkpt>
      <trkpt lat="48.46615" lon="-2.48027">
        <ele>94.525272537953</ele>
        <time>2021-05-10T11:16:19Z</time>
      </trkpt>
      <trkpt lat="48.46621" lon="-2.48018">
        <ele>95.431123591095</ele>
        <time>2021-05-10T11:16:24Z</time>
      </trkpt>
      <trkpt lat="48.46627" lon="-2.48008">
        <ele>97.627265623651</ele>
        <time>2021-05-10T11:16:31Z</time>
      </trkpt>
      <trkpt lat="48.46631" lon="-2.47996">
        <ele>96.135433123134</ele>
        <time>2021-05-10T11:16:38Z</time>
      </trkpt>
      <trkpt lat="48.46637" lon="-2.47986">
        <ele>92.172337280619</ele>
        <time>2021-05-10T11:16:46Z</time>
      </trkpt>
      <trkpt lat="48.46643" lon="-2.4798">
        <ele>94.730761845933</ele>
        <time>2021-05-10T11:16:58Z</time>
      </trkpt>
      <trkpt lat="48.46646" lon="-2.4797">
        <ele>92.156826586163</ele>
        <time>2021-05-10T11:17:02Z</time>
      </trkpt>
      <trkpt lat="48.46652" lon="-2.47962">
        <ele>93.550225039306</ele>
        <time>2021-05-10T11:17:07Z</time>
      </trkpt>
      <trkpt lat="48.46658" lon="-2.47952">
        <ele>94.106656863013</ele>
        <time>2021-05-10T11:17:12Z</time>
      </trkpt>
      <trkpt lat="48.46662" lon="-2.47941">
        <ele>95.262398564046</ele>
        <time>2021-05-10T11:17:18Z</time>
      </trkpt>
      <trkpt lat="48.46665" lon="-2.47931">
        <ele>94.912836418975</ele>
        <time>2021-05-10T11:17:22Z</time>
      </trkpt>
      <trkpt lat="48.46671" lon="-2.47923">
        <ele>94.98591522554</ele>
        <time>2021-05-10T11:17:28Z</time>
      </trkpt>
      <trkpt lat="48.46678" lon="-2.47912">
        <ele>97.171193635184</ele>
        <time>2021-05-10T11:17:33Z</time>
      </trkpt>
      <trkpt lat="48.46684" lon="-2.47905">
        <ele>96.271429089332</ele>
        <time>2021-05-10T11:17:42Z</time>
      </trkpt>
      <trkpt lat="48.46689" lon="-2.47899">
        <ele>99.203332199823</ele>
        <time>2021-05-10T11:17:50Z</time>
      </trkpt>
      <trkpt lat="48.46695" lon="-2.4789">
        <ele>100.72502356838</ele>
        <time>2021-05-10T11:17:54Z</time>
      </trkpt>
      <trkpt lat="48.46699" lon="-2.47878">
        <ele>100.1806991221</ele>
        <time>2021-05-10T11:18:07Z</time>
      </trkpt>
      <trkpt lat="48.46705" lon="-2.47868">
        <ele>98.160045876317</ele>
        <time>2021-05-10T11:18:12Z</time>
      </trkpt>
      <trkpt lat="48.46711" lon="-2.47861">
        <ele>97.661951680324</ele>
        <time>2021-05-10T11:18:17Z</time>
      </trkpt>
      <trkpt lat="48.46718" lon="-2.47854">
        <ele>99.183387017498</ele>
        <time>2021-05-10T11:18:21Z</time>
      </trkpt>
      <trkpt lat="48.46724" lon="-2.47845">
        <ele>99.924624801537</ele>
        <time>2021-05-10T11:18:26Z</time>
      </trkpt>
      <trkpt lat="48.46729" lon="-2.47836">
        <ele>103.24905813853</ele>
        <time>2021-05-10T11:18:31Z</time>
      </trkpt>
      <trkpt lat="48.46734" lon="-2.47826">
        <ele>101.49097613575</ele>
        <time>2021-05-10T11:18:39Z</time>
      </trkpt>
      <trkpt lat="48.46739" lon="-2.47816">
        <ele>100.22361513209</ele>
        <time>2021-05-10T11:18:43Z</time>
      </trkpt>
      <trkpt lat="48.46743" lon="-2.47804">
        <ele>99.153411320574</ele>
        <time>2021-05-10T11:18:57Z</time>
      </trkpt>
      <trkpt lat="48.46741" lon="-2.47791">
        <ele>101.73734828771</ele>
        <time>2021-05-10T11:19:13Z</time>
      </trkpt>
      <trkpt lat="48.46743" lon="-2.47779">
        <ele>102.48740750056</ele>
        <time>2021-05-10T11:19:50Z</time>
      </trkpt>
      <trkpt lat="48.46736" lon="-2.4777">
        <ele>104.44902507893</ele>
        <time>2021-05-10T11:21:09Z</time>
      </trkpt>
      <trkpt lat="48.46732" lon="-2.47759">
        <ele>102.73046979927</ele>
        <time>2021-05-10T11:21:25Z</time>
      </trkpt>
      <trkpt lat="48.46733" lon="-2.47751">
        <ele>101.05173275211</ele>
        <time>2021-05-10T11:22:39Z</time>
      </trkpt>
      <trkpt lat="48.46733" lon="-2.47751">
        <ele>101.05173275211</ele>
        <time>2021-05-10T11:22:40Z</time>
      </trkpt>
      <trkpt lat="48.46734" lon="-2.47751">
        <ele>100.78732683045</ele>
        <time>2021-05-10T11:24:01Z</time>
      </trkpt>
      <trkpt lat="48.46737" lon="-2.47762">
        <ele>103.11520050059</ele>
        <time>2021-05-10T11:24:07Z</time>
      </trkpt>
      <trkpt lat="48.46741" lon="-2.47772">
        <ele>106.72603367366</ele>
        <time>2021-05-10T11:24:11Z</time>
      </trkpt>
      <trkpt lat="48.46747" lon="-2.47782">
        <ele>107.8159269378</ele>
        <time>2021-05-10T11:24:18Z</time>
      </trkpt>
      <trkpt lat="48.46754" lon="-2.47786">
        <ele>109.92305695943</ele>
        <time>2021-05-10T11:24:28Z</time>
      </trkpt>
      <trkpt lat="48.46762" lon="-2.47783">
        <ele>109.1903160858</ele>
        <time>2021-05-10T11:24:46Z</time>
      </trkpt>
      <trkpt lat="48.4677" lon="-2.47778">
        <ele>106.9053444909</ele>
        <time>2021-05-10T11:24:53Z</time>
      </trkpt>
      <trkpt lat="48.46777" lon="-2.47769">
        <ele>107.67080887854</ele>
        <time>2021-05-10T11:25:01Z</time>
      </trkpt>
      <trkpt lat="48.46781" lon="-2.47757">
        <ele>101.76210098325</ele>
        <time>2021-05-10T11:25:56Z</time>
      </trkpt>
      <trkpt lat="48.46787" lon="-2.47748">
        <ele>99.769268405657</ele>
        <time>2021-05-10T11:26:02Z</time>
      </trkpt>
      <trkpt lat="48.46794" lon="-2.47739">
        <ele>99.724975826543</ele>
        <time>2021-05-10T11:26:09Z</time>
      </trkpt>
      <trkpt lat="48.468" lon="-2.47731">
        <ele>98.705770645679</ele>
        <time>2021-05-10T11:26:16Z</time>
      </trkpt>
      <trkpt lat="48.46808" lon="-2.47725">
        <ele>99.686183335559</ele>
        <time>2021-05-10T11:26:24Z</time>
      </trkpt>
      <trkpt lat="48.46815" lon="-2.47717">
        <ele>100.7421042859</ele>
        <time>2021-05-10T11:26:29Z</time>
      </trkpt>
      <trkpt lat="48.46821" lon="-2.47708">
        <ele>101.811585374</ele>
        <time>2021-05-10T11:26:36Z</time>
      </trkpt>
      <trkpt lat="48.46826" lon="-2.47697">
        <ele>102.62961278735</ele>
        <time>2021-05-10T11:26:40Z</time>
      </trkpt>
      <trkpt lat="48.46834" lon="-2.47691">
        <ele>102.23234097362</ele>
        <time>2021-05-10T11:26:47Z</time>
      </trkpt>
      <trkpt lat="48.46841" lon="-2.47683">
        <ele>103.13280685677</ele>
        <time>2021-05-10T11:26:52Z</time>
      </trkpt>
      <trkpt lat="48.46847" lon="-2.47673">
        <ele>102.12148216821</ele>
        <time>2021-05-10T11:26:59Z</time>
      </trkpt>
      <trkpt lat="48.46855" lon="-2.47668">
        <ele>101.3742823019</ele>
        <time>2021-05-10T11:27:05Z</time>
      </trkpt>
      <trkpt lat="48.4686" lon="-2.47659">
        <ele>102.87516152075</ele>
        <time>2021-05-10T11:27:11Z</time>
      </trkpt>
      <trkpt lat="48.46866" lon="-2.4765">
        <ele>101.72730074509</ele>
        <time>2021-05-10T11:27:17Z</time>
      </trkpt>
      <trkpt lat="48.4687" lon="-2.4764">
        <ele>97.715799846943</ele>
        <time>2021-05-10T11:27:25Z</time>
      </trkpt>
      <trkpt lat="48.46872" lon="-2.47628">
        <ele>99.742647559465</ele>
        <time>2021-05-10T11:27:32Z</time>
      </trkpt>
      <trkpt lat="48.46876" lon="-2.47615">
        <ele>100.87123317702</ele>
        <time>2021-05-10T11:27:37Z</time>
      </trkpt>
      <trkpt lat="48.46882" lon="-2.47605">
        <ele>101.25230727723</ele>
        <time>2021-05-10T11:27:48Z</time>
      </trkpt>
      <trkpt lat="48.46888" lon="-2.47596">
        <ele>104.74805472972</ele>
        <time>2021-05-10T11:27:52Z</time>
      </trkpt>
      <trkpt lat="48.46895" lon="-2.47592">
        <ele>102.46124185293</ele>
        <time>2021-05-10T11:27:59Z</time>
      </trkpt>
      <trkpt lat="48.469" lon="-2.47582">
        <ele>105.16787945325</ele>
        <time>2021-05-10T11:28:04Z</time>
      </trkpt>
      <trkpt lat="48.46906" lon="-2.47574">
        <ele>101.77690101688</ele>
        <time>2021-05-10T11:28:12Z</time>
      </trkpt>
      <trkpt lat="48.46911" lon="-2.47564">
        <ele>101.99690370737</ele>
        <time>2021-05-10T11:28:20Z</time>
      </trkpt>
      <trkpt lat="48.46917" lon="-2.47554">
        <ele>103.53526286842</ele>
        <time>2021-05-10T11:28:28Z</time>
      </trkpt>
      <trkpt lat="48.46923" lon="-2.47544">
        <ele>105.3972213331</ele>
        <time>2021-05-10T11:28:36Z</time>
      </trkpt>
      <trkpt lat="48.46929" lon="-2.47535">
        <ele>108.12014181567</ele>
        <time>2021-05-10T11:28:43Z</time>
      </trkpt>
      <trkpt lat="48.46937" lon="-2.47529">
        <ele>106.21315999975</ele>
        <time>2021-05-10T11:28:49Z</time>
      </trkpt>
      <trkpt lat="48.46943" lon="-2.47519">
        <ele>107.27574655214</ele>
        <time>2021-05-10T11:28:55Z</time>
      </trkpt>
      <trkpt lat="48.46948" lon="-2.4751">
        <ele>105.85524001055</ele>
        <time>2021-05-10T11:29:00Z</time>
      </trkpt>
      <trkpt lat="48.46954" lon="-2.47502">
        <ele>106.48538079518</ele>
        <time>2021-05-10T11:29:07Z</time>
      </trkpt>
      <trkpt lat="48.46959" lon="-2.47491">
        <ele>106.76782504696</ele>
        <time>2021-05-10T11:29:15Z</time>
      </trkpt>
      <trkpt lat="48.46964" lon="-2.47482">
        <ele>106.75453852169</ele>
        <time>2021-05-10T11:29:20Z</time>
      </trkpt>
      <trkpt lat="48.46972" lon="-2.47477">
        <ele>107.82570274719</ele>
        <time>2021-05-10T11:29:25Z</time>
      </trkpt>
      <trkpt lat="48.46976" lon="-2.47465">
        <ele>104.74242746098</ele>
        <time>2021-05-10T11:29:35Z</time>
      </trkpt>
      <trkpt lat="48.46982" lon="-2.47456">
        <ele>101.44185287247</ele>
        <time>2021-05-10T11:29:47Z</time>
      </trkpt>
      <trkpt lat="48.46986" lon="-2.47445">
        <ele>99.693897944559</ele>
        <time>2021-05-10T11:29:52Z</time>
      </trkpt>
      <trkpt lat="48.46992" lon="-2.47438">
        <ele>96.780454625301</ele>
        <time>2021-05-10T11:29:57Z</time>
      </trkpt>
      <trkpt lat="48.46998" lon="-2.47428">
        <ele>97.037743787703</ele>
        <time>2021-05-10T11:30:03Z</time>
      </trkpt>
      <trkpt lat="48.47004" lon="-2.47421">
        <ele>91.429415639092</ele>
        <time>2021-05-10T11:30:12Z</time>
      </trkpt>
      <trkpt lat="48.47009" lon="-2.4741">
        <ele>91.813785756889</ele>
        <time>2021-05-10T11:30:18Z</time>
      </trkpt>
      <trkpt lat="48.47015" lon="-2.47403">
        <ele>92.747755260019</ele>
        <time>2021-05-10T11:30:23Z</time>
      </trkpt>
      <trkpt lat="48.4702" lon="-2.47394">
        <ele>94.335972277359</ele>
        <time>2021-05-10T11:30:29Z</time>
      </trkpt>
      <trkpt lat="48.47027" lon="-2.47386">
        <ele>97.60569894695</ele>
        <time>2021-05-10T11:30:36Z</time>
      </trkpt>
      <trkpt lat="48.47034" lon="-2.4738">
        <ele>93.121808078126</ele>
        <time>2021-05-10T11:30:48Z</time>
      </trkpt>
      <trkpt lat="48.47042" lon="-2.47379">
        <ele>93.66999653281</ele>
        <time>2021-05-10T11:30:55Z</time>
      </trkpt>
      <trkpt lat="48.47051" lon="-2.47377">
        <ele>94.175706155904</ele>
        <time>2021-05-10T11:31:03Z</time>
      </trkpt>
      <trkpt lat="48.4706" lon="-2.47377">
        <ele>96.127088443792</ele>
        <time>2021-05-10T11:31:08Z</time>
      </trkpt>
      <trkpt lat="48.47068" lon="-2.47372">
        <ele>95.276492021432</ele>
        <time>2021-05-10T11:31:16Z</time>
      </trkpt>
      <trkpt lat="48.47076" lon="-2.4737">
        <ele>91.306982084756</ele>
        <time>2021-05-10T11:31:24Z</time>
      </trkpt>
      <trkpt lat="48.47082" lon="-2.47364">
        <ele>91.378090709139</ele>
        <time>2021-05-10T11:31:30Z</time>
      </trkpt>
      <trkpt lat="48.4709" lon="-2.47357">
        <ele>90.985208483617</ele>
        <time>2021-05-10T11:31:38Z</time>
      </trkpt>
      <trkpt lat="48.47099" lon="-2.47353">
        <ele>90.420613332791</ele>
        <time>2021-05-10T11:31:46Z</time>
      </trkpt>
      <trkpt lat="48.47105" lon="-2.47348">
        <ele>89.895342353886</ele>
        <time>2021-05-10T11:31:52Z</time>
      </trkpt>
      <trkpt lat="48.47113" lon="-2.47344">
        <ele>89.866088575257</ele>
        <time>2021-05-10T11:31:59Z</time>
      </trkpt>
      <trkpt lat="48.47121" lon="-2.47351">
        <ele>91.057918265637</ele>
        <time>2021-05-10T11:32:14Z</time>
      </trkpt>
      <trkpt lat="48.47123" lon="-2.47363">
        <ele>92.872857866366</ele>
        <time>2021-05-10T11:32:21Z</time>
      </trkpt>
      <trkpt lat="48.47119" lon="-2.47351">
        <ele>94.765079729747</ele>
        <time>2021-05-10T11:32:33Z</time>
      </trkpt>
      <trkpt lat="48.47126" lon="-2.47343">
        <ele>94.726574572953</ele>
        <time>2021-05-10T11:32:41Z</time>
      </trkpt>
      <trkpt lat="48.47133" lon="-2.47339">
        <ele>93.432128123753</ele>
        <time>2021-05-10T11:32:48Z</time>
      </trkpt>
      <trkpt lat="48.4714" lon="-2.47332">
        <ele>92.92255016657</ele>
        <time>2021-05-10T11:32:54Z</time>
      </trkpt>
      <trkpt lat="48.47147" lon="-2.47324">
        <ele>93.627449594415</ele>
        <time>2021-05-10T11:33:02Z</time>
      </trkpt>
      <trkpt lat="48.47156" lon="-2.47321">
        <ele>92.326704301668</ele>
        <time>2021-05-10T11:33:09Z</time>
      </trkpt>
      <trkpt lat="48.47164" lon="-2.47317">
        <ele>92.721953386146</ele>
        <time>2021-05-10T11:33:23Z</time>
      </trkpt>
      <trkpt lat="48.47171" lon="-2.47312">
        <ele>92.83388408684</ele>
        <time>2021-05-10T11:33:30Z</time>
      </trkpt>
      <trkpt lat="48.47179" lon="-2.47309">
        <ele>91.195858659664</ele>
        <time>2021-05-10T11:33:36Z</time>
      </trkpt>
      <trkpt lat="48.47187" lon="-2.47305">
        <ele>89.681319381969</ele>
        <time>2021-05-10T11:33:43Z</time>
      </trkpt>
      <trkpt lat="48.47194" lon="-2.47301">
        <ele>90.607026653246</ele>
        <time>2021-05-10T11:33:51Z</time>
      </trkpt>
      <trkpt lat="48.472" lon="-2.47295">
        <ele>86.507903773477</ele>
        <time>2021-05-10T11:33:58Z</time>
      </trkpt>
      <trkpt lat="48.47208" lon="-2.4729">
        <ele>89.582844417834</ele>
        <time>2021-05-10T11:34:03Z</time>
      </trkpt>
      <trkpt lat="48.47216" lon="-2.47285">
        <ele>88.477304595071</ele>
        <time>2021-05-10T11:34:10Z</time>
      </trkpt>
      <trkpt lat="48.47225" lon="-2.47281">
        <ele>86.506578339177</ele>
        <time>2021-05-10T11:34:18Z</time>
      </trkpt>
      <trkpt lat="48.47233" lon="-2.47279">
        <ele>86.297446627465</ele>
        <time>2021-05-10T11:34:24Z</time>
      </trkpt>
      <trkpt lat="48.47241" lon="-2.47276">
        <ele>88.127137165261</ele>
        <time>2021-05-10T11:34:30Z</time>
      </trkpt>
      <trkpt lat="48.47248" lon="-2.47273">
        <ele>89.953168623267</ele>
        <time>2021-05-10T11:34:35Z</time>
      </trkpt>
      <trkpt lat="48.47255" lon="-2.47267">
        <ele>88.368079369867</ele>
        <time>2021-05-10T11:34:40Z</time>
      </trkpt>
      <trkpt lat="48.47262" lon="-2.47263">
        <ele>86.96883512696</ele>
        <time>2021-05-10T11:34:48Z</time>
      </trkpt>
      <trkpt lat="48.4727" lon="-2.47261">
        <ele>88.01220807386</ele>
        <time>2021-05-10T11:34:54Z</time>
      </trkpt>
      <trkpt lat="48.47277" lon="-2.47258">
        <ele>86.747909573941</ele>
        <time>2021-05-10T11:34:59Z</time>
      </trkpt>
      <trkpt lat="48.47284" lon="-2.47254">
        <ele>88.158476277376</ele>
        <time>2021-05-10T11:35:07Z</time>
      </trkpt>
      <trkpt lat="48.47293" lon="-2.47249">
        <ele>88.124954709264</ele>
        <time>2021-05-10T11:35:13Z</time>
      </trkpt>
      <trkpt lat="48.473" lon="-2.47245">
        <ele>88.648988070082</ele>
        <time>2021-05-10T11:35:18Z</time>
      </trkpt>
      <trkpt lat="48.47308" lon="-2.47243">
        <ele>85.887362542332</ele>
        <time>2021-05-10T11:35:25Z</time>
      </trkpt>
      <trkpt lat="48.47315" lon="-2.47235">
        <ele>83.537209003435</ele>
        <time>2021-05-10T11:35:35Z</time>
      </trkpt>
      <trkpt lat="48.47323" lon="-2.47231">
        <ele>83.240195147684</ele>
        <time>2021-05-10T11:35:41Z</time>
      </trkpt>
      <trkpt lat="48.4733" lon="-2.47228">
        <ele>84.001467799219</ele>
        <time>2021-05-10T11:35:46Z</time>
      </trkpt>
      <trkpt lat="48.47339" lon="-2.47225">
        <ele>84.129066399411</ele>
        <time>2021-05-10T11:35:53Z</time>
      </trkpt>
      <trkpt lat="48.47347" lon="-2.4722">
        <ele>85.162191306319</ele>
        <time>2021-05-10T11:36:00Z</time>
      </trkpt>
      <trkpt lat="48.47355" lon="-2.4722">
        <ele>85.956895472267</ele>
        <time>2021-05-10T11:36:07Z</time>
      </trkpt>
      <trkpt lat="48.47364" lon="-2.47218">
        <ele>84.727064482444</ele>
        <time>2021-05-10T11:36:15Z</time>
      </trkpt>
      <trkpt lat="48.47372" lon="-2.47218">
        <ele>83.022989880378</ele>
        <time>2021-05-10T11:36:22Z</time>
      </trkpt>
      <trkpt lat="48.47379" lon="-2.47214">
        <ele>82.591821129335</ele>
        <time>2021-05-10T11:36:27Z</time>
      </trkpt>
      <trkpt lat="48.47388" lon="-2.47211">
        <ele>83.891783445489</ele>
        <time>2021-05-10T11:36:35Z</time>
      </trkpt>
      <trkpt lat="48.47397" lon="-2.47209">
        <ele>79.513457420212</ele>
        <time>2021-05-10T11:36:42Z</time>
      </trkpt>
      <trkpt lat="48.47404" lon="-2.47205">
        <ele>80.668285633749</ele>
        <time>2021-05-10T11:36:49Z</time>
      </trkpt>
      <trkpt lat="48.47412" lon="-2.472">
        <ele>79.317869339048</ele>
        <time>2021-05-10T11:36:55Z</time>
      </trkpt>
      <trkpt lat="48.4742" lon="-2.47196">
        <ele>79.910442077301</ele>
        <time>2021-05-10T11:37:02Z</time>
      </trkpt>
      <trkpt lat="48.47427" lon="-2.47195">
        <ele>79.422436297957</ele>
        <time>2021-05-10T11:37:07Z</time>
      </trkpt>
      <trkpt lat="48.47436" lon="-2.47197">
        <ele>79.711573974612</ele>
        <time>2021-05-10T11:37:13Z</time>
      </trkpt>
      <trkpt lat="48.47444" lon="-2.47194">
        <ele>79.644165549268</ele>
        <time>2021-05-10T11:37:21Z</time>
      </trkpt>
      <trkpt lat="48.47448" lon="-2.47183">
        <ele>77.23110531882</ele>
        <time>2021-05-10T11:37:29Z</time>
      </trkpt>
      <trkpt lat="48.47457" lon="-2.47179">
        <ele>76.942203271777</ele>
        <time>2021-05-10T11:37:36Z</time>
      </trkpt>
      <trkpt lat="48.47465" lon="-2.47177">
        <ele>76.826942538182</ele>
        <time>2021-05-10T11:37:44Z</time>
      </trkpt>
      <trkpt lat="48.47473" lon="-2.47171">
        <ele>78.696742300015</ele>
        <time>2021-05-10T11:37:51Z</time>
      </trkpt>
      <trkpt lat="48.4748" lon="-2.47168">
        <ele>76.919435481202</ele>
        <time>2021-05-10T11:37:58Z</time>
      </trkpt>
      <trkpt lat="48.47487" lon="-2.47164">
        <ele>77.395069544444</ele>
        <time>2021-05-10T11:38:02Z</time>
      </trkpt>
      <trkpt lat="48.47495" lon="-2.47163">
        <ele>77.699362233709</ele>
        <time>2021-05-10T11:38:08Z</time>
      </trkpt>
      <trkpt lat="48.47502" lon="-2.47158">
        <ele>78.796757528179</ele>
        <time>2021-05-10T11:38:15Z</time>
      </trkpt>
      <trkpt lat="48.47509" lon="-2.47154">
        <ele>76.67864040944</ele>
        <time>2021-05-10T11:38:21Z</time>
      </trkpt>
      <trkpt lat="48.47518" lon="-2.47152">
        <ele>74.921346602877</ele>
        <time>2021-05-10T11:38:28Z</time>
      </trkpt>
      <trkpt lat="48.47526" lon="-2.47149">
        <ele>75.050473637957</ele>
        <time>2021-05-10T11:38:34Z</time>
      </trkpt>
      <trkpt lat="48.47534" lon="-2.47146">
        <ele>75.035190719076</ele>
        <time>2021-05-10T11:38:40Z</time>
      </trkpt>
      <trkpt lat="48.47542" lon="-2.47143">
        <ele>76.415167109019</ele>
        <time>2021-05-10T11:38:48Z</time>
      </trkpt>
      <trkpt lat="48.47548" lon="-2.47151">
        <ele>77.02478748418</ele>
        <time>2021-05-10T11:38:56Z</time>
      </trkpt>
      <trkpt lat="48.47552" lon="-2.47162">
        <ele>78.527961832377</ele>
        <time>2021-05-10T11:39:03Z</time>
      </trkpt>
      <trkpt lat="48.47556" lon="-2.47172">
        <ele>80.459669948967</ele>
        <time>2021-05-10T11:39:08Z</time>
      </trkpt>
      <trkpt lat="48.47562" lon="-2.47178">
        <ele>80.271503202869</ele>
        <time>2021-05-10T11:39:16Z</time>
      </trkpt>
      <trkpt lat="48.47565" lon="-2.4719">
        <ele>81.005332502537</ele>
        <time>2021-05-10T11:39:22Z</time>
      </trkpt>
      <trkpt lat="48.47574" lon="-2.47191">
        <ele>72.492960321309</ele>
        <time>2021-05-10T11:40:59Z</time>
      </trkpt>
      <trkpt lat="48.47579" lon="-2.47202">
        <ele>71.944313144301</ele>
        <time>2021-05-10T11:41:05Z</time>
      </trkpt>
      <trkpt lat="48.47582" lon="-2.47213">
        <ele>73.219828792861</ele>
        <time>2021-05-10T11:41:11Z</time>
      </trkpt>
      <trkpt lat="48.47586" lon="-2.47224">
        <ele>76.679420833733</ele>
        <time>2021-05-10T11:41:36Z</time>
      </trkpt>
      <trkpt lat="48.47593" lon="-2.47216">
        <ele>71.352520046529</ele>
        <time>2021-05-10T11:42:10Z</time>
      </trkpt>
      <trkpt lat="48.47598" lon="-2.47205">
        <ele>72.406128842236</ele>
        <time>2021-05-10T11:42:21Z</time>
      </trkpt>
      <trkpt lat="48.47606" lon="-2.47204">
        <ele>79.54995651291</ele>
        <time>2021-05-10T11:43:03Z</time>
      </trkpt>
      <trkpt lat="48.47612" lon="-2.47197">
        <ele>77.793364928669</ele>
        <time>2021-05-10T11:43:15Z</time>
      </trkpt>
      <trkpt lat="48.4762" lon="-2.4719">
        <ele>78.897176458222</ele>
        <time>2021-05-10T11:43:57Z</time>
      </trkpt>
      <trkpt lat="48.47627" lon="-2.47187">
        <ele>75.149289744225</ele>
        <time>2021-05-10T11:45:11Z</time>
      </trkpt>
      <trkpt lat="48.47636" lon="-2.47185">
        <ele>79.888944308519</ele>
        <time>2021-05-10T11:45:16Z</time>
      </trkpt>
      <trkpt lat="48.47642" lon="-2.47177">
        <ele>81.233062825451</ele>
        <time>2021-05-10T11:45:22Z</time>
      </trkpt>
      <trkpt lat="48.4765" lon="-2.47172">
        <ele>79.870743945226</ele>
        <time>2021-05-10T11:45:30Z</time>
      </trkpt>
      <trkpt lat="48.47656" lon="-2.47162">
        <ele>81.201989401497</ele>
        <time>2021-05-10T11:45:40Z</time>
      </trkpt>
      <trkpt lat="48.47658" lon="-2.4715">
        <ele>77.438171492583</ele>
        <time>2021-05-10T11:45:52Z</time>
      </trkpt>
      <trkpt lat="48.47664" lon="-2.47141">
        <ele>78.286382246797</ele>
        <time>2021-05-10T11:45:57Z</time>
      </trkpt>
      <trkpt lat="48.47667" lon="-2.4713">
        <ele>75.77859575599</ele>
        <time>2021-05-10T11:46:05Z</time>
      </trkpt>
      <trkpt lat="48.47671" lon="-2.47118">
        <ele>74.254513288693</ele>
        <time>2021-05-10T11:46:13Z</time>
      </trkpt>
      <trkpt lat="48.47674" lon="-2.47107">
        <ele>73.750269570085</ele>
        <time>2021-05-10T11:46:18Z</time>
      </trkpt>
      <trkpt lat="48.47682" lon="-2.47101">
        <ele>75.578930335092</ele>
        <time>2021-05-10T11:46:24Z</time>
      </trkpt>
      <trkpt lat="48.47688" lon="-2.47091">
        <ele>76.393084599799</ele>
        <time>2021-05-10T11:46:34Z</time>
      </trkpt>
      <trkpt lat="48.47692" lon="-2.4708">
        <ele>78.614665372421</ele>
        <time>2021-05-10T11:46:41Z</time>
      </trkpt>
      <trkpt lat="48.47699" lon="-2.47074">
        <ele>80.593293970338</ele>
        <time>2021-05-10T11:46:48Z</time>
      </trkpt>
      <trkpt lat="48.47707" lon="-2.47068">
        <ele>81.725970441518</ele>
        <time>2021-05-10T11:46:55Z</time>
      </trkpt>
      <trkpt lat="48.47714" lon="-2.47066">
        <ele>81.832750573934</ele>
        <time>2021-05-10T11:47:00Z</time>
      </trkpt>
      <trkpt lat="48.47721" lon="-2.47058">
        <ele>81.120892728797</ele>
        <time>2021-05-10T11:47:08Z</time>
      </trkpt>
      <trkpt lat="48.47728" lon="-2.4705">
        <ele>87.6</ele>
        <time>2021-05-10T11:47:15Z</time>
      </trkpt>
      <trkpt lat="48.47735" lon="-2.47043">
        <ele>87.7</ele>
        <time>2021-05-10T11:47:21Z</time>
      </trkpt>
      <trkpt lat="48.47739" lon="-2.47037">
        <ele>87.6</ele>
        <time>2021-05-10T11:47:27Z</time>
      </trkpt>
      <trkpt lat="48.47746" lon="-2.47028">
        <ele>87.5</ele>
        <time>2021-05-10T11:47:33Z</time>
      </trkpt>
      <trkpt lat="48.4775" lon="-2.47021">
        <ele>82.034345934789</ele>
        <time>2021-05-10T11:47:41Z</time>
      </trkpt>
      <trkpt lat="48.4775" lon="-2.47004">
        <ele>86.2</ele>
        <time>2021-05-10T11:47:57Z</time>
      </trkpt>
      <trkpt lat="48.47761" lon="-2.47002">
        <ele>86.6</ele>
        <time>2021-05-10T11:48:21Z</time>
      </trkpt>
      <trkpt lat="48.47773" lon="-2.46997">
        <ele>87.1</ele>
      </trkpt>
      <trkpt lat="48.47842" lon="-2.46931">
        <ele>88.3</ele>
      </trkpt>
      <trkpt lat="48.47938" lon="-2.46862">
        <ele>87.6</ele>
      </trkpt>
      <trkpt lat="48.48043" lon="-2.46829">
        <ele>86.1</ele>
      </trkpt>
      <trkpt lat="48.48061" lon="-2.46817">
        <ele>85.9</ele>
      </trkpt>
      <trkpt lat="48.48095" lon="-2.468">
        <ele>85.8</ele>
      </trkpt>
      <trkpt lat="48.48155" lon="-2.46773">
        <ele>86.5</ele>
      </trkpt>
      <trkpt lat="48.48221" lon="-2.46716">
        <ele>84.097969851249</ele>
        <time>2021-05-10T12:21:27Z</time>
      </trkpt>
      <trkpt lat="48.48228" lon="-2.46707">
        <ele>89.364743715307</ele>
        <time>2021-05-10T12:21:21Z</time>
      </trkpt>
      <trkpt lat="48.48235" lon="-2.46701">
        <ele>89.965067021216</ele>
        <time>2021-05-10T12:21:15Z</time>
      </trkpt>
      <trkpt lat="48.48243" lon="-2.46695">
        <ele>87.417128010833</ele>
        <time>2021-05-10T12:21:10Z</time>
      </trkpt>
      <trkpt lat="48.4825" lon="-2.4669">
        <ele>87.331715563748</ele>
        <time>2021-05-10T12:21:03Z</time>
      </trkpt>
      <trkpt lat="48.48258" lon="-2.46682">
        <ele>89.356173463279</ele>
        <time>2021-05-10T12:20:52Z</time>
      </trkpt>
      <trkpt lat="48.48266" lon="-2.46677">
        <ele>90.598881504678</ele>
        <time>2021-05-10T12:20:45Z</time>
      </trkpt>
      <trkpt lat="48.48273" lon="-2.46674">
        <ele>88.62552280343</ele>
        <time>2021-05-10T12:20:40Z</time>
      </trkpt>
      <trkpt lat="48.48281" lon="-2.46669">
        <ele>90.001229030779</ele>
        <time>2021-05-10T12:20:35Z</time>
      </trkpt>
      <trkpt lat="48.48288" lon="-2.46667">
        <ele>88.903841749923</ele>
        <time>2021-05-10T12:20:30Z</time>
      </trkpt>
      <trkpt lat="48.48296" lon="-2.46663">
        <ele>89.429200656398</ele>
        <time>2021-05-10T12:20:24Z</time>
      </trkpt>
      <trkpt lat="48.48304" lon="-2.46656">
        <ele>87.603312417404</ele>
        <time>2021-05-10T12:20:15Z</time>
      </trkpt>
      <trkpt lat="48.48311" lon="-2.4665">
        <ele>88.656267995689</ele>
        <time>2021-05-10T12:20:06Z</time>
      </trkpt>
      <trkpt lat="48.48317" lon="-2.46643">
        <ele>88.693000647918</ele>
        <time>2021-05-10T12:20:00Z</time>
      </trkpt>
      <trkpt lat="48.48322" lon="-2.46632">
        <ele>88.624033102375</ele>
        <time>2021-05-10T12:19:56Z</time>
      </trkpt>
      <trkpt lat="48.4833" lon="-2.46627">
        <ele>87.808332886365</ele>
        <time>2021-05-10T12:19:50Z</time>
      </trkpt>
      <trkpt lat="48.48337" lon="-2.4662">
        <ele>85.352257926146</ele>
        <time>2021-05-10T12:19:45Z</time>
      </trkpt>
      <trkpt lat="48.48344" lon="-2.46615">
        <ele>79.004757912326</ele>
        <time>2021-05-10T12:19:34Z</time>
      </trkpt>
      <trkpt lat="48.48353" lon="-2.46606">
        <ele>89.301483402709</ele>
        <time>2021-05-10T12:19:29Z</time>
      </trkpt>
      <trkpt lat="48.4836" lon="-2.466">
        <ele>88.225717805391</ele>
        <time>2021-05-10T12:19:24Z</time>
      </trkpt>
      <trkpt lat="48.48367" lon="-2.46592">
        <ele>91.503656184624</ele>
        <time>2021-05-10T12:19:19Z</time>
      </trkpt>
      <trkpt lat="48.48376" lon="-2.4659">
        <ele>89.694714815799</ele>
        <time>2021-05-10T12:19:05Z</time>
      </trkpt>
      <trkpt lat="48.48382" lon="-2.46584">
        <ele>92.760917284714</ele>
        <time>2021-05-10T12:18:58Z</time>
      </trkpt>
      <trkpt lat="48.4839" lon="-2.46576">
        <ele>95.959015804004</ele>
        <time>2021-05-10T12:18:52Z</time>
      </trkpt>
      <trkpt lat="48.48397" lon="-2.46569">
        <ele>95.084606068889</ele>
        <time>2021-05-10T12:18:45Z</time>
      </trkpt>
      <trkpt lat="48.48402" lon="-2.46561">
        <ele>98.029851597942</ele>
        <time>2021-05-10T12:18:39Z</time>
      </trkpt>
      <trkpt lat="48.48407" lon="-2.46552">
        <ele>95.551024085199</ele>
        <time>2021-05-10T12:18:30Z</time>
      </trkpt>
      <trkpt lat="48.48415" lon="-2.46546">
        <ele>94.695774761108</ele>
        <time>2021-05-10T12:18:23Z</time>
      </trkpt>
      <trkpt lat="48.48422" lon="-2.46539">
        <ele>91.637033315657</ele>
        <time>2021-05-10T12:18:16Z</time>
      </trkpt>
      <trkpt lat="48.48426" lon="-2.4653">
        <ele>97.586501041973</ele>
        <time>2021-05-10T12:18:11Z</time>
      </trkpt>
      <trkpt lat="48.48433" lon="-2.46525">
        <ele>98.338789867439</ele>
        <time>2021-05-10T12:18:06Z</time>
      </trkpt>
      <trkpt lat="48.48439" lon="-2.46515">
        <ele>99.659581989638</ele>
        <time>2021-05-10T12:18:02Z</time>
      </trkpt>
      <trkpt lat="48.48442" lon="-2.46503">
        <ele>98.305591177419</ele>
        <time>2021-05-10T12:17:48Z</time>
      </trkpt>
      <trkpt lat="48.48446" lon="-2.46492">
        <ele>98.983453569369</ele>
        <time>2021-05-10T12:17:39Z</time>
      </trkpt>
      <trkpt lat="48.48448" lon="-2.46479">
        <ele>97.756667461875</ele>
        <time>2021-05-10T12:17:30Z</time>
      </trkpt>
      <trkpt lat="48.4845" lon="-2.46467">
        <ele>99.727753619768</ele>
        <time>2021-05-10T12:17:21Z</time>
      </trkpt>
      <trkpt lat="48.48454" lon="-2.46455">
        <ele>100.03916445339</ele>
        <time>2021-05-10T12:17:09Z</time>
      </trkpt>
      <trkpt lat="48.48456" lon="-2.46442">
        <ele>99.519288736207</ele>
        <time>2021-05-10T12:17:01Z</time>
      </trkpt>
      <trkpt lat="48.48458" lon="-2.46429">
        <ele>99.885277479441</ele>
        <time>2021-05-10T12:16:54Z</time>
      </trkpt>
      <trkpt lat="48.4846" lon="-2.46412">
        <ele>91</ele>
        <time>2021-05-10T12:16:37Z</time>
      </trkpt>
      <trkpt lat="48.48437" lon="-2.46393">
        <ele>91.7</ele>
        <time>2021-05-10T12:16:12Z</time>
      </trkpt>
      <trkpt lat="48.48434" lon="-2.46412">
        <ele>91.6</ele>
      </trkpt>
      <trkpt lat="48.48424" lon="-2.46417">
        <ele>91.8</ele>
        <time>2021-05-10T12:16:04Z</time>
      </trkpt>
      <trkpt lat="48.4841" lon="-2.46407">
        <ele>91.9</ele>
        <time>2021-05-10T12:15:20Z</time>
      </trkpt>
      <trkpt lat="48.48387" lon="-2.46403">
        <ele>91.5</ele>
        <time>2021-05-10T12:15:10Z</time>
      </trkpt>
      <trkpt lat="48.48361" lon="-2.46404">
        <ele>91.1</ele>
      </trkpt>
      <trkpt lat="48.48341" lon="-2.46397">
        <ele>90.7</ele>
        <time>2021-05-10T12:15:03Z</time>
      </trkpt>
      <trkpt lat="48.48326" lon="-2.46404">
        <ele>90.5</ele>
      </trkpt>
      <trkpt lat="48.48313" lon="-2.46422">
        <ele>90.6</ele>
      </trkpt>
      <trkpt lat="48.48306" lon="-2.46439">
        <ele>90.5</ele>
      </trkpt>
      <trkpt lat="48.48298" lon="-2.46447">
        <ele>90.4</ele>
      </trkpt>
      <trkpt lat="48.48289" lon="-2.46454">
        <ele>90.2</ele>
      </trkpt>
      <trkpt lat="48.48281" lon="-2.46455">
        <ele>89.9</ele>
      </trkpt>
      <trkpt lat="48.48264" lon="-2.46462">
        <ele>89.4</ele>
      </trkpt>
      <trkpt lat="48.48259" lon="-2.46475">
        <ele>89.3</ele>
      </trkpt>
      <trkpt lat="48.48254" lon="-2.46488">
        <ele>89.2</ele>
      </trkpt>
      <trkpt lat="48.48249" lon="-2.46502">
        <ele>89</ele>
      </trkpt>
      <trkpt lat="48.48241" lon="-2.46513">
        <ele>89</ele>
      </trkpt>
      <trkpt lat="48.48236" lon="-2.46521">
        <ele>89</ele>
      </trkpt>
      <trkpt lat="48.48216" lon="-2.46525">
        <ele>88.7</ele>
      </trkpt>
      <trkpt lat="48.48203" lon="-2.46527">
        <ele>88.4</ele>
      </trkpt>
      <trkpt lat="48.48185" lon="-2.46529">
        <ele>88</ele>
      </trkpt>
      <trkpt lat="48.48176" lon="-2.46533">
        <ele>87.8</ele>
      </trkpt>
      <trkpt lat="48.48172" lon="-2.46536">
        <ele>87.7</ele>
      </trkpt>
      <trkpt lat="48.48171" lon="-2.46538">
        <ele>88.110044832063</ele>
        <time>2021-05-10T12:27:36Z</time>
      </trkpt>
      <trkpt lat="48.48165" lon="-2.46544">
        <ele>88.108904109705</ele>
        <time>2021-05-10T12:27:42Z</time>
      </trkpt>
      <trkpt lat="48.48165" lon="-2.46544">
        <ele>88.108904109705</ele>
        <time>2021-05-10T12:27:42Z</time>
      </trkpt>
      <trkpt lat="48.48159" lon="-2.46552">
        <ele>87.037073888129</ele>
        <time>2021-05-10T12:27:49Z</time>
      </trkpt>
      <trkpt lat="48.48152" lon="-2.46561">
        <ele>86.727880983421</ele>
        <time>2021-05-10T12:27:57Z</time>
      </trkpt>
      <trkpt lat="48.48145" lon="-2.46565">
        <ele>89.138123858526</ele>
        <time>2021-05-10T12:28:04Z</time>
      </trkpt>
      <trkpt lat="48.48139" lon="-2.46572">
        <ele>88.671280850825</ele>
        <time>2021-05-10T12:28:11Z</time>
      </trkpt>
      <trkpt lat="48.48132" lon="-2.46577">
        <ele>89.530436372208</ele>
        <time>2021-05-10T12:28:16Z</time>
      </trkpt>
      <trkpt lat="48.48123" lon="-2.46577">
        <ele>88.426113745346</ele>
        <time>2021-05-10T12:28:23Z</time>
      </trkpt>
      <trkpt lat="48.48114" lon="-2.46577">
        <ele>87.97773436972</ele>
        <time>2021-05-10T12:28:30Z</time>
      </trkpt>
      <trkpt lat="48.48106" lon="-2.4658">
        <ele>88.173815467319</ele>
        <time>2021-05-10T12:28:36Z</time>
      </trkpt>
      <trkpt lat="48.48099" lon="-2.46585">
        <ele>86.162488328288</ele>
        <time>2021-05-10T12:28:43Z</time>
      </trkpt>
      <trkpt lat="48.48091" lon="-2.46591">
        <ele>86.643348446153</ele>
        <time>2021-05-10T12:28:50Z</time>
      </trkpt>
      <trkpt lat="48.48084" lon="-2.46584">
        <ele>89.443459579785</ele>
        <time>2021-05-10T12:28:57Z</time>
      </trkpt>
      <trkpt lat="48.48078" lon="-2.46574">
        <ele>91.33194727969</ele>
        <time>2021-05-10T12:29:05Z</time>
      </trkpt>
      <trkpt lat="48.48074" lon="-2.46562">
        <ele>90.958898005038</ele>
        <time>2021-05-10T12:29:21Z</time>
      </trkpt>
      <trkpt lat="48.48079" lon="-2.46572">
        <ele>88.390417446677</ele>
        <time>2021-05-10T12:31:40Z</time>
      </trkpt>
      <trkpt lat="48.48085" lon="-2.46581">
        <ele>87.501199741601</ele>
        <time>2021-05-10T12:31:50Z</time>
      </trkpt>
      <trkpt lat="48.48085" lon="-2.46595">
        <ele>88.306212027117</ele>
        <time>2021-05-10T12:32:10Z</time>
      </trkpt>
      <trkpt lat="48.48078" lon="-2.46603">
        <ele>87.920482950176</ele>
        <time>2021-05-10T12:32:19Z</time>
      </trkpt>
      <trkpt lat="48.48069" lon="-2.46607">
        <ele>87.411482012622</ele>
        <time>2021-05-10T12:32:26Z</time>
      </trkpt>
      <trkpt lat="48.48061" lon="-2.46612">
        <ele>87.658642431616</ele>
        <time>2021-05-10T12:32:35Z</time>
      </trkpt>
      <trkpt lat="48.48054" lon="-2.46612">
        <ele>87.304741741509</ele>
        <time>2021-05-10T12:32:42Z</time>
      </trkpt>
      <trkpt lat="48.48046" lon="-2.4661">
        <ele>86.853432834055</ele>
        <time>2021-05-10T12:32:48Z</time>
      </trkpt>
      <trkpt lat="48.48037" lon="-2.4661">
        <ele>84.713285002707</ele>
        <time>2021-05-10T12:32:55Z</time>
      </trkpt>
      <trkpt lat="48.48029" lon="-2.46608">
        <ele>84.800129810564</ele>
        <time>2021-05-10T12:33:03Z</time>
      </trkpt>
      <trkpt lat="48.48021" lon="-2.46601">
        <ele>83.103415532617</ele>
        <time>2021-05-10T12:33:10Z</time>
      </trkpt>
      <trkpt lat="48.48014" lon="-2.46593">
        <ele>81.574121245786</ele>
        <time>2021-05-10T12:33:20Z</time>
      </trkpt>
      <trkpt lat="48.48009" lon="-2.46584">
        <ele>82.475236051382</ele>
        <time>2021-05-10T12:33:27Z</time>
      </trkpt>
      <trkpt lat="48.48007" lon="-2.46572">
        <ele>84.933049477167</ele>
        <time>2021-05-10T12:33:33Z</time>
      </trkpt>
      <trkpt lat="48.48004" lon="-2.46561">
        <ele>83.174434188438</ele>
        <time>2021-05-10T12:33:38Z</time>
      </trkpt>
      <trkpt lat="48.48001" lon="-2.46548">
        <ele>82.32109684598</ele>
        <time>2021-05-10T12:33:45Z</time>
      </trkpt>
      <trkpt lat="48.47997" lon="-2.46539">
        <ele>79.916424826328</ele>
        <time>2021-05-10T12:33:52Z</time>
      </trkpt>
      <trkpt lat="48.47994" lon="-2.46527">
        <ele>81.270790762971</ele>
        <time>2021-05-10T12:34:00Z</time>
      </trkpt>
      <trkpt lat="48.47994" lon="-2.46515">
        <ele>83.184278168362</ele>
        <time>2021-05-10T12:34:06Z</time>
      </trkpt>
      <trkpt lat="48.47995" lon="-2.46503">
        <ele>83.918934421905</ele>
        <time>2021-05-10T12:34:12Z</time>
      </trkpt>
      <trkpt lat="48.47998" lon="-2.46491">
        <ele>84.250316579789</ele>
        <time>2021-05-10T12:34:17Z</time>
      </trkpt>
      <trkpt lat="48.48003" lon="-2.46482">
        <ele>84.90430862535</ele>
        <time>2021-05-10T12:34:23Z</time>
      </trkpt>
      <trkpt lat="48.48009" lon="-2.46473">
        <ele>87.581061743883</ele>
        <time>2021-05-10T12:34:30Z</time>
      </trkpt>
      <trkpt lat="48.48017" lon="-2.46467">
        <ele>88.847210351038</ele>
        <time>2021-05-10T12:34:36Z</time>
      </trkpt>
      <trkpt lat="48.48024" lon="-2.46461">
        <ele>87.5063669537</ele>
        <time>2021-05-10T12:34:44Z</time>
      </trkpt>
      <trkpt lat="48.48031" lon="-2.46455">
        <ele>86.333373122067</ele>
        <time>2021-05-10T12:34:52Z</time>
      </trkpt>
      <trkpt lat="48.48036" lon="-2.46444">
        <ele>84.642886950548</ele>
        <time>2021-05-10T12:34:59Z</time>
      </trkpt>
      <trkpt lat="48.48041" lon="-2.46434">
        <ele>83.843024957126</ele>
        <time>2021-05-10T12:35:06Z</time>
      </trkpt>
      <trkpt lat="48.48045" lon="-2.46423">
        <ele>82.058431757957</ele>
        <time>2021-05-10T12:35:13Z</time>
      </trkpt>
      <trkpt lat="48.48051" lon="-2.46418">
        <ele>82.418395416344</ele>
        <time>2021-05-10T12:35:19Z</time>
      </trkpt>
      <trkpt lat="48.4806" lon="-2.46415">
        <ele>85.487142235447</ele>
        <time>2021-05-10T12:35:26Z</time>
      </trkpt>
      <trkpt lat="48.48068" lon="-2.46415">
        <ele>86.213351961279</ele>
        <time>2021-05-10T12:35:33Z</time>
      </trkpt>
      <trkpt lat="48.48077" lon="-2.46413">
        <ele>85.970753725671</ele>
        <time>2021-05-10T12:35:40Z</time>
      </trkpt>
      <trkpt lat="48.48085" lon="-2.46406">
        <ele>89.867092370507</ele>
        <time>2021-05-10T12:35:50Z</time>
      </trkpt>
      <trkpt lat="48.48092" lon="-2.46399">
        <ele>89.431528727682</ele>
        <time>2021-05-10T12:35:55Z</time>
      </trkpt>
      <trkpt lat="48.48099" lon="-2.46395">
        <ele>89.269632394471</ele>
        <time>2021-05-10T12:36:02Z</time>
      </trkpt>
      <trkpt lat="48.48106" lon="-2.46393">
        <ele>89.43854159505</ele>
        <time>2021-05-10T12:36:08Z</time>
      </trkpt>
      <trkpt lat="48.48115" lon="-2.4639">
        <ele>87.447594051018</ele>
        <time>2021-05-10T12:36:13Z</time>
      </trkpt>
      <trkpt lat="48.48123" lon="-2.46386">
        <ele>87.653006494934</ele>
        <time>2021-05-10T12:36:20Z</time>
      </trkpt>
      <trkpt lat="48.48131" lon="-2.4638">
        <ele>85.988303392724</ele>
        <time>2021-05-10T12:36:29Z</time>
      </trkpt>
      <trkpt lat="48.48139" lon="-2.46376">
        <ele>85.985459178281</ele>
        <time>2021-05-10T12:36:38Z</time>
      </trkpt>
      <trkpt lat="48.48147" lon="-2.46374">
        <ele>85.444711492351</ele>
        <time>2021-05-10T12:36:45Z</time>
      </trkpt>
      <trkpt lat="48.48156" lon="-2.46372">
        <ele>86.181727623149</ele>
        <time>2021-05-10T12:36:51Z</time>
      </trkpt>
      <trkpt lat="48.48163" lon="-2.46367">
        <ele>85.821101073309</ele>
        <time>2021-05-10T12:36:58Z</time>
      </trkpt>
      <trkpt lat="48.48171" lon="-2.46365">
        <ele>84.722126182952</ele>
        <time>2021-05-10T12:37:05Z</time>
      </trkpt>
      <trkpt lat="48.48177" lon="-2.4636">
        <ele>87.495601882615</ele>
        <time>2021-05-10T12:37:10Z</time>
      </trkpt>
      <trkpt lat="48.48185" lon="-2.46354">
        <ele>86.505828559156</ele>
        <time>2021-05-10T12:37:18Z</time>
      </trkpt>
      <trkpt lat="48.48193" lon="-2.46351">
        <ele>86.934501384222</ele>
        <time>2021-05-10T12:37:25Z</time>
      </trkpt>
      <trkpt lat="48.48201" lon="-2.46348">
        <ele>86.567824527783</ele>
        <time>2021-05-10T12:37:33Z</time>
      </trkpt>
      <trkpt lat="48.48209" lon="-2.46344">
        <ele>86.298743875456</ele>
        <time>2021-05-10T12:37:41Z</time>
      </trkpt>
      <trkpt lat="48.48218" lon="-2.46341">
        <ele>85.379088384805</ele>
        <time>2021-05-10T12:37:46Z</time>
      </trkpt>
      <trkpt lat="48.48226" lon="-2.4634">
        <ele>85.622331011681</ele>
        <time>2021-05-10T12:37:53Z</time>
      </trkpt>
      <trkpt lat="48.48234" lon="-2.46336">
        <ele>85.594950972076</ele>
        <time>2021-05-10T12:37:59Z</time>
      </trkpt>
      <trkpt lat="48.48241" lon="-2.46333">
        <ele>86.283756129554</ele>
        <time>2021-05-10T12:38:06Z</time>
      </trkpt>
      <trkpt lat="48.4825" lon="-2.46332">
        <ele>84.92195359287</ele>
        <time>2021-05-10T12:38:12Z</time>
      </trkpt>
      <trkpt lat="48.48258" lon="-2.46328">
        <ele>85.046003166266</ele>
        <time>2021-05-10T12:38:19Z</time>
      </trkpt>
      <trkpt lat="48.48262" lon="-2.46317">
        <ele>85.090323246475</ele>
        <time>2021-05-10T12:38:29Z</time>
      </trkpt>
      <trkpt lat="48.48259" lon="-2.46304">
        <ele>85.397139284269</ele>
        <time>2021-05-10T12:38:40Z</time>
      </trkpt>
      <trkpt lat="48.48258" lon="-2.46317">
        <ele>82.909740259933</ele>
        <time>2021-05-10T12:39:18Z</time>
      </trkpt>
      <trkpt lat="48.48267" lon="-2.46322">
        <ele>84.396799237943</ele>
        <time>2021-05-10T12:39:30Z</time>
      </trkpt>
      <trkpt lat="48.48275" lon="-2.46318">
        <ele>85.119901481363</ele>
        <time>2021-05-10T12:39:37Z</time>
      </trkpt>
      <trkpt lat="48.48283" lon="-2.46317">
        <ele>87.871510817039</ele>
        <time>2021-05-10T12:39:43Z</time>
      </trkpt>
      <trkpt lat="48.48291" lon="-2.46312">
        <ele>87.856704955503</ele>
        <time>2021-05-10T12:39:52Z</time>
      </trkpt>
      <trkpt lat="48.48296" lon="-2.46304">
        <ele>85.384891279884</ele>
        <time>2021-05-10T12:40:16Z</time>
      </trkpt>
      <trkpt lat="48.483" lon="-2.46293">
        <ele>86.254593354601</ele>
        <time>2021-05-10T12:40:23Z</time>
      </trkpt>
      <trkpt lat="48.48303" lon="-2.46281">
        <ele>85.914823112447</ele>
        <time>2021-05-10T12:40:32Z</time>
      </trkpt>
      <trkpt lat="48.48306" lon="-2.46269">
        <ele>84.174173594823</ele>
        <time>2021-05-10T12:40:39Z</time>
      </trkpt>
      <trkpt lat="48.48311" lon="-2.4626">
        <ele>87.646212422789</ele>
        <time>2021-05-10T12:40:44Z</time>
      </trkpt>
      <trkpt lat="48.48318" lon="-2.46252">
        <ele>84.720168925741</ele>
        <time>2021-05-10T12:40:52Z</time>
      </trkpt>
      <trkpt lat="48.48325" lon="-2.46248">
        <ele>85.27385313751</ele>
        <time>2021-05-10T12:40:59Z</time>
      </trkpt>
      <trkpt lat="48.48333" lon="-2.46244">
        <ele>85.953318598581</ele>
        <time>2021-05-10T12:41:08Z</time>
      </trkpt>
      <trkpt lat="48.4834" lon="-2.46249">
        <ele>83.914134736504</ele>
        <time>2021-05-10T12:41:16Z</time>
      </trkpt>
      <trkpt lat="48.48347" lon="-2.46259">
        <ele>81.069163332585</ele>
        <time>2021-05-10T12:41:25Z</time>
      </trkpt>
      <trkpt lat="48.48349" lon="-2.46271">
        <ele>81.637051706718</ele>
        <time>2021-05-10T12:41:32Z</time>
      </trkpt>
      <trkpt lat="48.48347" lon="-2.46284">
        <ele>83.66431220479</ele>
        <time>2021-05-10T12:41:39Z</time>
      </trkpt>
      <trkpt lat="48.48343" lon="-2.46295">
        <ele>85.705931513188</ele>
        <time>2021-05-10T12:41:46Z</time>
      </trkpt>
      <trkpt lat="48.48337" lon="-2.46304">
        <ele>84.96204195805</ele>
        <time>2021-05-10T12:41:52Z</time>
      </trkpt>
      <trkpt lat="48.48333" lon="-2.46314">
        <ele>86.840460284969</ele>
        <time>2021-05-10T12:41:59Z</time>
      </trkpt>
      <trkpt lat="48.48327" lon="-2.46324">
        <ele>88.480968251751</ele>
        <time>2021-05-10T12:42:11Z</time>
      </trkpt>
      <trkpt lat="48.48319" lon="-2.46328">
        <ele>87.640366535061</ele>
        <time>2021-05-10T12:42:17Z</time>
      </trkpt>
      <trkpt lat="48.48314" lon="-2.46339">
        <ele>88.537095700819</ele>
        <time>2021-05-10T12:42:27Z</time>
      </trkpt>
      <trkpt lat="48.4831" lon="-2.46351">
        <ele>88.428322402775</ele>
        <time>2021-05-10T12:42:40Z</time>
      </trkpt>
      <trkpt lat="48.48304" lon="-2.46358">
        <ele>90.994017792491</ele>
        <time>2021-05-10T12:42:47Z</time>
      </trkpt>
      <trkpt lat="48.48296" lon="-2.46364">
        <ele>89.572350450606</ele>
        <time>2021-05-10T12:42:54Z</time>
      </trkpt>
      <trkpt lat="48.48291" lon="-2.4637">
        <ele>88.425395162798</ele>
        <time>2021-05-10T12:43:00Z</time>
      </trkpt>
      <trkpt lat="48.48283" lon="-2.46377">
        <ele>87.619758099794</ele>
        <time>2021-05-10T12:43:07Z</time>
      </trkpt>
      <trkpt lat="48.48275" lon="-2.46383">
        <ele>86.901828607275</ele>
        <time>2021-05-10T12:43:15Z</time>
      </trkpt>
      <trkpt lat="48.48267" lon="-2.46387">
        <ele>88.960943884217</ele>
        <time>2021-05-10T12:43:22Z</time>
      </trkpt>
      <trkpt lat="48.48262" lon="-2.46398">
        <ele>86.531256418871</ele>
        <time>2021-05-10T12:43:55Z</time>
      </trkpt>
      <trkpt lat="48.48258" lon="-2.4641">
        <ele>87.182549971119</ele>
        <time>2021-05-10T12:44:03Z</time>
      </trkpt>
      <trkpt lat="48.48254" lon="-2.46421">
        <ele>87.650012753731</ele>
        <time>2021-05-10T12:44:27Z</time>
      </trkpt>
      <trkpt lat="48.4825" lon="-2.46432">
        <ele>84.676859442287</ele>
        <time>2021-05-10T12:44:34Z</time>
      </trkpt>
      <trkpt lat="48.48245" lon="-2.46442">
        <ele>84.17710601898</ele>
        <time>2021-05-10T12:44:41Z</time>
      </trkpt>
      <trkpt lat="48.48241" lon="-2.46452">
        <ele>83.853248610221</ele>
        <time>2021-05-10T12:44:50Z</time>
      </trkpt>
      <trkpt lat="48.48237" lon="-2.46464">
        <ele>85.54329967794</ele>
        <time>2021-05-10T12:45:04Z</time>
      </trkpt>
      <trkpt lat="48.48235" lon="-2.46476">
        <ele>86.130254739076</ele>
        <time>2021-05-10T12:46:30Z</time>
      </trkpt>
      <trkpt lat="48.48232" lon="-2.46489">
        <ele>85.745407617783</ele>
        <time>2021-05-10T12:46:40Z</time>
      </trkpt>
      <trkpt lat="48.48232" lon="-2.465">
        <ele>86.894239767044</ele>
        <time>2021-05-10T12:46:46Z</time>
      </trkpt>
      <trkpt lat="48.48238" lon="-2.4651">
        <ele>85.044876578396</ele>
        <time>2021-05-10T12:46:54Z</time>
      </trkpt>
      <trkpt lat="48.48234" lon="-2.46521">
        <ele>86.787359631746</ele>
        <time>2021-05-10T12:47:18Z</time>
      </trkpt>
      <trkpt lat="48.48225" lon="-2.46523">
        <ele>81.960498231047</ele>
        <time>2021-05-10T12:47:26Z</time>
      </trkpt>
      <trkpt lat="48.48217" lon="-2.46523">
        <ele>83.421236568825</ele>
        <time>2021-05-10T12:47:32Z</time>
      </trkpt>
      <trkpt lat="48.48208" lon="-2.46524">
        <ele>82.731889411662</ele>
        <time>2021-05-10T12:47:37Z</time>
      </trkpt>
      <trkpt lat="48.48203" lon="-2.46525">
        <ele>88.4</ele>
        <time>2021-05-10T12:47:45Z</time>
      </trkpt>
      <trkpt lat="48.48187" lon="-2.46534">
        <ele>88</ele>
        <time>2021-05-10T12:47:53Z</time>
      </trkpt>
      <trkpt lat="48.48185" lon="-2.46536">
        <ele>88</ele>
      </trkpt>
      <trkpt lat="48.48196" lon="-2.46561">
        <ele>88.1</ele>
      </trkpt>
      <trkpt lat="48.48206" lon="-2.46574">
        <ele>88.4</ele>
      </trkpt>
      <trkpt lat="48.48211" lon="-2.46573">
        <ele>88.6</ele>
      </trkpt>
      <trkpt lat="48.48219" lon="-2.46581">
        <ele>88.9</ele>
      </trkpt>
      <trkpt lat="48.4822" lon="-2.4659">
        <ele>88.8</ele>
      </trkpt>
      <trkpt lat="48.48213" lon="-2.46596">
        <ele>88.5</ele>
      </trkpt>
      <trkpt lat="48.48209" lon="-2.46613">
        <ele>88.2</ele>
      </trkpt>
      <trkpt lat="48.48205" lon="-2.46629">
        <ele>87.8</ele>
      </trkpt>
      <trkpt lat="48.48203" lon="-2.46638">
        <ele>87.6</ele>
      </trkpt>
      <trkpt lat="48.48199" lon="-2.46648">
        <ele>87.4</ele>
      </trkpt>
      <trkpt lat="48.48199" lon="-2.46654">
        <ele>87.3</ele>
      </trkpt>
      <trkpt lat="48.48203" lon="-2.46667">
        <ele>87.3</ele>
      </trkpt>
      <trkpt lat="48.48203" lon="-2.46677">
        <ele>87.3</ele>
      </trkpt>
      <trkpt lat="48.48203" lon="-2.46687">
        <ele>87.2</ele>
      </trkpt>
      <trkpt lat="48.48204" lon="-2.46696">
        <ele>87.2</ele>
      </trkpt>
      <trkpt lat="48.48213" lon="-2.46701">
        <ele>87.4</ele>
      </trkpt>
      <trkpt lat="48.48215" lon="-2.46711">
        <ele>87.3</ele>
      </trkpt>
      <trkpt lat="48.48216" lon="-2.46722">
        <ele>87.3</ele>
      </trkpt>
      <trkpt lat="48.48211" lon="-2.46726">
        <ele>87.2</ele>
      </trkpt>
      <trkpt lat="48.48208" lon="-2.46726">
        <ele>78.125842167988</ele>
        <time>2021-05-10T12:51:29Z</time>
      </trkpt>
      <trkpt lat="48.482" lon="-2.46731">
        <ele>79.020156149375</ele>
        <time>2021-05-10T12:51:35Z</time>
      </trkpt>
      <trkpt lat="48.48194" lon="-2.46737">
        <ele>81.71652106773</ele>
        <time>2021-05-10T12:51:46Z</time>
      </trkpt>
      <trkpt lat="48.48185" lon="-2.46742">
        <ele>81.866151959582</ele>
        <time>2021-05-10T12:51:51Z</time>
      </trkpt>
      <trkpt lat="48.48176" lon="-2.46749">
        <ele>83.431485489089</ele>
        <time>2021-05-10T12:51:56Z</time>
      </trkpt>
      <trkpt lat="48.48169" lon="-2.46757">
        <ele>83.538676585345</ele>
        <time>2021-05-10T12:52:02Z</time>
      </trkpt>
      <trkpt lat="48.48162" lon="-2.46765">
        <ele>79.68663774608</ele>
        <time>2021-05-10T12:52:10Z</time>
      </trkpt>
      <trkpt lat="48.48154" lon="-2.46768">
        <ele>79.045675854894</ele>
        <time>2021-05-10T12:52:18Z</time>
      </trkpt>
      <trkpt lat="48.48147" lon="-2.46774">
        <ele>80.448833000806</ele>
        <time>2021-05-10T12:52:24Z</time>
      </trkpt>
      <trkpt lat="48.48139" lon="-2.46779">
        <ele>81.461738869989</ele>
        <time>2021-05-10T12:52:30Z</time>
      </trkpt>
      <trkpt lat="48.4813" lon="-2.46783">
        <ele>84.543925795322</ele>
        <time>2021-05-10T12:52:39Z</time>
      </trkpt>
      <trkpt lat="48.48123" lon="-2.46787">
        <ele>86.066900061289</ele>
        <time>2021-05-10T12:52:44Z</time>
      </trkpt>
      <trkpt lat="48.48115" lon="-2.46792">
        <ele>86.902132513332</ele>
        <time>2021-05-10T12:52:52Z</time>
      </trkpt>
      <trkpt lat="48.48107" lon="-2.46798">
        <ele>85.950125994035</ele>
        <time>2021-05-10T12:53:02Z</time>
      </trkpt>
      <trkpt lat="48.48099" lon="-2.46802">
        <ele>84.360742702456</ele>
        <time>2021-05-10T12:53:11Z</time>
      </trkpt>
      <trkpt lat="48.48091" lon="-2.46804">
        <ele>85.940182487659</ele>
        <time>2021-05-10T12:53:18Z</time>
      </trkpt>
      <trkpt lat="48.48083" lon="-2.46804">
        <ele>84.096839012628</ele>
        <time>2021-05-10T12:53:25Z</time>
      </trkpt>
      <trkpt lat="48.48074" lon="-2.46807">
        <ele>86.768627619598</ele>
        <time>2021-05-10T12:53:31Z</time>
      </trkpt>
      <trkpt lat="48.48066" lon="-2.4681">
        <ele>83.622908000633</ele>
        <time>2021-05-10T12:53:38Z</time>
      </trkpt>
      <trkpt lat="48.48059" lon="-2.46816">
        <ele>86.505251234701</ele>
        <time>2021-05-10T12:53:48Z</time>
      </trkpt>
      <trkpt lat="48.48053" lon="-2.46826">
        <ele>88.182493437454</ele>
        <time>2021-05-10T12:57:41Z</time>
      </trkpt>
      <trkpt lat="48.48046" lon="-2.46832">
        <ele>89.612689988633</ele>
        <time>2021-05-10T12:57:48Z</time>
      </trkpt>
      <trkpt lat="48.48037" lon="-2.46834">
        <ele>87.354306518764</ele>
        <time>2021-05-10T12:57:56Z</time>
      </trkpt>
      <trkpt lat="48.48028" lon="-2.46836">
        <ele>88.306246443541</ele>
        <time>2021-05-10T12:58:04Z</time>
      </trkpt>
      <trkpt lat="48.4802" lon="-2.46838">
        <ele>88.444160609732</ele>
        <time>2021-05-10T12:58:13Z</time>
      </trkpt>
      <trkpt lat="48.48012" lon="-2.46841">
        <ele>86.736609448894</ele>
        <time>2021-05-10T12:58:19Z</time>
      </trkpt>
      <trkpt lat="48.48003" lon="-2.46842">
        <ele>87.551228300975</ele>
        <time>2021-05-10T12:58:26Z</time>
      </trkpt>
      <trkpt lat="48.47995" lon="-2.46843">
        <ele>85.866452209054</ele>
        <time>2021-05-10T12:58:34Z</time>
      </trkpt>
      <trkpt lat="48.47987" lon="-2.46844">
        <ele>86.491853909286</ele>
        <time>2021-05-10T12:58:53Z</time>
      </trkpt>
      <trkpt lat="48.47978" lon="-2.46848">
        <ele>86.355594616422</ele>
        <time>2021-05-10T12:59:05Z</time>
      </trkpt>
      <trkpt lat="48.4797" lon="-2.4685">
        <ele>84.982155046446</ele>
        <time>2021-05-10T12:59:13Z</time>
      </trkpt>
      <trkpt lat="48.47961" lon="-2.46855">
        <ele>86.103339204829</ele>
        <time>2021-05-10T12:59:30Z</time>
      </trkpt>
      <trkpt lat="48.47954" lon="-2.4686">
        <ele>86.188138985936</ele>
        <time>2021-05-10T12:59:37Z</time>
      </trkpt>
      <trkpt lat="48.47947" lon="-2.46865">
        <ele>87.5</ele>
      </trkpt>
      <trkpt lat="48.47955" lon="-2.46872">
        <ele>86.279890037555</ele>
        <time>2021-05-10T12:59:44Z</time>
      </trkpt>
      <trkpt lat="48.47961" lon="-2.4688">
        <ele>82.517134278791</ele>
        <time>2021-05-10T12:59:51Z</time>
      </trkpt>
      <trkpt lat="48.47967" lon="-2.46888">
        <ele>85.143543353479</ele>
        <time>2021-05-10T12:59:59Z</time>
      </trkpt>
      <trkpt lat="48.47971" lon="-2.469">
        <ele>86.8</ele>
        <time>2021-05-10T13:00:05Z</time>
      </trkpt>
      <trkpt lat="48.47977" lon="-2.46908">
        <ele>85.319822463435</ele>
        <time>2021-05-10T13:00:12Z</time>
      </trkpt>
      <trkpt lat="48.47982" lon="-2.46919">
        <ele>86.77386477768</ele>
        <time>2021-05-10T13:00:18Z</time>
      </trkpt>
      <trkpt lat="48.47986" lon="-2.4693">
        <ele>89.66065061807</ele>
        <time>2021-05-10T13:00:25Z</time>
      </trkpt>
      <trkpt lat="48.47992" lon="-2.46939">
        <ele>86.408760273343</ele>
        <time>2021-05-10T13:00:32Z</time>
      </trkpt>
      <trkpt lat="48.47998" lon="-2.46946">
        <ele>85.193007311813</ele>
        <time>2021-05-10T13:00:38Z</time>
      </trkpt>
      <trkpt lat="48.48002" lon="-2.46959">
        <ele>87.566973596437</ele>
        <time>2021-05-10T13:00:45Z</time>
      </trkpt>
      <trkpt lat="48.48007" lon="-2.46969">
        <ele>86.3</ele>
        <time>2021-05-10T13:00:50Z</time>
      </trkpt>
      <trkpt lat="48.48012" lon="-2.4698">
        <ele>86.2</ele>
        <time>2021-05-10T13:00:57Z</time>
      </trkpt>
      <trkpt lat="48.48017" lon="-2.46991">
        <ele>86.1</ele>
        <time>2021-05-10T13:01:04Z</time>
      </trkpt>
      <trkpt lat="48.48025" lon="-2.47">
        <ele>85.8</ele>
        <time>2021-05-10T13:01:11Z</time>
      </trkpt>
      <trkpt lat="48.48031" lon="-2.47006">
        <ele>85.4</ele>
        <time>2021-05-10T13:01:19Z</time>
      </trkpt>
      <trkpt lat="48.48039" lon="-2.47013">
        <ele>84.8</ele>
        <time>2021-05-10T13:01:25Z</time>
      </trkpt>
      <trkpt lat="48.48046" lon="-2.47018">
        <ele>84.4</ele>
        <time>2021-05-10T13:01:34Z</time>
      </trkpt>
      <trkpt lat="48.48053" lon="-2.47021">
        <ele>84.27441466228</ele>
        <time>2021-05-10T13:01:42Z</time>
      </trkpt>
      <trkpt lat="48.48056" lon="-2.47034">
        <ele>82.811594566424</ele>
        <time>2021-05-10T13:01:48Z</time>
      </trkpt>
      <trkpt lat="48.48052" lon="-2.47045">
        <ele>83.962457474564</ele>
        <time>2021-05-10T13:01:54Z</time>
      </trkpt>
      <trkpt lat="48.48048" lon="-2.47056">
        <ele>82.920388380443</ele>
        <time>2021-05-10T13:02:00Z</time>
      </trkpt>
      <trkpt lat="48.48044" lon="-2.47067">
        <ele>83.189049176513</ele>
        <time>2021-05-10T13:02:06Z</time>
      </trkpt>
      <trkpt lat="48.48042" lon="-2.47079">
        <ele>82.885188864422</ele>
        <time>2021-05-10T13:02:12Z</time>
      </trkpt>
      <trkpt lat="48.48039" lon="-2.47091">
        <ele>81.786897569027</ele>
        <time>2021-05-10T13:02:18Z</time>
      </trkpt>
      <trkpt lat="48.48036" lon="-2.47101">
        <ele>82.727127764044</ele>
        <time>2021-05-10T13:02:24Z</time>
      </trkpt>
      <trkpt lat="48.48032" lon="-2.47112">
        <ele>80.318238121984</ele>
        <time>2021-05-10T13:02:29Z</time>
      </trkpt>
      <trkpt lat="48.48027" lon="-2.47123">
        <ele>81.789232824865</ele>
        <time>2021-05-10T13:02:36Z</time>
      </trkpt>
      <trkpt lat="48.48023" lon="-2.47134">
        <ele>79.981781584064</ele>
        <time>2021-05-10T13:02:41Z</time>
      </trkpt>
      <trkpt lat="48.48019" lon="-2.47145">
        <ele>79.841749768738</ele>
        <time>2021-05-10T13:02:50Z</time>
      </trkpt>
      <trkpt lat="48.48017" lon="-2.47158">
        <ele>78.796307753182</ele>
        <time>2021-05-10T13:02:58Z</time>
      </trkpt>
      <trkpt lat="48.48013" lon="-2.4717">
        <ele>79.677700060189</ele>
        <time>2021-05-10T13:03:06Z</time>
      </trkpt>
      <trkpt lat="48.48008" lon="-2.4718">
        <ele>78.602312516597</ele>
        <time>2021-05-10T13:03:13Z</time>
      </trkpt>
      <trkpt lat="48.48002" lon="-2.47189">
        <ele>75.583940706645</ele>
        <time>2021-05-10T13:03:21Z</time>
      </trkpt>
      <trkpt lat="48.47991" lon="-2.47215">
        <ele>78.6</ele>
        <time>2021-05-10T13:03:30Z</time>
      </trkpt>
      <trkpt lat="48.47984" lon="-2.47211">
        <ele>79.1</ele>
        <time>2021-05-10T13:03:37Z</time>
      </trkpt>
      <trkpt lat="48.47978" lon="-2.47205">
        <ele>79.7</ele>
        <time>2021-05-10T13:03:45Z</time>
      </trkpt>
      <trkpt lat="48.47974" lon="-2.47212">
        <ele>79.6</ele>
        <time>2021-05-10T13:03:51Z</time>
      </trkpt>
      <trkpt lat="48.47963" lon="-2.47231">
        <ele>79.1</ele>
        <time>2021-05-10T13:04:04Z</time>
      </trkpt>
      <trkpt lat="48.47958" lon="-2.47236">
        <ele>73.996394418107</ele>
        <time>2021-05-10T13:04:12Z</time>
      </trkpt>
      <trkpt lat="48.47953" lon="-2.47247">
        <ele>73.932234742568</ele>
        <time>2021-05-10T13:04:18Z</time>
      </trkpt>
      <trkpt lat="48.47947" lon="-2.47256">
        <ele>77.931132305338</ele>
        <time>2021-05-10T13:04:25Z</time>
      </trkpt>
      <trkpt lat="48.47942" lon="-2.47266">
        <ele>78.353850386349</ele>
        <time>2021-05-10T13:04:32Z</time>
      </trkpt>
      <trkpt lat="48.47937" lon="-2.47275">
        <ele>81.170007442575</ele>
        <time>2021-05-10T13:04:40Z</time>
      </trkpt>
      <trkpt lat="48.47932" lon="-2.47286">
        <ele>76.423467509891</ele>
        <time>2021-05-10T13:04:48Z</time>
      </trkpt>
      <trkpt lat="48.47927" lon="-2.47297">
        <ele>74.148734524649</ele>
        <time>2021-05-10T13:04:55Z</time>
      </trkpt>
      <trkpt lat="48.47923" lon="-2.47308">
        <ele>78.785314637159</ele>
        <time>2021-05-10T13:05:06Z</time>
      </trkpt>
      <trkpt lat="48.47919" lon="-2.47319">
        <ele>78.943007284378</ele>
        <time>2021-05-10T13:05:11Z</time>
      </trkpt>
      <trkpt lat="48.47914" lon="-2.47329">
        <ele>77.613042549183</ele>
        <time>2021-05-10T13:05:17Z</time>
      </trkpt>
      <trkpt lat="48.47907" lon="-2.47336">
        <ele>77.652537250974</ele>
        <time>2021-05-10T13:05:23Z</time>
      </trkpt>
      <trkpt lat="48.47903" lon="-2.47347">
        <ele>76.797108193469</ele>
        <time>2021-05-10T13:05:29Z</time>
      </trkpt>
      <trkpt lat="48.47901" lon="-2.47358">
        <ele>73.975975803236</ele>
        <time>2021-05-10T13:05:37Z</time>
      </trkpt>
      <trkpt lat="48.47896" lon="-2.47368">
        <ele>74.669507297273</ele>
        <time>2021-05-10T13:05:43Z</time>
      </trkpt>
      <trkpt lat="48.47889" lon="-2.47376">
        <ele>75.268077382269</ele>
        <time>2021-05-10T13:05:48Z</time>
      </trkpt>
      <trkpt lat="48.47884" lon="-2.47386">
        <ele>74.873963947342</ele>
        <time>2021-05-10T13:05:55Z</time>
      </trkpt>
      <trkpt lat="48.4788" lon="-2.47396">
        <ele>71.982099870925</ele>
        <time>2021-05-10T13:06:01Z</time>
      </trkpt>
      <trkpt lat="48.47875" lon="-2.47405">
        <ele>75.924779422292</ele>
        <time>2021-05-10T13:06:07Z</time>
      </trkpt>
      <trkpt lat="48.4787" lon="-2.47416">
        <ele>75.85804695613</ele>
        <time>2021-05-10T13:06:16Z</time>
      </trkpt>
      <trkpt lat="48.47864" lon="-2.47426">
        <ele>76.607675016193</ele>
        <time>2021-05-10T13:06:24Z</time>
      </trkpt>
      <trkpt lat="48.47858" lon="-2.47433">
        <ele>77.53821629389</ele>
        <time>2021-05-10T13:06:29Z</time>
      </trkpt>
      <trkpt lat="48.47855" lon="-2.47445">
        <ele>76.984963232234</ele>
        <time>2021-05-10T13:06:36Z</time>
      </trkpt>
      <trkpt lat="48.47851" lon="-2.47456">
        <ele>73.884784874792</ele>
        <time>2021-05-10T13:06:43Z</time>
      </trkpt>
      <trkpt lat="48.47847" lon="-2.47465">
        <ele>73.412905086809</ele>
        <time>2021-05-10T13:06:49Z</time>
      </trkpt>
      <trkpt lat="48.47841" lon="-2.47473">
        <ele>72.272339916046</ele>
        <time>2021-05-10T13:06:56Z</time>
      </trkpt>
      <trkpt lat="48.47833" lon="-2.47478">
        <ele>74.883075315211</ele>
        <time>2021-05-10T13:07:03Z</time>
      </trkpt>
      <trkpt lat="48.47825" lon="-2.47479">
        <ele>72.710982245612</ele>
        <time>2021-05-10T13:07:10Z</time>
      </trkpt>
      <trkpt lat="48.47817" lon="-2.47486">
        <ele>71.574394168941</ele>
        <time>2021-05-10T13:07:18Z</time>
      </trkpt>
      <trkpt lat="48.47809" lon="-2.47488">
        <ele>72.742694723099</ele>
        <time>2021-05-10T13:07:24Z</time>
      </trkpt>
      <trkpt lat="48.47801" lon="-2.47493">
        <ele>73.428375942853</ele>
        <time>2021-05-10T13:07:37Z</time>
      </trkpt>
      <trkpt lat="48.47793" lon="-2.47498">
        <ele>71.507007027218</ele>
        <time>2021-05-10T13:07:44Z</time>
      </trkpt>
      <trkpt lat="48.47785" lon="-2.47502">
        <ele>69.322513770154</ele>
        <time>2021-05-10T13:07:52Z</time>
      </trkpt>
      <trkpt lat="48.47778" lon="-2.47503">
        <ele>69.411832823012</ele>
        <time>2021-05-10T13:07:58Z</time>
      </trkpt>
      <trkpt lat="48.4777" lon="-2.47507">
        <ele>67.872177363614</ele>
        <time>2021-05-10T13:08:05Z</time>
      </trkpt>
      <trkpt lat="48.47762" lon="-2.47514">
        <ele>69.457634791044</ele>
        <time>2021-05-10T13:08:14Z</time>
      </trkpt>
      <trkpt lat="48.47754" lon="-2.47519">
        <ele>68.875740128936</ele>
        <time>2021-05-10T13:08:21Z</time>
      </trkpt>
      <trkpt lat="48.47745" lon="-2.47524">
        <ele>67.772542263726</ele>
        <time>2021-05-10T13:08:29Z</time>
      </trkpt>
      <trkpt lat="48.47738" lon="-2.47524">
        <ele>71.220145437297</ele>
        <time>2021-05-10T13:09:27Z</time>
      </trkpt>
      <trkpt lat="48.4773" lon="-2.47529">
        <ele>69.680482168584</ele>
        <time>2021-05-10T13:09:35Z</time>
      </trkpt>
      <trkpt lat="48.47723" lon="-2.47535">
        <ele>70.853710798767</ele>
        <time>2021-05-10T13:09:41Z</time>
      </trkpt>
      <trkpt lat="48.47714" lon="-2.47538">
        <ele>70.62118574308</ele>
        <time>2021-05-10T13:09:49Z</time>
      </trkpt>
      <trkpt lat="48.47706" lon="-2.47542">
        <ele>70.995353146071</ele>
        <time>2021-05-10T13:10:09Z</time>
      </trkpt>
      <trkpt lat="48.47697" lon="-2.47539">
        <ele>70.505284353491</ele>
        <time>2021-05-10T13:10:30Z</time>
      </trkpt>
      <trkpt lat="48.47689" lon="-2.4754">
        <ele>70.969304131295</ele>
        <time>2021-05-10T13:10:39Z</time>
      </trkpt>
      <trkpt lat="48.4768" lon="-2.47541">
        <ele>72.720429932946</ele>
        <time>2021-05-10T13:10:47Z</time>
      </trkpt>
      <trkpt lat="48.47672" lon="-2.47543">
        <ele>73.505246395931</ele>
        <time>2021-05-10T13:10:54Z</time>
      </trkpt>
      <trkpt lat="48.47663" lon="-2.47545">
        <ele>73.172448469712</ele>
        <time>2021-05-10T13:11:02Z</time>
      </trkpt>
      <trkpt lat="48.47655" lon="-2.47546">
        <ele>72.731557895024</ele>
        <time>2021-05-10T13:11:10Z</time>
      </trkpt>
      <trkpt lat="48.47648" lon="-2.47554">
        <ele>69.305710930658</ele>
        <time>2021-05-10T13:11:16Z</time>
      </trkpt>
      <trkpt lat="48.47641" lon="-2.47557">
        <ele>75.929509310363</ele>
        <time>2021-05-10T13:11:22Z</time>
      </trkpt>
      <trkpt lat="48.47633" lon="-2.47555">
        <ele>78.373154433512</ele>
        <time>2021-05-10T13:11:28Z</time>
      </trkpt>
      <trkpt lat="48.47625" lon="-2.47557">
        <ele>77.224495858498</ele>
        <time>2021-05-10T13:11:36Z</time>
      </trkpt>
      <trkpt lat="48.47617" lon="-2.47558">
        <ele>77.306857796745</ele>
        <time>2021-05-10T13:11:44Z</time>
      </trkpt>
      <trkpt lat="48.47608" lon="-2.47559">
        <ele>77.862489075597</ele>
        <time>2021-05-10T13:11:51Z</time>
      </trkpt>
      <trkpt lat="48.47601" lon="-2.47559">
        <ele>78.668002684653</ele>
        <time>2021-05-10T13:11:57Z</time>
      </trkpt>
      <trkpt lat="48.47593" lon="-2.47563">
        <ele>77.51604003593</ele>
        <time>2021-05-10T13:12:05Z</time>
      </trkpt>
      <trkpt lat="48.47585" lon="-2.47566">
        <ele>80.521368675642</ele>
        <time>2021-05-10T13:12:11Z</time>
      </trkpt>
      <trkpt lat="48.47578" lon="-2.4757">
        <ele>76.020160235665</ele>
        <time>2021-05-10T13:12:19Z</time>
      </trkpt>
      <trkpt lat="48.4757" lon="-2.47574">
        <ele>78.409154548134</ele>
        <time>2021-05-10T13:12:26Z</time>
      </trkpt>
      <trkpt lat="48.47561" lon="-2.47576">
        <ele>78.654051430749</ele>
        <time>2021-05-10T13:12:32Z</time>
      </trkpt>
      <trkpt lat="48.47553" lon="-2.47578">
        <ele>79.237631494956</ele>
        <time>2021-05-10T13:12:39Z</time>
      </trkpt>
      <trkpt lat="48.47545" lon="-2.4758">
        <ele>79.591657580355</ele>
        <time>2021-05-10T13:12:46Z</time>
      </trkpt>
      <trkpt lat="48.47537" lon="-2.47581">
        <ele>79.867748579545</ele>
        <time>2021-05-10T13:12:53Z</time>
      </trkpt>
      <trkpt lat="48.4753" lon="-2.47582">
        <ele>80.459265201777</ele>
        <time>2021-05-10T13:12:58Z</time>
      </trkpt>
      <trkpt lat="48.47522" lon="-2.47584">
        <ele>78.71654981937</ele>
        <time>2021-05-10T13:13:05Z</time>
      </trkpt>
      <trkpt lat="48.47514" lon="-2.47588">
        <ele>78.29865480305</ele>
        <time>2021-05-10T13:13:12Z</time>
      </trkpt>
      <trkpt lat="48.47507" lon="-2.47593">
        <ele>79.503133471066</ele>
        <time>2021-05-10T13:13:19Z</time>
      </trkpt>
      <trkpt lat="48.47498" lon="-2.47589">
        <ele>79.668221835425</ele>
        <time>2021-05-10T13:13:24Z</time>
      </trkpt>
      <trkpt lat="48.47491" lon="-2.47592">
        <ele>79.256799134373</ele>
        <time>2021-05-10T13:13:31Z</time>
      </trkpt>
      <trkpt lat="48.47484" lon="-2.47599">
        <ele>78.943932113875</ele>
        <time>2021-05-10T13:13:39Z</time>
      </trkpt>
      <trkpt lat="48.47476" lon="-2.47601">
        <ele>77.436321974557</ele>
        <time>2021-05-10T13:13:45Z</time>
      </trkpt>
      <trkpt lat="48.47469" lon="-2.47608">
        <ele>79.514387524891</ele>
        <time>2021-05-10T13:13:54Z</time>
      </trkpt>
      <trkpt lat="48.4746" lon="-2.47608">
        <ele>78.372516121887</ele>
        <time>2021-05-10T13:14:05Z</time>
      </trkpt>
      <trkpt lat="48.47453" lon="-2.47602">
        <ele>83</ele>
      </trkpt>
      <trkpt lat="48.47442" lon="-2.47602">
        <ele>78.86418537678</ele>
        <time>2021-05-10T13:17:17Z</time>
      </trkpt>
      <trkpt lat="48.47434" lon="-2.47596">
        <ele>78.646710266304</ele>
        <time>2021-05-10T13:17:23Z</time>
      </trkpt>
      <trkpt lat="48.47427" lon="-2.4759">
        <ele>81.099949783113</ele>
        <time>2021-05-10T13:17:30Z</time>
      </trkpt>
      <trkpt lat="48.47419" lon="-2.47588">
        <ele>81.942758646104</ele>
        <time>2021-05-10T13:17:37Z</time>
      </trkpt>
      <trkpt lat="48.47414" lon="-2.47597">
        <ele>81.524533528964</ele>
        <time>2021-05-10T13:17:43Z</time>
      </trkpt>
      <trkpt lat="48.47405" lon="-2.47599">
        <ele>83.287433655478</ele>
        <time>2021-05-10T13:17:50Z</time>
      </trkpt>
      <trkpt lat="48.47396" lon="-2.47602">
        <ele>84.679666686407</ele>
        <time>2021-05-10T13:17:57Z</time>
      </trkpt>
      <trkpt lat="48.47388" lon="-2.47603">
        <ele>83.562324895419</ele>
        <time>2021-05-10T13:18:05Z</time>
      </trkpt>
      <trkpt lat="48.4738" lon="-2.47603">
        <ele>83.32578636102</ele>
        <time>2021-05-10T13:18:12Z</time>
      </trkpt>
      <trkpt lat="48.47371" lon="-2.47602">
        <ele>83.549330974189</ele>
        <time>2021-05-10T13:18:19Z</time>
      </trkpt>
      <trkpt lat="48.47363" lon="-2.47605">
        <ele>85.8</ele>
        <time>2021-05-10T13:18:26Z</time>
      </trkpt>
      <trkpt lat="48.47354" lon="-2.47608">
        <ele>86</ele>
        <time>2021-05-10T13:18:33Z</time>
      </trkpt>
      <trkpt lat="48.47347" lon="-2.47611">
        <ele>84.210579294071</ele>
        <time>2021-05-10T13:18:40Z</time>
      </trkpt>
      <trkpt lat="48.47339" lon="-2.47616">
        <ele>84.017717557398</ele>
        <time>2021-05-10T13:18:48Z</time>
      </trkpt>
      <trkpt lat="48.47331" lon="-2.47618">
        <ele>86.272805075955</ele>
        <time>2021-05-10T13:18:55Z</time>
      </trkpt>
      <trkpt lat="48.47323" lon="-2.4762">
        <ele>86.351871650278</ele>
        <time>2021-05-10T13:19:01Z</time>
      </trkpt>
      <trkpt lat="48.47315" lon="-2.47621">
        <ele>85.450037826647</ele>
        <time>2021-05-10T13:19:07Z</time>
      </trkpt>
      <trkpt lat="48.47308" lon="-2.47621">
        <ele>85.178339145059</ele>
        <time>2021-05-10T13:19:13Z</time>
      </trkpt>
      <trkpt lat="48.473" lon="-2.47626">
        <ele>83.697512713529</ele>
        <time>2021-05-10T13:19:20Z</time>
      </trkpt>
      <trkpt lat="48.47293" lon="-2.47635">
        <ele>84.8362927424</ele>
        <time>2021-05-10T13:19:29Z</time>
      </trkpt>
      <trkpt lat="48.47288" lon="-2.47645">
        <ele>82.890651025618</ele>
        <time>2021-05-10T13:19:35Z</time>
      </trkpt>
      <trkpt lat="48.47281" lon="-2.47644">
        <ele>87.427977579805</ele>
        <time>2021-05-10T13:19:42Z</time>
      </trkpt>
      <trkpt lat="48.47273" lon="-2.47649">
        <ele>84.17310198119</ele>
        <time>2021-05-10T13:19:51Z</time>
      </trkpt>
      <trkpt lat="48.47266" lon="-2.47652">
        <ele>85.070088303994</ele>
        <time>2021-05-10T13:19:56Z</time>
      </trkpt>
      <trkpt lat="48.47257" lon="-2.47657">
        <ele>87.706755036596</ele>
        <time>2021-05-10T13:20:01Z</time>
      </trkpt>
      <trkpt lat="48.47249" lon="-2.47658">
        <ele>90.711176407084</ele>
        <time>2021-05-10T13:20:11Z</time>
      </trkpt>
      <trkpt lat="48.4724" lon="-2.4766">
        <ele>89.321733948366</ele>
        <time>2021-05-10T13:20:18Z</time>
      </trkpt>
      <trkpt lat="48.47232" lon="-2.47657">
        <ele>90.88269199689</ele>
        <time>2021-05-10T13:20:24Z</time>
      </trkpt>
      <trkpt lat="48.47224" lon="-2.47659">
        <ele>89.342550881888</ele>
        <time>2021-05-10T13:20:31Z</time>
      </trkpt>
      <trkpt lat="48.47216" lon="-2.47659">
        <ele>87.865527976141</ele>
        <time>2021-05-10T13:20:36Z</time>
      </trkpt>
      <trkpt lat="48.47208" lon="-2.47665">
        <ele>82.901728731393</ele>
        <time>2021-05-10T13:20:46Z</time>
      </trkpt>
      <trkpt lat="48.47201" lon="-2.47668">
        <ele>80.952217748945</ele>
        <time>2021-05-10T13:20:52Z</time>
      </trkpt>
      <trkpt lat="48.47193" lon="-2.47671">
        <ele>83.860315315942</ele>
        <time>2021-05-10T13:20:59Z</time>
      </trkpt>
      <trkpt lat="48.47184" lon="-2.47672">
        <ele>84.066211998473</ele>
        <time>2021-05-10T13:21:04Z</time>
      </trkpt>
      <trkpt lat="48.47176" lon="-2.47673">
        <ele>85.862934242137</ele>
        <time>2021-05-10T13:21:11Z</time>
      </trkpt>
      <trkpt lat="48.47169" lon="-2.47678">
        <ele>87.712667316108</ele>
        <time>2021-05-10T13:21:17Z</time>
      </trkpt>
      <trkpt lat="48.47161" lon="-2.47681">
        <ele>90.167455806791</ele>
        <time>2021-05-10T13:21:22Z</time>
      </trkpt>
      <trkpt lat="48.47153" lon="-2.4768">
        <ele>89.095836788</ele>
        <time>2021-05-10T13:21:29Z</time>
      </trkpt>
      <trkpt lat="48.47145" lon="-2.47686">
        <ele>90.202892930513</ele>
        <time>2021-05-10T13:21:44Z</time>
      </trkpt>
      <trkpt lat="48.47137" lon="-2.47683">
        <ele>90.995416814325</ele>
        <time>2021-05-10T13:21:50Z</time>
      </trkpt>
      <trkpt lat="48.47129" lon="-2.47684">
        <ele>92.572530772176</ele>
        <time>2021-05-10T13:21:54Z</time>
      </trkpt>
      <trkpt lat="48.4712" lon="-2.47683">
        <ele>93.629326528713</ele>
        <time>2021-05-10T13:22:06Z</time>
      </trkpt>
      <trkpt lat="48.47113" lon="-2.47691">
        <ele>88.388841092608</ele>
        <time>2021-05-10T13:22:32Z</time>
      </trkpt>
      <trkpt lat="48.47104" lon="-2.47693">
        <ele>85.901560234826</ele>
        <time>2021-05-10T13:22:38Z</time>
      </trkpt>
      <trkpt lat="48.47096" lon="-2.47691">
        <ele>74.540695835233</ele>
        <time>2021-05-10T13:22:46Z</time>
      </trkpt>
      <trkpt lat="48.47087" lon="-2.47693">
        <ele>81.036021746062</ele>
        <time>2021-05-10T13:22:50Z</time>
      </trkpt>
      <trkpt lat="48.47081" lon="-2.477">
        <ele>83.434019928308</ele>
        <time>2021-05-10T13:23:06Z</time>
      </trkpt>
      <trkpt lat="48.47074" lon="-2.47705">
        <ele>85.869264137933</ele>
        <time>2021-05-10T13:23:12Z</time>
      </trkpt>
      <trkpt lat="48.47065" lon="-2.47711">
        <ele>87.537729317258</ele>
        <time>2021-05-10T13:23:17Z</time>
      </trkpt>
      <trkpt lat="48.47057" lon="-2.4771">
        <ele>87.398598372795</ele>
        <time>2021-05-10T13:23:23Z</time>
      </trkpt>
      <trkpt lat="48.47049" lon="-2.47707">
        <ele>88.950765031751</ele>
        <time>2021-05-10T13:23:28Z</time>
      </trkpt>
      <trkpt lat="48.47041" lon="-2.47708">
        <ele>90.303821406042</ele>
        <time>2021-05-10T13:23:34Z</time>
      </trkpt>
      <trkpt lat="48.47032" lon="-2.47712">
        <ele>92.655273685147</ele>
        <time>2021-05-10T13:23:47Z</time>
      </trkpt>
      <trkpt lat="48.47024" lon="-2.47713">
        <ele>91.866539323385</ele>
        <time>2021-05-10T13:23:53Z</time>
      </trkpt>
      <trkpt lat="48.47016" lon="-2.47712">
        <ele>90.136900088138</ele>
        <time>2021-05-10T13:24:03Z</time>
      </trkpt>
      <trkpt lat="48.4701" lon="-2.47722">
        <ele>93.660435337322</ele>
        <time>2021-05-10T13:24:11Z</time>
      </trkpt>
      <trkpt lat="48.47001" lon="-2.47723">
        <ele>93.17401211975</ele>
        <time>2021-05-10T13:24:17Z</time>
      </trkpt>
      <trkpt lat="48.46993" lon="-2.4772">
        <ele>93.330122751474</ele>
        <time>2021-05-10T13:24:25Z</time>
      </trkpt>
      <trkpt lat="48.46985" lon="-2.47724">
        <ele>92.393549262408</ele>
        <time>2021-05-10T13:24:32Z</time>
      </trkpt>
      <trkpt lat="48.46978" lon="-2.47729">
        <ele>100.12096748155</ele>
        <time>2021-05-10T13:24:39Z</time>
      </trkpt>
      <trkpt lat="48.4697" lon="-2.47728">
        <ele>101.13741840018</ele>
        <time>2021-05-10T13:24:43Z</time>
      </trkpt>
      <trkpt lat="48.46961" lon="-2.47725">
        <ele>100.11433389353</ele>
        <time>2021-05-10T13:24:51Z</time>
      </trkpt>
      <trkpt lat="48.46955" lon="-2.47732">
        <ele>103.38953232857</ele>
        <time>2021-05-10T13:24:59Z</time>
      </trkpt>
      <trkpt lat="48.46943" lon="-2.47731">
        <ele>96.937122514451</ele>
        <time>2021-05-10T13:25:04Z</time>
      </trkpt>
      <trkpt lat="48.46936" lon="-2.47736">
        <ele>98.21617689144</ele>
        <time>2021-05-10T13:25:10Z</time>
      </trkpt>
      <trkpt lat="48.46927" lon="-2.47739">
        <ele>100.51770719957</ele>
        <time>2021-05-10T13:25:17Z</time>
      </trkpt>
      <trkpt lat="48.46919" lon="-2.47738">
        <ele>101.38724591989</ele>
        <time>2021-05-10T13:25:24Z</time>
      </trkpt>
      <trkpt lat="48.46912" lon="-2.47743">
        <ele>99.693771470953</ele>
        <time>2021-05-10T13:25:31Z</time>
      </trkpt>
      <trkpt lat="48.46904" lon="-2.47746">
        <ele>99.45342661198</ele>
        <time>2021-05-10T13:25:41Z</time>
      </trkpt>
      <trkpt lat="48.46894" lon="-2.4775">
        <ele>97.443861167227</ele>
        <time>2021-05-10T13:25:46Z</time>
      </trkpt>
      <trkpt lat="48.46887" lon="-2.47752">
        <ele>98.185937920487</ele>
        <time>2021-05-10T13:25:52Z</time>
      </trkpt>
      <trkpt lat="48.46879" lon="-2.47755">
        <ele>101.35490005675</ele>
        <time>2021-05-10T13:25:59Z</time>
      </trkpt>
      <trkpt lat="48.4687" lon="-2.47756">
        <ele>102.59070423921</ele>
        <time>2021-05-10T13:26:08Z</time>
      </trkpt>
      <trkpt lat="48.46862" lon="-2.47757">
        <ele>101.15591726673</ele>
        <time>2021-05-10T13:26:22Z</time>
      </trkpt>
      <trkpt lat="48.46851" lon="-2.47755">
        <ele>97.512227387789</ele>
        <time>2021-05-10T13:26:27Z</time>
      </trkpt>
      <trkpt lat="48.46844" lon="-2.47759">
        <ele>96.17672418178</ele>
        <time>2021-05-10T13:26:32Z</time>
      </trkpt>
      <trkpt lat="48.46836" lon="-2.47765">
        <ele>98.075282659395</ele>
        <time>2021-05-10T13:26:38Z</time>
      </trkpt>
      <trkpt lat="48.46827" lon="-2.47764">
        <ele>97.800963740554</ele>
        <time>2021-05-10T13:26:47Z</time>
      </trkpt>
      <trkpt lat="48.4682" lon="-2.47771">
        <ele>99.412158145243</ele>
        <time>2021-05-10T13:26:58Z</time>
      </trkpt>
      <trkpt lat="48.46812" lon="-2.4777">
        <ele>96.009176294094</ele>
        <time>2021-05-10T13:27:04Z</time>
      </trkpt>
      <trkpt lat="48.46805" lon="-2.47777">
        <ele>99.053964786755</ele>
        <time>2021-05-10T13:27:10Z</time>
      </trkpt>
      <trkpt lat="48.46798" lon="-2.47781">
        <ele>99.31501461607</ele>
        <time>2021-05-10T13:27:16Z</time>
      </trkpt>
      <trkpt lat="48.46791" lon="-2.47787">
        <ele>102.07807713469</ele>
        <time>2021-05-10T13:27:21Z</time>
      </trkpt>
      <trkpt lat="48.46783" lon="-2.47791">
        <ele>104.34608698576</ele>
        <time>2021-05-10T13:27:26Z</time>
      </trkpt>
      <trkpt lat="48.46775" lon="-2.47796">
        <ele>104.05671970268</ele>
        <time>2021-05-10T13:27:33Z</time>
      </trkpt>
      <trkpt lat="48.46768" lon="-2.47803">
        <ele>103.51148436731</ele>
        <time>2021-05-10T13:27:40Z</time>
      </trkpt>
      <trkpt lat="48.46769" lon="-2.47815">
        <ele>103.84588873144</ele>
        <time>2021-05-10T13:27:56Z</time>
      </trkpt>
      <trkpt lat="48.46771" lon="-2.47828">
        <ele>99.510124506272</ele>
        <time>2021-05-10T13:28:28Z</time>
      </trkpt>
      <trkpt lat="48.46774" lon="-2.47839">
        <ele>97.4860072672</ele>
        <time>2021-05-10T13:28:34Z</time>
      </trkpt>
      <trkpt lat="48.46771" lon="-2.47851">
        <ele>99.674067307942</ele>
        <time>2021-05-10T13:28:42Z</time>
      </trkpt>
      <trkpt lat="48.46774" lon="-2.47861">
        <ele>99.183648881574</ele>
        <time>2021-05-10T13:28:48Z</time>
      </trkpt>
      <trkpt lat="48.4678" lon="-2.47874">
        <ele>102</ele>
        <time>2021-05-10T13:28:52Z</time>
      </trkpt>
      <trkpt lat="48.46782" lon="-2.47887">
        <ele>101.3</ele>
        <time>2021-05-10T13:28:58Z</time>
      </trkpt>
      <trkpt lat="48.46785" lon="-2.47901">
        <ele>100.5</ele>
        <time>2021-05-10T13:29:05Z</time>
      </trkpt>
      <trkpt lat="48.46787" lon="-2.47912">
        <ele>99.9</ele>
        <time>2021-05-10T13:29:10Z</time>
      </trkpt>
      <trkpt lat="48.46788" lon="-2.47921">
        <ele>99.4</ele>
        <time>2021-05-10T13:29:19Z</time>
      </trkpt>
      <trkpt lat="48.46789" lon="-2.47929">
        <ele>99</ele>
        <time>2021-05-10T13:29:24Z</time>
      </trkpt>
      <trkpt lat="48.46791" lon="-2.4794">
        <ele>109.03889656271</ele>
        <time>2021-05-10T13:29:32Z</time>
      </trkpt>
      <trkpt lat="48.46792" lon="-2.47954">
        <ele>97.7</ele>
        <time>2021-05-10T13:29:41Z</time>
      </trkpt>
      <trkpt lat="48.46792" lon="-2.47964">
        <ele>97.2</ele>
        <time>2021-05-10T13:29:46Z</time>
      </trkpt>
      <trkpt lat="48.46792" lon="-2.4797">
        <ele>107.41380126962</ele>
        <time>2021-05-10T13:29:51Z</time>
      </trkpt>
      <trkpt lat="48.46797" lon="-2.47984">
        <ele>110.03535479868</ele>
        <time>2021-05-10T13:29:56Z</time>
      </trkpt>
      <trkpt lat="48.46801" lon="-2.47995">
        <ele>107.6334930777</ele>
        <time>2021-05-10T13:30:01Z</time>
      </trkpt>
      <trkpt lat="48.46804" lon="-2.48007">
        <ele>106.01080239032</ele>
        <time>2021-05-10T13:30:09Z</time>
      </trkpt>
      <trkpt lat="48.46806" lon="-2.48021">
        <ele>95.1</ele>
        <time>2021-05-10T13:30:15Z</time>
      </trkpt>
      <trkpt lat="48.46808" lon="-2.4803">
        <ele>95.1</ele>
        <time>2021-05-10T13:30:20Z</time>
      </trkpt>
      <trkpt lat="48.46811" lon="-2.48041">
        <ele>95</ele>
        <time>2021-05-10T13:30:26Z</time>
      </trkpt>
      <trkpt lat="48.46815" lon="-2.4805">
        <ele>99.387193816759</ele>
        <time>2021-05-10T13:30:36Z</time>
      </trkpt>
      <trkpt lat="48.46817" lon="-2.48064">
        <ele>95.1</ele>
        <time>2021-05-10T13:30:46Z</time>
      </trkpt>
      <trkpt lat="48.46817" lon="-2.48073">
        <ele>95.1</ele>
        <time>2021-05-10T13:30:51Z</time>
      </trkpt>
      <trkpt lat="48.46819" lon="-2.48083">
        <ele>95.2</ele>
        <time>2021-05-10T13:30:56Z</time>
      </trkpt>
      <trkpt lat="48.46821" lon="-2.48092">
        <ele>94.9</ele>
        <time>2021-05-10T13:31:00Z</time>
      </trkpt>
      <trkpt lat="48.46823" lon="-2.48106">
        <ele>99.964342998356</ele>
        <time>2021-05-10T13:31:05Z</time>
      </trkpt>
      <trkpt lat="48.46826" lon="-2.48118">
        <ele>100.691808486</ele>
        <time>2021-05-10T13:31:18Z</time>
      </trkpt>
      <trkpt lat="48.46828" lon="-2.48132">
        <ele>102.08724080106</ele>
        <time>2021-05-10T13:31:23Z</time>
      </trkpt>
      <trkpt lat="48.46829" lon="-2.48145">
        <ele>93.6</ele>
        <time>2021-05-10T13:31:30Z</time>
      </trkpt>
      <trkpt lat="48.46833" lon="-2.48162">
        <ele>93.1</ele>
        <time>2021-05-10T13:31:35Z</time>
      </trkpt>
      <trkpt lat="48.46835" lon="-2.48173">
        <ele>93</ele>
        <time>2021-05-10T13:31:40Z</time>
      </trkpt>
      <trkpt lat="48.46837" lon="-2.48185">
        <ele>93</ele>
        <time>2021-05-10T13:31:45Z</time>
      </trkpt>
      <trkpt lat="48.4684" lon="-2.48195">
        <ele>92.9</ele>
        <time>2021-05-10T13:31:50Z</time>
      </trkpt>
      <trkpt lat="48.46842" lon="-2.48204">
        <ele>92.9</ele>
        <time>2021-05-10T13:31:57Z</time>
      </trkpt>
      <trkpt lat="48.46843" lon="-2.48215">
        <ele>93</ele>
        <time>2021-05-10T13:32:05Z</time>
      </trkpt>
      <trkpt lat="48.46846" lon="-2.48227">
        <ele>99.791112000402</ele>
        <time>2021-05-10T13:32:10Z</time>
      </trkpt>
      <trkpt lat="48.46849" lon="-2.48239">
        <ele>93</ele>
        <time>2021-05-10T13:32:19Z</time>
      </trkpt>
      <trkpt lat="48.46851" lon="-2.4825">
        <ele>93</ele>
        <time>2021-05-10T13:32:26Z</time>
      </trkpt>
      <trkpt lat="48.46849" lon="-2.48263">
        <ele>98.499113305515</ele>
        <time>2021-05-10T13:32:35Z</time>
      </trkpt>
      <trkpt lat="48.46851" lon="-2.48275">
        <ele>98.646386616327</ele>
        <time>2021-05-10T13:32:39Z</time>
      </trkpt>
      <trkpt lat="48.46855" lon="-2.48286">
        <ele>92.6</ele>
        <time>2021-05-10T13:32:45Z</time>
      </trkpt>
      <trkpt lat="48.46857" lon="-2.48297">
        <ele>94.142598628412</ele>
        <time>2021-05-10T13:32:49Z</time>
      </trkpt>
      <trkpt lat="48.46859" lon="-2.48309">
        <ele>92.3</ele>
        <time>2021-05-10T13:33:03Z</time>
      </trkpt>
      <trkpt lat="48.46861" lon="-2.48318">
        <ele>93.479519205104</ele>
        <time>2021-05-10T13:33:08Z</time>
      </trkpt>
      <trkpt lat="48.46865" lon="-2.48329">
        <ele>92.655659930714</ele>
        <time>2021-05-10T13:33:15Z</time>
      </trkpt>
      <trkpt lat="48.46861" lon="-2.48339">
        <ele>94.538065629574</ele>
        <time>2021-05-10T13:33:20Z</time>
      </trkpt>
      <trkpt lat="48.46866" lon="-2.48349">
        <ele>91.010783037385</ele>
        <time>2021-05-10T13:33:25Z</time>
      </trkpt>
      <trkpt lat="48.46866" lon="-2.48362">
        <ele>95.134861499279</ele>
        <time>2021-05-10T13:33:31Z</time>
      </trkpt>
      <trkpt lat="48.46866" lon="-2.48369">
        <ele>90.1</ele>
        <time>2021-05-10T13:33:44Z</time>
      </trkpt>
      <trkpt lat="48.46865" lon="-2.48373">
        <ele>89.8</ele>
        <time>2021-05-10T13:34:02Z</time>
      </trkpt>
      <trkpt lat="48.46865" lon="-2.48378">
        <ele>89.6</ele>
        <time>2021-05-10T13:34:58Z</time>
      </trkpt>
      <trkpt lat="48.46865" lon="-2.48391">
        <ele>88.9</ele>
        <time>2021-05-10T13:35:10Z</time>
      </trkpt>
      <trkpt lat="48.46866" lon="-2.48399">
        <ele>88.4</ele>
        <time>2021-05-10T13:35:19Z</time>
      </trkpt>
      <trkpt lat="48.46864" lon="-2.48405">
        <ele>88.1</ele>
        <time>2021-05-10T13:35:24Z</time>
      </trkpt>
      <trkpt lat="48.46864" lon="-2.48413">
        <ele>93.318206215918</ele>
        <time>2021-05-10T13:35:30Z</time>
      </trkpt>
      <trkpt lat="48.46866" lon="-2.48424">
        <ele>89.084686778362</ele>
        <time>2021-05-10T13:35:37Z</time>
      </trkpt>
      <trkpt lat="48.46864" lon="-2.48435">
        <ele>84.036597763531</ele>
        <time>2021-05-10T13:35:41Z</time>
      </trkpt>
      <trkpt lat="48.46862" lon="-2.48447">
        <ele>84.454024892058</ele>
        <time>2021-05-10T13:35:47Z</time>
      </trkpt>
      <trkpt lat="48.46859" lon="-2.48458">
        <ele>85.27288882575</ele>
        <time>2021-05-10T13:35:52Z</time>
      </trkpt>
      <trkpt lat="48.46858" lon="-2.48471">
        <ele>82.92144492707</ele>
        <time>2021-05-10T13:35:59Z</time>
      </trkpt>
      <trkpt lat="48.46861" lon="-2.48482">
        <ele>81.030694941281</ele>
        <time>2021-05-10T13:36:09Z</time>
      </trkpt>
      <trkpt lat="48.4686" lon="-2.48493">
        <ele>84.7</ele>
        <time>2021-05-10T13:36:16Z</time>
      </trkpt>
      <trkpt lat="48.46858" lon="-2.48503">
        <ele>84.3</ele>
        <time>2021-05-10T13:36:23Z</time>
      </trkpt>
      <trkpt lat="48.46855" lon="-2.48512">
        <ele>83.9</ele>
        <time>2021-05-10T13:36:32Z</time>
      </trkpt>
      <trkpt lat="48.46851" lon="-2.48521">
        <ele>77.781807031302</ele>
        <time>2021-05-10T13:36:38Z</time>
      </trkpt>
      <trkpt lat="48.46845" lon="-2.4853">
        <ele>79.236055798868</ele>
        <time>2021-05-10T13:36:47Z</time>
      </trkpt>
      <trkpt lat="48.46838" lon="-2.48535">
        <ele>78.155176122238</ele>
        <time>2021-05-10T13:36:54Z</time>
      </trkpt>
      <trkpt lat="48.46828" lon="-2.48552">
        <ele>82.4</ele>
        <time>2021-05-10T13:37:04Z</time>
      </trkpt>
      <trkpt lat="48.4684" lon="-2.48556">
        <ele>81.6</ele>
        <time>2021-05-10T13:37:12Z</time>
      </trkpt>
      <trkpt lat="48.46847" lon="-2.48562">
        <ele>79.824209975928</ele>
        <time>2021-05-10T13:37:20Z</time>
      </trkpt>
      <trkpt lat="48.46855" lon="-2.48567">
        <ele>77.282299207102</ele>
        <time>2021-05-10T13:37:26Z</time>
      </trkpt>
      <trkpt lat="48.46863" lon="-2.48572">
        <ele>79.4</ele>
        <time>2021-05-10T13:37:34Z</time>
      </trkpt>
      <trkpt lat="48.46869" lon="-2.48579">
        <ele>75.401405202743</ele>
        <time>2021-05-10T13:37:42Z</time>
      </trkpt>
      <trkpt lat="48.46877" lon="-2.48584">
        <ele>76.011590384717</ele>
        <time>2021-05-10T13:37:50Z</time>
      </trkpt>
      <trkpt lat="48.46886" lon="-2.48588">
        <ele>73.607377943453</ele>
        <time>2021-05-10T13:37:57Z</time>
      </trkpt>
      <trkpt lat="48.46893" lon="-2.48595">
        <ele>73.858914025293</ele>
        <time>2021-05-10T13:38:04Z</time>
      </trkpt>
      <trkpt lat="48.46901" lon="-2.48597">
        <ele>73.982239254523</ele>
        <time>2021-05-10T13:38:11Z</time>
      </trkpt>
      <trkpt lat="48.46907" lon="-2.48603">
        <ele>75.303603229194</ele>
        <time>2021-05-10T13:38:16Z</time>
      </trkpt>
      <trkpt lat="48.46914" lon="-2.48607">
        <ele>73.902385934036</ele>
        <time>2021-05-10T13:38:23Z</time>
      </trkpt>
      <trkpt lat="48.46923" lon="-2.48609">
        <ele>73.184035303679</ele>
        <time>2021-05-10T13:38:28Z</time>
      </trkpt>
      <trkpt lat="48.46931" lon="-2.48615">
        <ele>72.908414957269</ele>
        <time>2021-05-10T13:38:35Z</time>
      </trkpt>
      <trkpt lat="48.46939" lon="-2.4862">
        <ele>72.745526523633</ele>
        <time>2021-05-10T13:38:41Z</time>
      </trkpt>
      <trkpt lat="48.46947" lon="-2.48625">
        <ele>68.536562102373</ele>
        <time>2021-05-10T13:38:49Z</time>
      </trkpt>
      <trkpt lat="48.46955" lon="-2.48631">
        <ele>71.308733888761</ele>
        <time>2021-05-10T13:38:55Z</time>
      </trkpt>
      <trkpt lat="48.46963" lon="-2.48635">
        <ele>71.598005027466</ele>
        <time>2021-05-10T13:39:04Z</time>
      </trkpt>
      <trkpt lat="48.4697" lon="-2.48639">
        <ele>70.78302638179</ele>
        <time>2021-05-10T13:39:10Z</time>
      </trkpt>
      <trkpt lat="48.46978" lon="-2.48645">
        <ele>71.881062466691</ele>
        <time>2021-05-10T13:39:17Z</time>
      </trkpt>
      <trkpt lat="48.46987" lon="-2.48647">
        <ele>70.416434125212</ele>
        <time>2021-05-10T13:39:24Z</time>
      </trkpt>
      <trkpt lat="48.46994" lon="-2.48653">
        <ele>72.506050536946</ele>
        <time>2021-05-10T13:39:30Z</time>
      </trkpt>
      <trkpt lat="48.47002" lon="-2.48657">
        <ele>72.997406847412</ele>
        <time>2021-05-10T13:39:37Z</time>
      </trkpt>
      <trkpt lat="48.47011" lon="-2.4866">
        <ele>71.9</ele>
        <time>2021-05-10T13:39:48Z</time>
      </trkpt>
      <trkpt lat="48.47016" lon="-2.48665">
        <ele>71.5</ele>
        <time>2021-05-10T13:39:55Z</time>
      </trkpt>
      <trkpt lat="48.47024" lon="-2.48666">
        <ele>66.824407117251</ele>
        <time>2021-05-10T13:40:04Z</time>
      </trkpt>
      <trkpt lat="48.47033" lon="-2.48666">
        <ele>68.546616969034</ele>
        <time>2021-05-10T13:40:10Z</time>
      </trkpt>
      <trkpt lat="48.47041" lon="-2.48665">
        <ele>67.312227384517</ele>
        <time>2021-05-10T13:40:18Z</time>
      </trkpt>
      <trkpt lat="48.47048" lon="-2.48657">
        <ele>70.7</ele>
        <time>2021-05-10T13:40:23Z</time>
      </trkpt>
      <trkpt lat="48.47056" lon="-2.48657">
        <ele>70.4</ele>
        <time>2021-05-10T13:40:29Z</time>
      </trkpt>
      <trkpt lat="48.47062" lon="-2.48662">
        <ele>70</ele>
        <time>2021-05-10T13:43:51Z</time>
      </trkpt>
      <trkpt lat="48.47067" lon="-2.48672">
        <ele>67.287603657266</ele>
        <time>2021-05-10T13:44:00Z</time>
      </trkpt>
      <trkpt lat="48.47069" lon="-2.48685">
        <ele>64.227845024923</ele>
        <time>2021-05-10T13:44:09Z</time>
      </trkpt>
      <trkpt lat="48.47072" lon="-2.48698">
        <ele>64.626216498077</ele>
        <time>2021-05-10T13:44:16Z</time>
      </trkpt>
      <trkpt lat="48.47076" lon="-2.4871">
        <ele>64.788933904063</ele>
        <time>2021-05-10T13:44:25Z</time>
      </trkpt>
      <trkpt lat="48.4708" lon="-2.4872">
        <ele>62.607542936198</ele>
        <time>2021-05-10T13:44:34Z</time>
      </trkpt>
      <trkpt lat="48.47085" lon="-2.4873">
        <ele>67.901921603392</ele>
        <time>2021-05-10T13:44:40Z</time>
      </trkpt>
      <trkpt lat="48.47089" lon="-2.48741">
        <ele>64.366765044039</ele>
        <time>2021-05-10T13:44:46Z</time>
      </trkpt>
      <trkpt lat="48.4709" lon="-2.48754">
        <ele>64.537540510057</ele>
        <time>2021-05-10T13:44:52Z</time>
      </trkpt>
      <trkpt lat="48.47092" lon="-2.48766">
        <ele>61.41931357997</ele>
        <time>2021-05-10T13:45:00Z</time>
      </trkpt>
      <trkpt lat="48.47093" lon="-2.48775">
        <ele>65.1</ele>
        <time>2021-05-10T13:45:05Z</time>
      </trkpt>
      <trkpt lat="48.47097" lon="-2.48783">
        <ele>64.8</ele>
        <time>2021-05-10T13:45:10Z</time>
      </trkpt>
      <trkpt lat="48.47101" lon="-2.48797">
        <ele>62.614222142513</ele>
        <time>2021-05-10T13:45:17Z</time>
      </trkpt>
      <trkpt lat="48.47105" lon="-2.48808">
        <ele>63.418671180284</ele>
        <time>2021-05-10T13:45:26Z</time>
      </trkpt>
      <trkpt lat="48.47109" lon="-2.48818">
        <ele>63.7</ele>
        <time>2021-05-10T13:45:31Z</time>
      </trkpt>
      <trkpt lat="48.47116" lon="-2.48824">
        <ele>64.469598286802</ele>
        <time>2021-05-10T13:45:41Z</time>
      </trkpt>
      <trkpt lat="48.47123" lon="-2.48829">
        <ele>64.318500190852</ele>
        <time>2021-05-10T13:45:47Z</time>
      </trkpt>
      <trkpt lat="48.47129" lon="-2.48836">
        <ele>65.92990940105</ele>
        <time>2021-05-10T13:45:53Z</time>
      </trkpt>
      <trkpt lat="48.47135" lon="-2.48844">
        <ele>63.415760858823</ele>
        <time>2021-05-10T13:45:58Z</time>
      </trkpt>
      <trkpt lat="48.47143" lon="-2.48851">
        <ele>62.417117622255</ele>
        <time>2021-05-10T13:46:04Z</time>
      </trkpt>
      <trkpt lat="48.47149" lon="-2.4886">
        <ele>63.052503567639</ele>
        <time>2021-05-10T13:46:09Z</time>
      </trkpt>
      <trkpt lat="48.47155" lon="-2.48868">
        <ele>63.282679015183</ele>
        <time>2021-05-10T13:46:15Z</time>
      </trkpt>
      <trkpt lat="48.47161" lon="-2.48875">
        <ele>63.763287167114</ele>
        <time>2021-05-10T13:46:20Z</time>
      </trkpt>
      <trkpt lat="48.47168" lon="-2.48883">
        <ele>63.024228637327</ele>
        <time>2021-05-10T13:46:27Z</time>
      </trkpt>
      <trkpt lat="48.47174" lon="-2.48891">
        <ele>65.847238528104</ele>
        <time>2021-05-10T13:46:35Z</time>
      </trkpt>
      <trkpt lat="48.4718" lon="-2.48898">
        <ele>63.525235294361</ele>
        <time>2021-05-10T13:46:40Z</time>
      </trkpt>
      <trkpt lat="48.47188" lon="-2.48904">
        <ele>64.404466761432</ele>
        <time>2021-05-10T13:46:48Z</time>
      </trkpt>
      <trkpt lat="48.47195" lon="-2.48912">
        <ele>64.014770624321</ele>
        <time>2021-05-10T13:46:57Z</time>
      </trkpt>
      <trkpt lat="48.47201" lon="-2.48919">
        <ele>62.883380205549</ele>
        <time>2021-05-10T13:47:03Z</time>
      </trkpt>
      <trkpt lat="48.47208" lon="-2.48927">
        <ele>64.289217431458</ele>
        <time>2021-05-10T13:47:09Z</time>
      </trkpt>
      <trkpt lat="48.47215" lon="-2.48931">
        <ele>63.530458440676</ele>
        <time>2021-05-10T13:47:17Z</time>
      </trkpt>
      <trkpt lat="48.47223" lon="-2.48937">
        <ele>62.825035788555</ele>
        <time>2021-05-10T13:47:23Z</time>
      </trkpt>
      <trkpt lat="48.47224" lon="-2.48949">
        <ele>54.573637075801</ele>
        <time>2021-05-10T13:47:31Z</time>
      </trkpt>
      <trkpt lat="48.47222" lon="-2.4896">
        <ele>54.734601685098</ele>
        <time>2021-05-10T13:47:37Z</time>
      </trkpt>
      <trkpt lat="48.47218" lon="-2.48971">
        <ele>55.926091708106</ele>
        <time>2021-05-10T13:47:45Z</time>
      </trkpt>
      <trkpt lat="48.47212" lon="-2.48979">
        <ele>55.816138522464</ele>
        <time>2021-05-10T13:47:51Z</time>
      </trkpt>
      <trkpt lat="48.47206" lon="-2.48988">
        <ele>56.22974415234</ele>
        <time>2021-05-10T13:47:58Z</time>
      </trkpt>
      <trkpt lat="48.47201" lon="-2.48999">
        <ele>56.370205502768</ele>
        <time>2021-05-10T13:48:04Z</time>
      </trkpt>
      <trkpt lat="48.47194" lon="-2.49006">
        <ele>54.029122816369</ele>
        <time>2021-05-10T13:48:10Z</time>
      </trkpt>
      <trkpt lat="48.47187" lon="-2.49015">
        <ele>53.084876106123</ele>
        <time>2021-05-10T13:48:18Z</time>
      </trkpt>
      <trkpt lat="48.47181" lon="-2.49024">
        <ele>53.576361456212</ele>
        <time>2021-05-10T13:48:24Z</time>
      </trkpt>
      <trkpt lat="48.47174" lon="-2.4903">
        <ele>55.602531541512</ele>
        <time>2021-05-10T13:48:30Z</time>
      </trkpt>
      <trkpt lat="48.47167" lon="-2.49037">
        <ele>54.80392452826</ele>
        <time>2021-05-10T13:48:35Z</time>
      </trkpt>
      <trkpt lat="48.4716" lon="-2.49046">
        <ele>54.993105739669</ele>
        <time>2021-05-10T13:48:45Z</time>
      </trkpt>
      <trkpt lat="48.47154" lon="-2.49055">
        <ele>55.143341466763</ele>
        <time>2021-05-10T13:48:53Z</time>
      </trkpt>
      <trkpt lat="48.47149" lon="-2.49064">
        <ele>54.624081521694</ele>
        <time>2021-05-10T13:48:58Z</time>
      </trkpt>
      <trkpt lat="48.47143" lon="-2.4907">
        <ele>54.831947755268</ele>
        <time>2021-05-10T13:49:03Z</time>
      </trkpt>
      <trkpt lat="48.47136" lon="-2.49079">
        <ele>55.21448499083</ele>
        <time>2021-05-10T13:49:11Z</time>
      </trkpt>
      <trkpt lat="48.47129" lon="-2.49087">
        <ele>53.140972871945</ele>
        <time>2021-05-10T13:49:17Z</time>
      </trkpt>
      <trkpt lat="48.47123" lon="-2.49093">
        <ele>54.352502896035</ele>
        <time>2021-05-10T13:49:23Z</time>
      </trkpt>
      <trkpt lat="48.47116" lon="-2.49101">
        <ele>54.722166731701</ele>
        <time>2021-05-10T13:49:29Z</time>
      </trkpt>
      <trkpt lat="48.4711" lon="-2.49108">
        <ele>54.685644800563</ele>
        <time>2021-05-10T13:49:36Z</time>
      </trkpt>
      <trkpt lat="48.47103" lon="-2.49115">
        <ele>55.175488636546</ele>
        <time>2021-05-10T13:49:43Z</time>
      </trkpt>
      <trkpt lat="48.47096" lon="-2.49124">
        <ele>54.20865981289</ele>
        <time>2021-05-10T13:49:50Z</time>
      </trkpt>
      <trkpt lat="48.47089" lon="-2.49131">
        <ele>54.820090299952</ele>
        <time>2021-05-10T13:49:57Z</time>
      </trkpt>
      <trkpt lat="48.47081" lon="-2.49137">
        <ele>54.442566486484</ele>
        <time>2021-05-10T13:50:04Z</time>
      </trkpt>
      <trkpt lat="48.47075" lon="-2.49145">
        <ele>55.973483239341</ele>
        <time>2021-05-10T13:50:11Z</time>
      </trkpt>
      <trkpt lat="48.47069" lon="-2.49154">
        <ele>55.132265455942</ele>
        <time>2021-05-10T13:50:18Z</time>
      </trkpt>
      <trkpt lat="48.47062" lon="-2.4916">
        <ele>55.006937081062</ele>
        <time>2021-05-10T13:50:23Z</time>
      </trkpt>
      <trkpt lat="48.47056" lon="-2.49169">
        <ele>55.628427786172</ele>
        <time>2021-05-10T13:50:30Z</time>
      </trkpt>
      <trkpt lat="48.4705" lon="-2.49179">
        <ele>53.166840562589</ele>
        <time>2021-05-10T13:50:37Z</time>
      </trkpt>
      <trkpt lat="48.47043" lon="-2.49185">
        <ele>54.583995725293</ele>
        <time>2021-05-10T13:50:43Z</time>
      </trkpt>
      <trkpt lat="48.47036" lon="-2.49191">
        <ele>55.692495059522</ele>
        <time>2021-05-10T13:50:49Z</time>
      </trkpt>
      <trkpt lat="48.47031" lon="-2.49199">
        <ele>55.780234399232</ele>
        <time>2021-05-10T13:50:55Z</time>
      </trkpt>
      <trkpt lat="48.47024" lon="-2.49204">
        <ele>56.290227326462</ele>
        <time>2021-05-10T13:51:02Z</time>
      </trkpt>
      <trkpt lat="48.47017" lon="-2.49214">
        <ele>56.137600020346</ele>
        <time>2021-05-10T13:51:09Z</time>
      </trkpt>
      <trkpt lat="48.47009" lon="-2.4922">
        <ele>55.924872890715</ele>
        <time>2021-05-10T13:51:17Z</time>
      </trkpt>
      <trkpt lat="48.47004" lon="-2.49229">
        <ele>54.917270820522</ele>
        <time>2021-05-10T13:51:24Z</time>
      </trkpt>
      <trkpt lat="48.46998" lon="-2.49237">
        <ele>54.659610742955</ele>
        <time>2021-05-10T13:51:30Z</time>
      </trkpt>
      <trkpt lat="48.46992" lon="-2.49243">
        <ele>55.32206161348</ele>
        <time>2021-05-10T13:51:35Z</time>
      </trkpt>
      <trkpt lat="48.46986" lon="-2.49249">
        <ele>54.143512331124</ele>
        <time>2021-05-10T13:51:41Z</time>
      </trkpt>
      <trkpt lat="48.46979" lon="-2.49258">
        <ele>53.354907085518</ele>
        <time>2021-05-10T13:51:47Z</time>
      </trkpt>
      <trkpt lat="48.46972" lon="-2.49266">
        <ele>52.325821200569</ele>
        <time>2021-05-10T13:51:55Z</time>
      </trkpt>
      <trkpt lat="48.46966" lon="-2.49276">
        <ele>52.450782048576</ele>
        <time>2021-05-10T13:52:03Z</time>
      </trkpt>
      <trkpt lat="48.4696" lon="-2.49282">
        <ele>51.468155125775</ele>
        <time>2021-05-10T13:52:09Z</time>
      </trkpt>
      <trkpt lat="48.46954" lon="-2.49288">
        <ele>52.786123781524</ele>
        <time>2021-05-10T13:52:16Z</time>
      </trkpt>
      <trkpt lat="48.46948" lon="-2.49297">
        <ele>49.318434642613</ele>
        <time>2021-05-10T13:52:21Z</time>
      </trkpt>
      <trkpt lat="48.46943" lon="-2.49307">
        <ele>48.037570706896</ele>
        <time>2021-05-10T13:52:28Z</time>
      </trkpt>
      <trkpt lat="48.46935" lon="-2.49312">
        <ele>46.730851660125</ele>
        <time>2021-05-10T13:52:34Z</time>
      </trkpt>
      <trkpt lat="48.46928" lon="-2.49318">
        <ele>45.073420474922</ele>
        <time>2021-05-10T13:52:43Z</time>
      </trkpt>
      <trkpt lat="48.46923" lon="-2.49327">
        <ele>44.807023660369</ele>
        <time>2021-05-10T13:52:49Z</time>
      </trkpt>
      <trkpt lat="48.46916" lon="-2.49336">
        <ele>46.714397182539</ele>
        <time>2021-05-10T13:52:59Z</time>
      </trkpt>
      <trkpt lat="48.46909" lon="-2.49342">
        <ele>45.992270447492</ele>
        <time>2021-05-10T13:53:04Z</time>
      </trkpt>
      <trkpt lat="48.469" lon="-2.49345">
        <ele>46.448927496871</ele>
        <time>2021-05-10T13:53:11Z</time>
      </trkpt>
      <trkpt lat="48.46895" lon="-2.49353">
        <ele>46.831280923355</ele>
        <time>2021-05-10T13:53:16Z</time>
      </trkpt>
      <trkpt lat="48.4689" lon="-2.49362">
        <ele>47.183531780298</ele>
        <time>2021-05-10T13:53:23Z</time>
      </trkpt>
      <trkpt lat="48.46883" lon="-2.49369">
        <ele>47.347750122041</ele>
        <time>2021-05-10T13:53:29Z</time>
      </trkpt>
      <trkpt lat="48.46875" lon="-2.49371">
        <ele>46.829560624178</ele>
        <time>2021-05-10T13:53:42Z</time>
      </trkpt>
      <trkpt lat="48.4687" lon="-2.49381">
        <ele>42.003222251151</ele>
        <time>2021-05-10T13:53:48Z</time>
      </trkpt>
      <trkpt lat="48.46865" lon="-2.49388">
        <ele>40.400528945983</ele>
        <time>2021-05-10T13:53:53Z</time>
      </trkpt>
      <trkpt lat="48.46863" lon="-2.494">
        <ele>38.843708075825</ele>
        <time>2021-05-10T13:54:00Z</time>
      </trkpt>
      <trkpt lat="48.4686" lon="-2.49413">
        <ele>42.504416709719</ele>
        <time>2021-05-10T13:54:05Z</time>
      </trkpt>
      <trkpt lat="48.46867" lon="-2.49418">
        <ele>44.754629295272</ele>
        <time>2021-05-10T13:54:13Z</time>
      </trkpt>
      <trkpt lat="48.46875" lon="-2.49423">
        <ele>45.942341153692</ele>
        <time>2021-05-10T13:54:18Z</time>
      </trkpt>
      <trkpt lat="48.4688" lon="-2.49433">
        <ele>47.911277010955</ele>
        <time>2021-05-10T13:54:24Z</time>
      </trkpt>
      <trkpt lat="48.46885" lon="-2.49441">
        <ele>49.244239797381</ele>
        <time>2021-05-10T13:54:29Z</time>
      </trkpt>
      <trkpt lat="48.4689" lon="-2.49452">
        <ele>51.186442295016</ele>
        <time>2021-05-10T13:54:35Z</time>
      </trkpt>
      <trkpt lat="48.46893" lon="-2.49464">
        <ele>49.234904062237</ele>
        <time>2021-05-10T13:54:41Z</time>
      </trkpt>
      <trkpt lat="48.46895" lon="-2.49477">
        <ele>46.323949218353</ele>
        <time>2021-05-10T13:54:48Z</time>
      </trkpt>
      <trkpt lat="48.46901" lon="-2.49487">
        <ele>47.652873185717</ele>
        <time>2021-05-10T13:54:58Z</time>
      </trkpt>
      <trkpt lat="48.46905" lon="-2.49498">
        <ele>46.391403537824</ele>
        <time>2021-05-10T13:55:05Z</time>
      </trkpt>
      <trkpt lat="48.46908" lon="-2.4951">
        <ele>46.553388072075</ele>
        <time>2021-05-10T13:55:11Z</time>
      </trkpt>
      <trkpt lat="48.46915" lon="-2.49519">
        <ele>48.25756102478</ele>
        <time>2021-05-10T13:55:17Z</time>
      </trkpt>
      <trkpt lat="48.46923" lon="-2.49523">
        <ele>45.11587589441</ele>
        <time>2021-05-10T13:55:22Z</time>
      </trkpt>
      <trkpt lat="48.46929" lon="-2.49516">
        <ele>39.598203894885</ele>
        <time>2021-05-10T13:55:29Z</time>
      </trkpt>
      <trkpt lat="48.46934" lon="-2.49506">
        <ele>40.474713681746</ele>
        <time>2021-05-10T13:55:34Z</time>
      </trkpt>
      <trkpt lat="48.4694" lon="-2.49497">
        <ele>42.780174425938</ele>
        <time>2021-05-10T13:55:40Z</time>
      </trkpt>
      <trkpt lat="48.46946" lon="-2.49489">
        <ele>42.4975553727</ele>
        <time>2021-05-10T13:55:54Z</time>
      </trkpt>
      <trkpt lat="48.46952" lon="-2.49481">
        <ele>43.102626636831</ele>
        <time>2021-05-10T13:56:01Z</time>
      </trkpt>
      <trkpt lat="48.4696" lon="-2.49476">
        <ele>46.582443712066</ele>
        <time>2021-05-10T13:56:08Z</time>
      </trkpt>
      <trkpt lat="48.46968" lon="-2.49474">
        <ele>47.617419122584</ele>
        <time>2021-05-10T13:56:13Z</time>
      </trkpt>
      <trkpt lat="48.46977" lon="-2.49472">
        <ele>48.290638470628</ele>
        <time>2021-05-10T13:56:20Z</time>
      </trkpt>
      <trkpt lat="48.46985" lon="-2.49473">
        <ele>48.154643528018</ele>
        <time>2021-05-10T13:56:26Z</time>
      </trkpt>
      <trkpt lat="48.46994" lon="-2.49476">
        <ele>46.814106534521</ele>
        <time>2021-05-10T13:56:34Z</time>
      </trkpt>
      <trkpt lat="48.47002" lon="-2.4948">
        <ele>47.851857871845</ele>
        <time>2021-05-10T13:56:40Z</time>
      </trkpt>
      <trkpt lat="48.47009" lon="-2.49485">
        <ele>47.168418463628</ele>
        <time>2021-05-10T13:56:48Z</time>
      </trkpt>
      <trkpt lat="48.47015" lon="-2.49492">
        <ele>48.219589815932</ele>
        <time>2021-05-10T13:56:53Z</time>
      </trkpt>
      <trkpt lat="48.47023" lon="-2.49493">
        <ele>41.851351960806</ele>
        <time>2021-05-10T13:57:02Z</time>
      </trkpt>
      <trkpt lat="48.4703" lon="-2.49501">
        <ele>44.919973600631</ele>
        <time>2021-05-10T13:57:08Z</time>
      </trkpt>
      <trkpt lat="48.47037" lon="-2.49508">
        <ele>45.35096714188</ele>
        <time>2021-05-10T13:57:14Z</time>
      </trkpt>
      <trkpt lat="48.47044" lon="-2.49513">
        <ele>45.479291855778</ele>
        <time>2021-05-10T13:57:20Z</time>
      </trkpt>
      <trkpt lat="48.4705" lon="-2.49524">
        <ele>45.272450711472</ele>
        <time>2021-05-10T13:57:28Z</time>
      </trkpt>
      <trkpt lat="48.47057" lon="-2.4953">
        <ele>42.718644308208</ele>
        <time>2021-05-10T13:57:35Z</time>
      </trkpt>
      <trkpt lat="48.47066" lon="-2.49534">
        <ele>45.341545405862</ele>
        <time>2021-05-10T13:57:46Z</time>
      </trkpt>
      <trkpt lat="48.47072" lon="-2.49543">
        <ele>47.688239071771</ele>
        <time>2021-05-10T13:57:53Z</time>
      </trkpt>
      <trkpt lat="48.47072" lon="-2.49555">
        <ele>49.582468558107</ele>
        <time>2021-05-10T13:57:59Z</time>
      </trkpt>
      <trkpt lat="48.47077" lon="-2.49565">
        <ele>47.262164998471</ele>
        <time>2021-05-10T13:58:05Z</time>
      </trkpt>
      <trkpt lat="48.4708" lon="-2.49577">
        <ele>49.028771029282</ele>
        <time>2021-05-10T13:58:12Z</time>
      </trkpt>
      <trkpt lat="48.4708" lon="-2.4959">
        <ele>48.488856329213</ele>
        <time>2021-05-10T13:58:19Z</time>
      </trkpt>
      <trkpt lat="48.47083" lon="-2.49602">
        <ele>49.380276700754</ele>
        <time>2021-05-10T13:58:28Z</time>
      </trkpt>
      <trkpt lat="48.47086" lon="-2.49613">
        <ele>51.057039502943</ele>
        <time>2021-05-10T13:58:35Z</time>
      </trkpt>
      <trkpt lat="48.47086" lon="-2.49625">
        <ele>52.675210071188</ele>
        <time>2021-05-10T13:58:41Z</time>
      </trkpt>
      <trkpt lat="48.47086" lon="-2.49638">
        <ele>49.443766905999</ele>
        <time>2021-05-10T13:58:49Z</time>
      </trkpt>
      <trkpt lat="48.47083" lon="-2.4965">
        <ele>49.878710187307</ele>
        <time>2021-05-10T13:59:04Z</time>
      </trkpt>
      <trkpt lat="48.47078" lon="-2.49661">
        <ele>49.925777518676</ele>
        <time>2021-05-10T13:59:11Z</time>
      </trkpt>
      <trkpt lat="48.47073" lon="-2.49671">
        <ele>50.829603513309</ele>
        <time>2021-05-10T13:59:18Z</time>
      </trkpt>
      <trkpt lat="48.47069" lon="-2.49682">
        <ele>50.80337005237</ele>
        <time>2021-05-10T13:59:26Z</time>
      </trkpt>
      <trkpt lat="48.47066" lon="-2.49693">
        <ele>49.554785910259</ele>
        <time>2021-05-10T13:59:33Z</time>
      </trkpt>
      <trkpt lat="48.47065" lon="-2.49705">
        <ele>48.82963388701</ele>
        <time>2021-05-10T13:59:40Z</time>
      </trkpt>
      <trkpt lat="48.47065" lon="-2.49717">
        <ele>50.468921380955</ele>
        <time>2021-05-10T13:59:47Z</time>
      </trkpt>
      <trkpt lat="48.47065" lon="-2.4973">
        <ele>48.112351630444</ele>
        <time>2021-05-10T13:59:54Z</time>
      </trkpt>
      <trkpt lat="48.47072" lon="-2.49737">
        <ele>45.158459597745</ele>
        <time>2021-05-10T14:00:04Z</time>
      </trkpt>
      <trkpt lat="48.47081" lon="-2.49738">
        <ele>44.555238253815</ele>
        <time>2021-05-10T14:00:24Z</time>
      </trkpt>
      <trkpt lat="48.47076" lon="-2.49749">
        <ele>47.337052235075</ele>
        <time>2021-05-10T14:01:24Z</time>
      </trkpt>
      <trkpt lat="48.47071" lon="-2.4976">
        <ele>44.050992499118</ele>
        <time>2021-05-10T14:01:33Z</time>
      </trkpt>
      <trkpt lat="48.47071" lon="-2.49771">
        <ele>44.879855313245</ele>
        <time>2021-05-10T14:01:42Z</time>
      </trkpt>
      <trkpt lat="48.47072" lon="-2.49783">
        <ele>43.782875061242</ele>
        <time>2021-05-10T14:01:49Z</time>
      </trkpt>
      <trkpt lat="48.47076" lon="-2.49795">
        <ele>47.080915271418</ele>
        <time>2021-05-10T14:01:57Z</time>
      </trkpt>
      <trkpt lat="48.47074" lon="-2.49808">
        <ele>45.232223845968</ele>
        <time>2021-05-10T14:02:03Z</time>
      </trkpt>
      <trkpt lat="48.47074" lon="-2.4982">
        <ele>47.695667174027</ele>
        <time>2021-05-10T14:02:12Z</time>
      </trkpt>
      <trkpt lat="48.47074" lon="-2.49833">
        <ele>49.132130756564</ele>
        <time>2021-05-10T14:02:20Z</time>
      </trkpt>
      <trkpt lat="48.47076" lon="-2.49845">
        <ele>48.28655510145</ele>
        <time>2021-05-10T14:02:27Z</time>
      </trkpt>
      <trkpt lat="48.47077" lon="-2.49857">
        <ele>48.195186564352</ele>
        <time>2021-05-10T14:02:33Z</time>
      </trkpt>
      <trkpt lat="48.47081" lon="-2.49869">
        <ele>44.469302578583</ele>
        <time>2021-05-10T14:02:42Z</time>
      </trkpt>
      <trkpt lat="48.47086" lon="-2.4988">
        <ele>46.391063231051</ele>
        <time>2021-05-10T14:02:49Z</time>
      </trkpt>
      <trkpt lat="48.47087" lon="-2.49893">
        <ele>47.944651244743</ele>
        <time>2021-05-10T14:02:56Z</time>
      </trkpt>
      <trkpt lat="48.47089" lon="-2.49906">
        <ele>47.976695016479</ele>
        <time>2021-05-10T14:03:04Z</time>
      </trkpt>
      <trkpt lat="48.47092" lon="-2.49919">
        <ele>47.199413657448</ele>
        <time>2021-05-10T14:03:12Z</time>
      </trkpt>
      <trkpt lat="48.47094" lon="-2.4993">
        <ele>47.943197701713</ele>
        <time>2021-05-10T14:03:18Z</time>
      </trkpt>
      <trkpt lat="48.47096" lon="-2.49943">
        <ele>48.420064576357</ele>
        <time>2021-05-10T14:03:24Z</time>
      </trkpt>
      <trkpt lat="48.47098" lon="-2.49955">
        <ele>47.688379352129</ele>
        <time>2021-05-10T14:03:31Z</time>
      </trkpt>
      <trkpt lat="48.47101" lon="-2.49966">
        <ele>47.007846144968</ele>
        <time>2021-05-10T14:03:39Z</time>
      </trkpt>
      <trkpt lat="48.47106" lon="-2.49977">
        <ele>45.464766848964</ele>
        <time>2021-05-10T14:03:48Z</time>
      </trkpt>
      <trkpt lat="48.47109" lon="-2.49988">
        <ele>47.21306861017</ele>
        <time>2021-05-10T14:03:55Z</time>
      </trkpt>
      <trkpt lat="48.47111" lon="-2.50001">
        <ele>47.816650390625</ele>
        <time>2021-05-10T14:04:02Z</time>
      </trkpt>
      <trkpt lat="48.47112" lon="-2.50014">
        <ele>48.210083007812</ele>
        <time>2021-05-10T14:04:10Z</time>
      </trkpt>
      <trkpt lat="48.47111" lon="-2.50027">
        <ele>45.642333984375</ele>
        <time>2021-05-10T14:04:17Z</time>
      </trkpt>
      <trkpt lat="48.47111" lon="-2.50039">
        <ele>46.832763671875</ele>
        <time>2021-05-10T14:04:24Z</time>
      </trkpt>
      <trkpt lat="48.47116" lon="-2.5005">
        <ele>49.537353515625</ele>
        <time>2021-05-10T14:04:31Z</time>
      </trkpt>
      <trkpt lat="48.47122" lon="-2.50059">
        <ele>50.106140136719</ele>
        <time>2021-05-10T14:04:39Z</time>
      </trkpt>
      <trkpt lat="48.47128" lon="-2.50068">
        <ele>49.386779785156</ele>
        <time>2021-05-10T14:04:47Z</time>
      </trkpt>
      <trkpt lat="48.47133" lon="-2.50078">
        <ele>48.90771484375</ele>
        <time>2021-05-10T14:04:54Z</time>
      </trkpt>
      <trkpt lat="48.4714" lon="-2.50086">
        <ele>49.611450195312</ele>
        <time>2021-05-10T14:05:01Z</time>
      </trkpt>
      <trkpt lat="48.47146" lon="-2.50095">
        <ele>47.826782226562</ele>
        <time>2021-05-10T14:05:09Z</time>
      </trkpt>
      <trkpt lat="48.47153" lon="-2.50102">
        <ele>46.528076171875</ele>
        <time>2021-05-10T14:05:16Z</time>
      </trkpt>
      <trkpt lat="48.4716" lon="-2.50109">
        <ele>48.385803222656</ele>
        <time>2021-05-10T14:05:22Z</time>
      </trkpt>
      <trkpt lat="48.47165" lon="-2.50119">
        <ele>47.028686523438</ele>
        <time>2021-05-10T14:05:29Z</time>
      </trkpt>
      <trkpt lat="48.47173" lon="-2.50126">
        <ele>46.700561523438</ele>
        <time>2021-05-10T14:05:37Z</time>
      </trkpt>
      <trkpt lat="48.47178" lon="-2.50136">
        <ele>46.589782714844</ele>
        <time>2021-05-10T14:05:45Z</time>
      </trkpt>
      <trkpt lat="48.47183" lon="-2.50146">
        <ele>47.532104492188</ele>
        <time>2021-05-10T14:05:52Z</time>
      </trkpt>
      <trkpt lat="48.47188" lon="-2.50157">
        <ele>48.347412109375</ele>
        <time>2021-05-10T14:06:00Z</time>
      </trkpt>
      <trkpt lat="48.47194" lon="-2.50165">
        <ele>48.319885253906</ele>
        <time>2021-05-10T14:06:07Z</time>
      </trkpt>
      <trkpt lat="48.472" lon="-2.50174">
        <ele>48.135559082031</ele>
        <time>2021-05-10T14:06:15Z</time>
      </trkpt>
      <trkpt lat="48.47205" lon="-2.50185">
        <ele>48.614868164062</ele>
        <time>2021-05-10T14:06:23Z</time>
      </trkpt>
      <trkpt lat="48.47209" lon="-2.50196">
        <ele>49.061645507812</ele>
        <time>2021-05-10T14:06:31Z</time>
      </trkpt>
      <trkpt lat="48.47215" lon="-2.50206">
        <ele>49.327941894531</ele>
        <time>2021-05-10T14:06:39Z</time>
      </trkpt>
      <trkpt lat="48.4722" lon="-2.50217">
        <ele>49.880065917969</ele>
        <time>2021-05-10T14:06:46Z</time>
      </trkpt>
      <trkpt lat="48.47219" lon="-2.5023">
        <ele>48.153076171875</ele>
        <time>2021-05-10T14:06:55Z</time>
      </trkpt>
      <trkpt lat="48.47218" lon="-2.50242">
        <ele>47.83349609375</ele>
        <time>2021-05-10T14:07:02Z</time>
      </trkpt>
      <trkpt lat="48.47218" lon="-2.50254">
        <ele>48.261657714844</ele>
        <time>2021-05-10T14:07:09Z</time>
      </trkpt>
      <trkpt lat="48.47216" lon="-2.50267">
        <ele>48.81640625</ele>
        <time>2021-05-10T14:07:17Z</time>
      </trkpt>
      <trkpt lat="48.4721" lon="-2.50276">
        <ele>49.396423339844</ele>
        <time>2021-05-10T14:07:23Z</time>
      </trkpt>
      <trkpt lat="48.47207" lon="-2.50288">
        <ele>47.140991210938</ele>
        <time>2021-05-10T14:07:30Z</time>
      </trkpt>
      <trkpt lat="48.472" lon="-2.50296">
        <ele>47.770141601562</ele>
        <time>2021-05-10T14:07:38Z</time>
      </trkpt>
      <trkpt lat="48.47193" lon="-2.50303">
        <ele>47.957336425781</ele>
        <time>2021-05-10T14:07:45Z</time>
      </trkpt>
      <trkpt lat="48.47185" lon="-2.5031">
        <ele>48.530456542969</ele>
        <time>2021-05-10T14:07:52Z</time>
      </trkpt>
      <trkpt lat="48.47178" lon="-2.50316">
        <ele>47.841003417969</ele>
        <time>2021-05-10T14:07:59Z</time>
      </trkpt>
      <trkpt lat="48.47172" lon="-2.50322">
        <ele>47.095581054688</ele>
        <time>2021-05-10T14:08:06Z</time>
      </trkpt>
      <trkpt lat="48.47169" lon="-2.5034">
        <ele>49</ele>
        <time>2021-05-10T14:08:13Z</time>
      </trkpt>
      <trkpt lat="48.47165" lon="-2.50346">
        <ele>48.8</ele>
        <time>2021-05-10T14:08:20Z</time>
      </trkpt>
      <trkpt lat="48.47157" lon="-2.50353">
        <ele>48.7</ele>
        <time>2021-05-10T14:08:27Z</time>
      </trkpt>
      <trkpt lat="48.4715" lon="-2.5036">
        <ele>48.5</ele>
        <time>2021-05-10T14:08:34Z</time>
      </trkpt>
    </trkseg>
  </trk>
</gpx>